Provisional Data: Sugar Run near Sugar Run, PA


Please select a monitoring station.
Please select start date.
Please select start date.

Toggle Unit: C/F Toggle Unit: C/F
Sample Time Temperature (C) Temperature (F) Specific Conductivity (mS/cm) pH   Turbidity (NTU+) DO (mg/L)
3/23/2021 12:00:00 AM 6.08 42.944 0.088 7.22 17.33 12.16
3/23/2021 12:15:00 AM 6.05 42.89 0.088 7.22 19.11 12.16
3/23/2021 12:30:00 AM 6.02 42.836 0.088 7.21 18.05 12.16
3/23/2021 12:45:00 AM 6 42.8 0.088 7.21 20.01 12.16
3/23/2021 1:00:00 AM 5.96 42.728 0.088 7.21 18.37 12.17
3/23/2021 1:15:00 AM 5.94 42.692 0.089 7.2 17.76 12.17
3/23/2021 1:30:00 AM 5.92 42.656 0.089 7.21 20.22 12.16
3/23/2021 1:45:00 AM 5.89 42.602 0.089 7.2 18.86 12.17
3/23/2021 2:00:00 AM 5.87 42.566 0.089 7.2 19.43 12.18
3/23/2021 2:15:00 AM 5.85 42.53 0.089 7.19 19.11 12.18
3/23/2021 2:30:00 AM 5.83 42.494 0.089 7.2 20.08 12.18
3/23/2021 2:45:00 AM 5.81 42.458 0.089 7.2 19.18 12.16
3/23/2021 3:00:00 AM 5.79 42.422 0.089 7.19 20.31 12.16
3/23/2021 3:15:00 AM 5.77 42.386 0.089 7.18 20.48 12.18
3/23/2021 3:30:00 AM 5.74 42.332 0.089 7.19 19.56 12.17
3/23/2021 3:45:00 AM 5.72 42.296 0.089 7.19 22.17 12.18
3/23/2021 4:00:00 AM 5.7 42.26 0.089 7.19 19.16 12.18
3/23/2021 4:15:00 AM 5.68 42.224 0.089 7.19 21.3 12.17
3/23/2021 4:30:00 AM 5.66 42.188 0.089 7.18 21.05 12.19
3/23/2021 4:45:00 AM 5.64 42.152 0.089 7.18 21.11 12.19
3/23/2021 5:00:00 AM 5.62 42.116 0.089 7.18 19.63 12.2
3/23/2021 5:15:00 AM 5.6 42.08 0.089 7.18 20.49 12.19
3/23/2021 5:30:00 AM 5.58 42.044 0.089 7.18 20.9 12.18
3/23/2021 5:45:00 AM 5.56 42.008 0.089 7.17 20.89 12.19
3/23/2021 6:00:00 AM 5.53 41.954 0.089 7.17 20.84 12.21
3/23/2021 6:15:00 AM 5.51 41.918 0.089 7.18 18.69 12.2
3/23/2021 6:30:00 AM 5.48 41.864 0.089 7.17 19.09 12.21
3/23/2021 6:45:00 AM 5.45 41.81 0.089 7.17 19.41 12.22
3/23/2021 7:00:00 AM 5.42 41.756 0.089 7.17 19.8 12.23
3/23/2021 7:15:00 AM 5.38 41.684 0.089 7.17 19.38 12.25
3/23/2021 7:30:00 AM 5.35 41.63 0.089 7.17 19.65 12.28
3/23/2021 7:45:00 AM 5.31 41.558 0.089 7.18 20.19 12.33
3/23/2021 8:00:00 AM 5.28 41.504 0.089 7.18 22.02 12.36
3/23/2021 8:15:00 AM 5.24 41.432 0.089 7.18 20.24 12.4
3/23/2021 8:30:00 AM 5.22 41.396 0.089 7.19 21.46 12.44
3/23/2021 8:45:00 AM 5.2 41.36 0.089 7.19 18.96 12.48
3/23/2021 9:00:00 AM 5.2 41.36 0.089 7.2 19.98 12.53
3/23/2021 9:15:00 AM 5.23 41.414 0.089 7.21 21.91 12.58
3/23/2021 9:30:00 AM 5.27 41.486 0.089 7.23 21.45 12.63
3/23/2021 9:45:00 AM 5.33 41.594 0.089 7.23 21.97 12.66
3/23/2021 10:00:00 AM 5.41 41.738 0.089 7.26 19.26 12.68
3/23/2021 10:15:00 AM 5.51 41.918 0.089 7.26 19.7 12.71
3/23/2021 10:30:00 AM 5.61 42.098 0.089 7.27 19.01 12.73
3/23/2021 10:45:00 AM 5.7 42.26 0.089 7.28 18.67 12.74
3/23/2021 11:00:00 AM 5.81 42.458 0.089 7.3 20.36 12.72
3/23/2021 11:15:00 AM 5.96 42.728 0.089 7.3 21.04 12.75
3/23/2021 11:30:00 AM 6.09 42.962 0.089 7.32 19.55 12.72
3/23/2021 11:45:00 AM 6.24 43.232 0.09 7.33 18.39 12.74
3/23/2021 12:00:00 PM 6.38 43.484 0.09 7.34 19.58 12.7
3/23/2021 12:15:00 PM 6.5 43.7 0.09 7.35 17.69 12.68
3/23/2021 12:30:00 PM 6.65 43.97 0.09 7.35 19.48 12.66
3/23/2021 12:45:00 PM 6.76 44.168 0.09 7.36 20.79 12.64
3/23/2021 1:00:00 PM 6.89 44.402 0.09 7.38 22.58 12.62
3/23/2021 1:15:00 PM 6.98 44.564 0.09 7.39 21.83 12.6
3/23/2021 1:30:00 PM 7.07 44.726 0.09 7.38 21.49 12.59
3/23/2021 1:45:00 PM 7.12 44.816 0.09 7.4 22.33 12.56
3/23/2021 2:00:00 PM 7.16 44.888 0.09 7.4 22.94 12.57
3/23/2021 2:15:00 PM 7.16 44.888 0.09 7.41 22.56 12.55
3/23/2021 2:30:00 PM 7.23 45.014 0.09 7.41 19.39 12.55
3/23/2021 2:45:00 PM 7.19 44.942 0.09 7.42 22.1 12.53
3/23/2021 3:00:00 PM 7.21 44.978 0.09 7.42 21.41 12.53
3/23/2021 3:15:00 PM 7.18 44.924 0.09 7.43 22.39 12.53
3/23/2021 3:30:00 PM 7.14 44.852 0.09 7.44 22.7 12.52
3/23/2021 3:45:00 PM 7.11 44.798 0.09 7.44 24.93 12.52
3/23/2021 4:00:00 PM 7.15 44.87 0.091 7.44 27.02 12.51
3/23/2021 4:15:00 PM 7.13 44.834 0.091 7.45 24.41 12.49
3/23/2021 4:30:00 PM 7.14 44.852 0.091 7.44 24.42 12.47
3/23/2021 4:45:00 PM 7.14 44.852 0.091 7.44 26.18 12.45
3/23/2021 5:00:00 PM 7.14 44.852 0.091 7.44 23.19 12.44
3/23/2021 5:15:00 PM 7.14 44.852 0.091 7.44 23.56 12.41
3/23/2021 5:30:00 PM 7.15 44.87 0.091 7.43 24.46 12.4
3/23/2021 5:45:00 PM 7.14 44.852 0.091 7.42 25.11 12.35
3/23/2021 6:00:00 PM 7.14 44.852 0.091 7.42 24.37 12.28
3/23/2021 6:15:00 PM 7.16 44.888 0.091 7.4 22.75 12.24
3/23/2021 6:30:00 PM 7.17 44.906 0.091 7.39 23.38 12.18
3/23/2021 6:45:00 PM 7.19 44.942 0.091 7.38 25.04 12.14
3/23/2021 7:00:00 PM 7.19 44.942 0.091 7.37 22.15 12.09
3/23/2021 7:15:00 PM 7.2 44.96 0.091 7.35 20.73 12.02
3/23/2021 7:30:00 PM 7.22 44.996 0.092 7.34 24.36 11.98
3/23/2021 7:45:00 PM 7.22 44.996 0.092 7.32 24.63 11.95
3/23/2021 8:00:00 PM 7.22 44.996 0.092 7.31 24.12 11.92
3/23/2021 8:15:00 PM 7.23 45.014 0.092 7.3 21.26 11.89
3/23/2021 8:30:00 PM 7.24 45.032 0.092 7.3 23.7 11.88
3/23/2021 8:45:00 PM 7.23 45.014 0.092 7.29 22.77 11.87
3/23/2021 9:00:00 PM 7.23 45.014 0.092 7.29 21.84 11.87
3/23/2021 9:15:00 PM 7.23 45.014 0.092 7.28 23.44 11.85
3/23/2021 9:30:00 PM 7.23 45.014 0.092 7.28 20.78 11.83
3/23/2021 9:45:00 PM 7.23 45.014 0.092 7.27 22.68 11.83
3/23/2021 10:00:00 PM 7.21 44.978 0.092 7.26 24.26 11.81
3/23/2021 10:15:00 PM 7.21 44.978 0.092 7.26 22.23 11.83
3/23/2021 10:30:00 PM 7.21 44.978 0.092 7.27 23.2 11.82
3/23/2021 10:45:00 PM 7.19 44.942 0.092 7.26 23.71 11.8
3/23/2021 11:00:00 PM 7.18 44.924 0.092 7.26 22.71 11.8
3/23/2021 11:15:00 PM 7.16 44.888 0.092 7.26 21.07 11.8
3/23/2021 11:30:00 PM 7.16 44.888 0.092 7.25 22.52 11.81
3/23/2021 11:45:00 PM 7.14 44.852 0.091 7.25 21.53 11.81
3/24/2021 12:00:00 AM 7.12 44.816 0.092 7.24 20.39 11.8
3/24/2021 12:15:00 AM 7.09 44.762 0.092 7.25 23.78 11.79
3/24/2021 12:30:00 AM 7.07 44.726 0.091 7.25 23.38 11.8
3/24/2021 12:45:00 AM 7.05 44.69 0.091 7.24 21.97 11.8
3/24/2021 1:00:00 AM 7.04 44.672 0.091 7.24 22.45 11.8
3/24/2021 1:15:00 AM 7.03 44.654 0.091 7.24 32.84 11.81
3/24/2021 1:30:00 AM 7.02 44.636 0.091 7.24 22.94 11.81
3/24/2021 1:45:00 AM 7 44.6 0.091 7.23 21.46 11.81
3/24/2021 2:00:00 AM 7 44.6 0.091 7.23 24.03 11.8
3/24/2021 2:15:00 AM 6.99 44.582 0.091 7.23 23.76 11.79
3/24/2021 2:30:00 AM 7 44.6 0.091 7.23 20.01 11.77
3/24/2021 2:45:00 AM 7.02 44.636 0.091 7.22 24.24 11.8
3/24/2021 3:00:00 AM 7.02 44.636 0.091 7.23 23.98 11.77
3/24/2021 3:15:00 AM 7.04 44.672 0.091 7.22 21.35 11.77
3/24/2021 3:30:00 AM 7.04 44.672 0.091 7.22 23.03 11.75
3/24/2021 3:45:00 AM 7.06 44.708 0.091 7.22 23.77 11.76
3/24/2021 4:00:00 AM 7.07 44.726 0.091 7.22 20.66 11.75
3/24/2021 4:15:00 AM 7.1 44.78 0.091 7.23 25.4 11.73
3/24/2021 4:30:00 AM 7.1 44.78 0.091 7.22 19.87 11.71
3/24/2021 4:45:00 AM 7.13 44.834 0.091 7.21 22.61 11.71
3/24/2021 5:00:00 AM 7.15 44.87 0.091 7.21 23.47 11.7
3/24/2021 5:15:00 AM 7.17 44.906 0.091 7.21 22.42 11.69
3/24/2021 5:30:00 AM 7.2 44.96 0.091 7.21 25.17 11.68
3/24/2021 5:45:00 AM 7.21 44.978 0.091 7.21 25.01 11.65
3/24/2021 6:00:00 AM 7.23 45.014 0.091 7.21 19.18 11.65
3/24/2021 6:15:00 AM 7.24 45.032 0.091 7.21 23.18 11.63
3/24/2021 6:30:00 AM 7.26 45.068 0.091 7.2 24.44 11.64
3/24/2021 6:45:00 AM 7.27 45.086 0.092 7.21 25.94 11.64
3/24/2021 7:00:00 AM 7.28 45.104 0.092 7.21 24.09 11.63
3/24/2021 7:15:00 AM 7.3 45.14 0.092 7.2 24.6 11.63
3/24/2021 7:30:00 AM 7.3 45.14 0.092 7.21 23.26 11.61
3/24/2021 7:45:00 AM 7.32 45.176 0.092 7.2 23.57 11.63
3/24/2021 8:00:00 AM 7.33 45.194 0.092 7.21 30.37 11.63
3/24/2021 8:15:00 AM 7.35 45.23 0.092 7.21 26.36 11.63
3/24/2021 8:30:00 AM 7.36 45.248 0.092 7.21 26.08 11.64
3/24/2021 8:45:00 AM 7.38 45.284 0.092 7.21 29.82 11.68
3/24/2021 9:00:00 AM 7.37 45.266 0.092 7.22 28.68 11.68
3/24/2021 9:15:00 AM 7.39 45.302 0.092 7.22 27.5 11.74
3/24/2021 9:30:00 AM 7.4 45.32 0.092 7.24 23.16 11.75
3/24/2021 9:45:00 AM 7.42 45.356 0.092 7.24 26.64 11.81
3/24/2021 10:00:00 AM 7.42 45.356 0.092 7.24 24.32 11.82
3/24/2021 10:15:00 AM 7.43 45.374 0.092 7.26 30.56 11.83
3/24/2021 10:30:00 AM 7.44 45.392 0.092 7.27 26.97 11.87
3/24/2021 10:45:00 AM 7.47 45.446 0.092 7.28 30.65 11.93
3/24/2021 11:00:00 AM 7.48 45.464 0.092 7.29 28.72 11.93
3/24/2021 11:15:00 AM 7.5 45.5 0.092 7.29 28.38 11.94
3/24/2021 11:30:00 AM 7.49 45.482 0.092 7.3 39 11.9
3/24/2021 11:45:00 AM 7.49 45.482 0.092 7.29 36.65 11.88
3/24/2021 12:00:00 PM 7.49 45.482 0.092 7.3 43.44 11.83
3/24/2021 12:15:00 PM 7.49 45.482 0.092 7.28 43.91 11.85
3/24/2021 12:30:00 PM 7.51 45.518 0.092 7.29 38.44 11.88
3/24/2021 12:45:00 PM 7.54 45.572 0.092 7.31 29 11.9
3/24/2021 1:00:00 PM 7.54 45.572 0.092 7.31 56.5 11.91
3/24/2021 1:15:00 PM 7.54 45.572 0.092 7.31 50.43 11.91
3/24/2021 1:30:00 PM 7.54 45.572 0.092 7.31 44.77 11.92
3/24/2021 1:45:00 PM 7.54 45.572 0.092 7.32 39.11 11.91
3/24/2021 2:00:00 PM 7.54 45.572 0.092 7.33 44.26 11.9
3/24/2021 2:15:00 PM 7.54 45.572 0.092 7.32 41.67 11.93
3/24/2021 2:30:00 PM 7.53 45.554 0.092 7.32 47.14 11.9
3/24/2021 2:45:00 PM 7.53 45.554 0.093 7.32 53.47 11.92
3/24/2021 3:00:00 PM 7.52 45.536 0.093 7.31 73.13 11.9
3/24/2021 3:15:00 PM 7.51 45.518 0.094 7.31 45.5 11.9
3/24/2021 3:30:00 PM 7.49 45.482 0.094 7.31 46.22 11.9
3/24/2021 3:45:00 PM 7.47 45.446 0.094 7.31 53.97 11.9
3/24/2021 4:00:00 PM 7.45 45.41 0.094 7.31 52.59 11.89
3/24/2021 4:15:00 PM 7.44 45.392 0.095 7.3 61.14 11.87
3/24/2021 4:30:00 PM 7.43 45.374 0.095 7.29 37.85 11.88
3/24/2021 4:45:00 PM 7.4 45.32 0.095 7.28 36.61 11.87
3/24/2021 5:00:00 PM 7.39 45.302 0.095 7.28 48.97 11.88
3/24/2021 5:15:00 PM 7.39 45.302 0.095 7.27 34.84 11.9
3/24/2021 5:30:00 PM 7.38 45.284 0.095 7.28 31.05 11.91
3/24/2021 5:45:00 PM 7.37 45.266 0.095 7.27 49.08 11.91
3/24/2021 6:00:00 PM 7.38 45.284 0.094 7.27 44.7 11.9
3/24/2021 6:15:00 PM 7.38 45.284 0.094 7.26 33.09 11.89
3/24/2021 6:30:00 PM 7.38 45.284 0.094 7.27 46.32 11.87
3/24/2021 6:45:00 PM 7.37 45.266 0.095 7.25 30.31 11.84
3/24/2021 7:00:00 PM 7.37 45.266 0.095 7.26 46.9 11.83
3/24/2021 7:15:00 PM 7.35 45.23 0.095 7.25 44.89 11.82
3/24/2021 7:30:00 PM 7.33 45.194 0.094 7.24 43.52 11.81
3/24/2021 7:45:00 PM 7.31 45.158 0.094 7.24 40.17 11.8
3/24/2021 8:00:00 PM 7.29 45.122 0.093 7.23 39.73 11.8
3/24/2021 8:15:00 PM 7.28 45.104 0.093 7.23 49.41 11.79
3/24/2021 8:30:00 PM 7.28 45.104 0.093 7.22 41.8 11.78
3/24/2021 8:45:00 PM 7.3 45.14 0.092 7.23 40.44 11.77
3/24/2021 9:00:00 PM 7.31 45.158 0.092 7.22 46.52 11.76
3/24/2021 9:15:00 PM 7.34 45.212 0.092 7.2 41.83 11.75
3/24/2021 9:30:00 PM 7.37 45.266 0.091 7.21 37.97 11.73
3/24/2021 9:45:00 PM 7.4 45.32 0.091 7.2 42.89 11.72
3/24/2021 10:00:00 PM 7.44 45.392 0.09 7.19 55.33 11.71
3/24/2021 10:15:00 PM 7.47 45.446 0.09 7.19 44.06 11.69
3/24/2021 10:30:00 PM 7.49 45.482 0.089 7.18 43.48 11.68
3/24/2021 10:45:00 PM 7.52 45.536 0.089 7.18 41.68 11.66
3/24/2021 11:00:00 PM 7.54 45.572 0.088 7.16 41.57 11.65
3/24/2021 11:15:00 PM 7.56 45.608 0.088 7.16 57.78 11.65
3/24/2021 11:30:00 PM 7.58 45.644 0.088 7.16 45.98 11.63
3/24/2021 11:45:00 PM 7.59 45.662 0.087 7.15 55.53 11.63
3/25/2021 12:00:00 AM 7.61 45.698 0.087 7.16 59.61 11.62
3/25/2021 12:15:00 AM 7.63 45.734 0.087 7.14 51.09 11.61
3/25/2021 12:30:00 AM 7.62 45.716 0.086 7.14 38.38 11.6
3/25/2021 12:45:00 AM 7.63 45.734 0.086 7.13 44.48 11.59
3/25/2021 1:00:00 AM 7.63 45.734 0.086 7.13 53.42 11.59
3/25/2021 1:15:00 AM 7.63 45.734 0.086 7.12 46.4 11.58
3/25/2021 1:30:00 AM 7.64 45.752 0.086 7.13 43.88 11.58
3/25/2021 1:45:00 AM 7.65 45.77 0.086 7.12 50.71 11.58
3/25/2021 2:00:00 AM 7.66 45.788 0.086 7.12 45.22 11.58
3/25/2021 2:15:00 AM 7.66 45.788 0.086 7.12 43.66 11.57
3/25/2021 2:30:00 AM 7.67 45.806 0.086 7.12 42.99 11.57
3/25/2021 2:45:00 AM 7.69 45.842 0.086 7.12 46.77 11.56
3/25/2021 3:00:00 AM 7.7 45.86 0.086 7.12 45.01 11.55
3/25/2021 3:15:00 AM 7.7 45.86 0.086 7.12 51.52 11.54
3/25/2021 3:30:00 AM 7.72 45.896 0.086 7.11 41.94 11.55
3/25/2021 3:45:00 AM 7.72 45.896 0.086 7.11 39.11 11.53
3/25/2021 4:00:00 AM 7.73 45.914 0.086 7.11 35.48 11.53
3/25/2021 4:15:00 AM 7.73 45.914 0.086 7.11 39.19 11.54
3/25/2021 4:30:00 AM 7.74 45.932 0.086 7.12 48.57 11.53
3/25/2021 4:45:00 AM 7.74 45.932 0.086 7.11 40.99 11.53
3/25/2021 5:00:00 AM 7.74 45.932 0.086 7.11 42.28 11.52
3/25/2021 5:15:00 AM 7.75 45.95 0.086 7.11 36.89 11.52
3/25/2021 5:30:00 AM 7.75 45.95 0.086 7.11 37.91 11.52
3/25/2021 5:45:00 AM 7.75 45.95 0.087 7.11 34.31 11.53
3/25/2021 6:00:00 AM 7.74 45.932 0.087 7.11 34.46 11.52
3/25/2021 6:15:00 AM 7.74 45.932 0.087 7.11 43.36 11.52
3/25/2021 6:30:00 AM 7.74 45.932 0.087 7.11 45.94 11.53
3/25/2021 6:45:00 AM 7.74 45.932 0.087 7.11 45.13 11.53
3/25/2021 7:00:00 AM 7.73 45.914 0.087 7.11 45.53 11.54
3/25/2021 7:15:00 AM 7.72 45.896 0.087 7.12 39.74 11.53
3/25/2021 7:30:00 AM 7.72 45.896 0.088 7.11 39.27 11.56
3/25/2021 7:45:00 AM 7.73 45.914 0.088 7.12 34.01 11.59
3/25/2021 8:00:00 AM 7.73 45.914 0.088 7.12 35.11 11.6
3/25/2021 8:15:00 AM 7.75 45.95 0.088 7.14 37.45 11.63
3/25/2021 8:30:00 AM 7.77 45.986 0.088 7.15 40.42 11.66
3/25/2021 8:45:00 AM 7.8 46.04 0.088 7.16 31.48 11.69
3/25/2021 9:00:00 AM 7.82 46.076 0.088 7.16 39.33 11.71
3/25/2021 9:15:00 AM 7.87 46.166 0.088 7.18 45.91 11.73
3/25/2021 9:30:00 AM 7.92 46.256 0.089 7.19 44.13 11.76
3/25/2021 9:45:00 AM 7.97 46.346 0.089 7.21 35.28 11.78
3/25/2021 10:00:00 AM 8.03 46.454 0.089 7.23 31.97 11.79
3/25/2021 10:15:00 AM 8.15 46.67 0.089 7.22 41.18 11.82
3/25/2021 10:30:00 AM 8.25 46.85 0.089 7.24 43.39 11.84
3/25/2021 10:45:00 AM 8.36 47.048 0.089 7.25 40.76 11.84
3/25/2021 11:00:00 AM 8.47 47.246 0.089 7.27 34.8 11.83
3/25/2021 11:15:00 AM 8.58 47.444 0.089 7.28 31.45 11.81
3/25/2021 11:30:00 AM 8.69 47.642 0.089 7.29 42.06 11.82
3/25/2021 11:45:00 AM 8.81 47.858 0.089 7.3 31.25 11.81
3/25/2021 12:00:00 PM 8.95 48.11 0.089 7.31 47.77 11.8
3/25/2021 12:15:00 PM 9.1 48.38 0.089 7.32 29.66 11.77
3/25/2021 12:30:00 PM 9.25 48.65 0.089 7.32 40.08 11.74
3/25/2021 12:45:00 PM 9.4 48.92 0.089 7.35 36.7 11.74
3/25/2021 1:00:00 PM 9.56 49.208 0.089 7.36 33.64 11.71
3/25/2021 1:15:00 PM 9.67 49.406 0.089 7.37 51.13 11.68
3/25/2021 1:30:00 PM 9.77 49.586 0.089 7.37 36.48 11.64
3/25/2021 1:45:00 PM 9.88 49.784 0.089 7.38 49.84 11.62
3/25/2021 2:00:00 PM 9.98 49.964 0.09 7.39 35.02 11.62
3/25/2021 2:15:00 PM 10.09 50.162 0.09 7.39 32.21 11.6
3/25/2021 2:30:00 PM 10.18 50.324 0.089 7.41 32 11.54
3/25/2021 2:45:00 PM 10.24 50.432 0.09 7.41 29.61 11.53
3/25/2021 3:00:00 PM 10.31 50.558 0.089 7.42 52.81 11.5
3/25/2021 3:15:00 PM 10.4 50.72 0.09 7.42 44.87 11.47
3/25/2021 3:30:00 PM 10.44 50.792 0.089 7.43 50.44 11.44
3/25/2021 3:45:00 PM 10.49 50.882 0.09 7.44 34.51 11.41
3/25/2021 4:00:00 PM 10.55 50.99 0.089 7.44 50.38 11.38
3/25/2021 4:15:00 PM 10.6 51.08 0.089 7.44 44.62 11.34
3/25/2021 4:30:00 PM 10.66 51.188 0.089 7.43 38.79 11.31
3/25/2021 4:45:00 PM 10.72 51.296 0.089 7.43 34.89 11.27
3/25/2021 5:00:00 PM 10.76 51.368 0.09 7.44 33.52 11.24
3/25/2021 5:15:00 PM 10.82 51.476 0.09 7.43 40.29 11.22
3/25/2021 5:30:00 PM 10.87 51.566 0.09 7.42 33.38 11.18
3/25/2021 5:45:00 PM 10.92 51.656 0.09 7.41 40.34 11.13
3/25/2021 6:00:00 PM 10.94 51.692 0.09 7.4 34.97 11.08
3/25/2021 6:15:00 PM 10.97 51.746 0.09 7.39 45.57 11.03
3/25/2021 6:30:00 PM 11.01 51.818 0.09 7.39 50.36 10.97
3/25/2021 6:45:00 PM 11.05 51.89 0.09 7.37 32.09 10.92
3/25/2021 7:00:00 PM 11.09 51.962 0.09 7.35 34.56 10.87
3/25/2021 7:15:00 PM 11.12 52.016 0.09 7.35 45.73 10.81
3/25/2021 7:30:00 PM 11.14 52.052 0.09 7.33 34.36 10.77
3/25/2021 7:45:00 PM 11.15 52.07 0.09 7.33 40.87 10.74
3/25/2021 8:00:00 PM 11.18 52.124 0.09 7.31 52.2 10.71
3/25/2021 8:15:00 PM 11.2 52.16 0.09 7.29 31.31 10.7
3/25/2021 8:30:00 PM 11.22 52.196 0.09 7.28 43.5 10.69
3/25/2021 8:45:00 PM 11.24 52.232 0.09 7.28 44.72 10.66
3/25/2021 9:00:00 PM 11.26 52.268 0.09 7.29 39.18 10.65
3/25/2021 9:15:00 PM 11.29 52.322 0.09 7.27 32.8 10.64
3/25/2021 9:30:00 PM 11.32 52.376 0.09 7.27 52.86 10.62
3/25/2021 9:45:00 PM 11.36 52.448 0.09 7.27 51.87 10.61
3/25/2021 10:00:00 PM 11.39 52.502 0.09 7.27 32.4 10.59
3/25/2021 10:15:00 PM 11.42 52.556 0.09 7.26 49.86 10.58
3/25/2021 10:30:00 PM 11.42 52.556 0.09 7.27 38.69 10.55
3/25/2021 10:45:00 PM 11.47 52.646 0.09 7.26 47.31 10.55
3/25/2021 11:00:00 PM 11.49 52.682 0.09 7.27 36.23 10.53
3/25/2021 11:15:00 PM 11.51 52.718 0.09 7.26 48.7 10.51
3/25/2021 11:30:00 PM 11.52 52.736 0.09 7.26 46.81 10.5
3/25/2021 11:45:00 PM 11.55 52.79 0.09 7.26 37.52 10.48
3/26/2021 12:00:00 AM 11.58 52.844 0.09 7.26 49.21 10.46
3/26/2021 12:15:00 AM 11.6 52.88 0.09 7.25 56.03 10.45
3/26/2021 12:30:00 AM 11.62 52.916 0.09 7.25 36.86 10.44
3/26/2021 12:45:00 AM 11.65 52.97 0.09 7.25 47.8 10.42
3/26/2021 1:00:00 AM 11.7 53.06 0.09 7.25 46.36 10.4
3/26/2021 1:15:00 AM 11.73 53.114 0.09 7.25 52.86 10.39
3/26/2021 1:30:00 AM 11.75 53.15 0.09 7.24 34.46 10.36
3/26/2021 1:45:00 AM 11.79 53.222 0.09 7.24 40.12 10.36
3/26/2021 2:00:00 AM 11.81 53.258 0.09 7.24 40.52 10.34
3/26/2021 2:15:00 AM 11.84 53.312 0.09 7.24 37.33 10.32
3/26/2021 2:30:00 AM 11.85 53.33 0.09 7.24 38.22 10.31
3/26/2021 2:45:00 AM 11.86 53.348 0.09 7.24 44.56 10.31
3/26/2021 3:00:00 AM 11.88 53.384 0.09 7.23 43.12 10.3
3/26/2021 3:15:00 AM 11.9 53.42 0.09 7.23 36.4 10.28
3/26/2021 3:30:00 AM 11.92 53.456 0.091 7.23 50.71 10.29
3/26/2021 3:45:00 AM 11.93 53.474 0.091 7.22 39.53 10.29
3/26/2021 4:00:00 AM 11.94 53.492 0.091 7.23 40.51 10.26
3/26/2021 4:15:00 AM 11.95 53.51 0.091 7.23 39.53 10.26
3/26/2021 4:30:00 AM 11.94 53.492 0.091 7.23 39.75 10.26
3/26/2021 4:45:00 AM 11.95 53.51 0.091 7.22 50.66 10.27
3/26/2021 5:00:00 AM 11.95 53.51 0.091 7.22 41.46 10.25
3/26/2021 5:15:00 AM 11.91 53.438 0.091 7.22 36.41 10.24
3/26/2021 5:30:00 AM 11.92 53.456 0.091 7.22 49.47 10.23
3/26/2021 5:45:00 AM 11.87 53.366 0.091 7.23 55.72 10.24
3/26/2021 6:00:00 AM 11.85 53.33 0.091 7.22 41.72 10.25
3/26/2021 6:15:00 AM 11.82 53.276 0.092 7.22 39.79 10.24
3/26/2021 6:30:00 AM 11.78 53.204 0.092 7.22 35.03 10.26
3/26/2021 6:45:00 AM 11.77 53.186 0.092 7.22 34.2 10.26
3/26/2021 7:00:00 AM 11.76 53.168 0.092 7.22 54.99 10.27
3/26/2021 7:15:00 AM 11.72 53.096 0.092 7.22 51 10.26
3/26/2021 7:30:00 AM 11.71 53.078 0.092 7.21 55.42 10.29
3/26/2021 7:45:00 AM 11.69 53.042 0.092 7.22 45.68 10.31
3/26/2021 8:00:00 AM 11.67 53.006 0.092 7.24 44.43 10.35
3/26/2021 8:15:00 AM 11.65 52.97 0.092 7.23 40.71 10.38
3/26/2021 8:30:00 AM 11.67 53.006 0.092 7.25 32.7 10.42
3/26/2021 8:45:00 AM 11.67 53.006 0.092 7.26 49.81 10.47
3/26/2021 9:00:00 AM 11.69 53.042 0.092 7.28 57.59 10.5
3/26/2021 9:15:00 AM 11.73 53.114 0.093 7.29 47.3 10.53
3/26/2021 9:30:00 AM 11.8 53.24 0.093 7.3 46.62 10.59
3/26/2021 9:45:00 AM 11.87 53.366 0.093 7.31 43.4 10.63
3/26/2021 10:00:00 AM 11.96 53.528 0.093 7.33 43.44 10.66
3/26/2021 10:15:00 AM 11.99 53.582 0.093 7.34 53.24 10.64
3/26/2021 10:30:00 AM 12.1 53.78 0.093 7.36 35.99 10.69
3/26/2021 10:45:00 AM 12.15 53.87 0.093 7.38 54.8 10.71
3/26/2021 11:00:00 AM 12.14 53.852 0.093 7.38 49.54 10.66
3/26/2021 11:15:00 AM 12.25 54.05 0.094 7.38 54.55 10.7
3/26/2021 11:30:00 AM 12.4 54.32 0.094 7.4 40.7 10.72
3/26/2021 11:45:00 AM 12.49 54.482 0.094 7.41 57.19 10.74
3/26/2021 12:00:00 PM 12.59 54.662 0.094 7.42 40.02 10.74
3/26/2021 12:15:00 PM 12.76 54.968 0.094 7.44 54.14 10.75
3/26/2021 12:30:00 PM 12.76 54.968 0.094 7.45 54.23 10.74
3/26/2021 12:45:00 PM 12.7 54.86 0.094 7.46 38.89 10.73
3/26/2021 1:00:00 PM 12.6 54.68 0.094 7.46 47.55 10.7
3/26/2021 1:15:00 PM 12.62 54.716 0.094 7.48 39.64 10.73
3/26/2021 1:30:00 PM 12.59 54.662 0.094 7.48 39.46 10.74
3/26/2021 1:45:00 PM 12.77 54.986 0.094 7.48 61.92 10.77
3/26/2021 2:00:00 PM 12.74 54.932 0.095 7.49 55.38 10.76
3/26/2021 2:15:00 PM 12.82 55.076 0.095 7.5 50.93 10.75
3/26/2021 2:30:00 PM 12.8 55.04 0.095 7.51 48.69 10.74
3/26/2021 2:45:00 PM 12.81 55.058 0.095 7.51 40.64 10.73
3/26/2021 3:00:00 PM 12.8 55.04 0.095 7.52 52.22 10.72
3/26/2021 3:15:00 PM 12.74 54.932 0.095 7.52 52.54 10.64
3/26/2021 3:30:00 PM 12.72 54.896 0.095 7.51 53.98 10.66
3/26/2021 3:45:00 PM 12.67 54.806 0.095 7.5 46.05 10.64
3/26/2021 4:00:00 PM 12.68 54.824 0.095 7.5 34.93 10.66
3/26/2021 4:15:00 PM 12.65 54.77 0.095 7.49 40.21 10.63
3/26/2021 4:30:00 PM 12.63 54.734 0.095 7.49 54.46 10.62
3/26/2021 4:45:00 PM 12.6 54.68 0.095 7.47 38.35 10.58
3/26/2021 5:00:00 PM 12.56 54.608 0.095 7.46 45.23 10.56
3/26/2021 5:15:00 PM 12.51 54.518 0.095 7.46 53.09 10.51
3/26/2021 5:30:00 PM 12.5 54.5 0.095 7.44 53.99 10.51
3/26/2021 5:45:00 PM 12.5 54.5 0.095 7.43 50.21 10.49
3/26/2021 6:00:00 PM 12.47 54.446 0.095 7.42 47.82 10.45
3/26/2021 6:15:00 PM 12.45 54.41 0.095 7.41 54.83 10.43
3/26/2021 6:30:00 PM 12.42 54.356 0.095 7.41 58.24 10.4
3/26/2021 6:45:00 PM 12.43 54.374 0.095 7.39 65.36 10.39
3/26/2021 7:00:00 PM 12.41 54.338 0.095 7.38 50.39 10.34
3/26/2021 7:15:00 PM 12.4 54.32 0.095 7.37 50.95 10.34
3/26/2021 7:30:00 PM 12.36 54.248 0.095 7.37 47.51 10.32
3/26/2021 7:45:00 PM 12.34 54.212 0.095 7.35 47.81 10.31
3/26/2021 8:00:00 PM 12.32 54.176 0.095 7.35 46.31 10.3
3/26/2021 8:15:00 PM 12.3 54.14 0.095 7.34 45.84 10.29
3/26/2021 8:30:00 PM 12.28 54.104 0.095 7.32 58.6 10.31
3/26/2021 8:45:00 PM 12.26 54.068 0.095 7.33 40.13 10.29
3/26/2021 9:00:00 PM 12.21 53.978 0.095 7.32 45.01 10.31
3/26/2021 9:15:00 PM 12.17 53.906 0.095 7.32 57.12 10.32
3/26/2021 9:30:00 PM 12.14 53.852 0.095 7.32 49.34 10.31
3/26/2021 9:45:00 PM 12.11 53.798 0.095 7.31 37.86 10.34
3/26/2021 10:00:00 PM 12.09 53.762 0.095 7.31 48.93 10.32
3/26/2021 10:15:00 PM 12.06 53.708 0.095 7.31 43.24 10.33
3/26/2021 10:30:00 PM 12.03 53.654 0.095 7.3 52.64 10.32
3/26/2021 10:45:00 PM 12.01 53.618 0.095 7.29 41.62 10.34
3/26/2021 11:00:00 PM 11.97 53.546 0.095 7.3 52.36 10.34
3/26/2021 11:15:00 PM 11.92 53.456 0.095 7.3 46.86 10.33
3/26/2021 11:30:00 PM 11.89 53.402 0.095 7.29 42.26 10.36
3/26/2021 11:45:00 PM 11.85 53.33 0.094 7.28 44.88 10.37
3/27/2021 12:00:00 AM 11.82 53.276 0.094 7.28 43.79 10.37
3/27/2021 12:15:00 AM 11.77 53.186 0.094 7.27 56.82 10.37
3/27/2021 12:30:00 AM 11.73 53.114 0.094 7.28 43.29 10.37
3/27/2021 12:45:00 AM 11.67 53.006 0.094 7.28 53.59 10.38
3/27/2021 1:00:00 AM 11.63 52.934 0.094 7.27 47.81 10.38
3/27/2021 1:15:00 AM 11.6 52.88 0.094 7.28 43.43 10.39
3/27/2021 1:30:00 AM 11.57 52.826 0.094 7.27 53.68 10.4
3/27/2021 1:45:00 AM 11.55 52.79 0.094 7.27 58.89 10.4
3/27/2021 2:00:00 AM 11.53 52.754 0.095 7.26 50.46 10.41
3/27/2021 2:15:00 AM 11.51 52.718 0.095 7.26 48 10.41
3/27/2021 2:30:00 AM 11.48 52.664 0.095 7.26 44.48 10.41
3/27/2021 2:45:00 AM 11.47 52.646 0.095 7.26 37.52 10.41
3/27/2021 3:00:00 AM 11.45 52.61 0.095 7.25 48.93 10.42
3/27/2021 3:15:00 AM 11.42 52.556 0.095 7.25 47.11 10.42
3/27/2021 3:30:00 AM 11.41 52.538 0.095 7.25 48.69 10.43
3/27/2021 3:45:00 AM 11.38 52.484 0.095 7.25 40.83 10.42
3/27/2021 4:00:00 AM 11.36 52.448 0.095 7.24 60.53 10.43
3/27/2021 4:15:00 AM 11.34 52.412 0.095 7.24 54.72 10.44
3/27/2021 4:30:00 AM 11.29 52.322 0.095 7.24 45.47 10.44
3/27/2021 4:45:00 AM 11.27 52.286 0.095 7.25 46.67 10.41
3/27/2021 5:00:00 AM 11.23 52.214 0.095 7.23 49.11 10.46
3/27/2021 5:15:00 AM 11.19 52.142 0.095 7.24 46.35 10.47
3/27/2021 5:30:00 AM 11.14 52.052 0.095 7.24 54.43 10.48
3/27/2021 5:45:00 AM 11.11 51.998 0.095 7.24 39.01 10.47
3/27/2021 6:00:00 AM 11.06 51.908 0.095 7.24 41.21 10.5
3/27/2021 6:15:00 AM 11.01 51.818 0.095 7.24 43.5 10.51
3/27/2021 6:30:00 AM 10.96 51.728 0.095 7.24 49.41 10.5
3/27/2021 6:45:00 AM 10.92 51.656 0.095 7.24 54.04 10.52
3/27/2021 7:00:00 AM 10.88 51.584 0.095 7.23 46.27 10.57
3/27/2021 7:15:00 AM 10.84 51.512 0.095 7.23 43.83 10.58
3/27/2021 7:30:00 AM 10.8 51.44 0.095 7.24 43.88 10.59
3/27/2021 7:45:00 AM 10.76 51.368 0.095 7.24 46 10.64
3/27/2021 8:00:00 AM 10.73 51.314 0.095 7.25 56.97 10.69
3/27/2021 8:15:00 AM 10.7 51.26 0.095 7.25 52.88 10.74
3/27/2021 8:30:00 AM 10.68 51.224 0.095 7.26 51.3 10.8
3/27/2021 8:45:00 AM 10.68 51.224 0.095 7.28 56.64 10.88
3/27/2021 9:00:00 AM 10.67 51.206 0.095 7.29 47.4 10.97
3/27/2021 9:15:00 AM 10.67 51.206 0.095 7.31 52.24 11.02
3/27/2021 9:30:00 AM 10.68 51.224 0.096 7.32 44.83 11.06
3/27/2021 9:45:00 AM 10.67 51.206 0.096 7.33 43.29 11.1
3/27/2021 10:00:00 AM 10.75 51.35 0.096 7.35 47.78 11.13
3/27/2021 10:15:00 AM 10.74 51.332 0.096 7.36 44.49 11.14
3/27/2021 10:30:00 AM 10.83 51.494 0.096 7.38 50.85 11.17
3/27/2021 10:45:00 AM 10.84 51.512 0.096 7.4 56.33 11.18
3/27/2021 11:00:00 AM 10.84 51.512 0.096 7.4 45.05 11.24
3/27/2021 11:15:00 AM 10.82 51.476 0.096 7.42 39.64 11.24
3/27/2021 11:30:00 AM 10.85 51.53 0.096 7.43 54.45 11.27
3/27/2021 11:45:00 AM 10.95 51.71 0.096 7.44 48.8 11.27
3/27/2021 12:00:00 PM 10.99 51.782 0.096 7.45 41.48 11.28
3/27/2021 12:15:00 PM 11.06 51.908 0.097 7.46 47.28 11.28
3/27/2021 12:30:00 PM 11.25 52.25 0.097 7.47 57.96 11.29
3/27/2021 12:45:00 PM 11.37 52.466 0.097 7.48 44.38 11.3
3/27/2021 1:00:00 PM 11.5 52.7 0.097 7.49 52.77 11.27
3/27/2021 1:15:00 PM 11.55 52.79 0.097 7.5 47.46 11.27
3/27/2021 1:30:00 PM 11.66 52.988 0.097 7.51 46.51 11.27
3/27/2021 1:45:00 PM 11.65 52.97 0.097 7.52 38.33 11.26
3/27/2021 2:00:00 PM 11.66 52.988 0.097 7.53 41.64 11.26
3/27/2021 2:15:00 PM 11.75 53.15 0.097 7.54 40.32 11.24
3/27/2021 2:30:00 PM 11.8 53.24 0.097 7.55 43.73 11.24
3/27/2021 2:45:00 PM 11.83 53.294 0.097 7.55 47.74 11.21
3/27/2021 3:00:00 PM 11.84 53.312 0.098 7.56 50.56 11.24
3/27/2021 3:15:00 PM 11.9 53.42 0.098 7.57 39.84 11.23
3/27/2021 3:30:00 PM 11.89 53.402 0.098 7.58 51.63 11.21
3/27/2021 3:45:00 PM 11.86 53.348 0.098 7.58 44.74 11.19
3/27/2021 4:00:00 PM 11.84 53.312 0.098 7.58 53.29 11.18
3/27/2021 4:15:00 PM 11.81 53.258 0.098 7.58 48.14 11.14
3/27/2021 4:30:00 PM 11.79 53.222 0.098 7.58 38.23 11.15
3/27/2021 4:45:00 PM 11.77 53.186 0.098 7.57 42.48 11.14
3/27/2021 5:00:00 PM 11.75 53.15 0.098 7.57 58.93 11.11
3/27/2021 5:15:00 PM 11.75 53.15 0.098 7.57 51.12 11.07
3/27/2021 5:30:00 PM 11.73 53.114 0.098 7.56 43.66 11.05
3/27/2021 5:45:00 PM 11.73 53.114 0.098 7.55 42.87 11.04
3/27/2021 6:00:00 PM 11.71 53.078 0.098 7.55 47.71 10.99
3/27/2021 6:15:00 PM 11.68 53.024 0.098 7.54 47.62 10.95
3/27/2021 6:30:00 PM 11.67 53.006 0.098 7.52 57.3 10.93
3/27/2021 6:45:00 PM 11.64 52.952 0.098 7.51 44.72 10.86
3/27/2021 7:00:00 PM 11.64 52.952 0.098 7.48 40.89 10.8
3/27/2021 7:15:00 PM 11.62 52.916 0.098 7.46 45.73 10.73
3/27/2021 7:30:00 PM 11.59 52.862 0.098 7.44 42.7 10.64
3/27/2021 7:45:00 PM 11.58 52.844 0.099 7.43 46.58 10.6
3/27/2021 8:00:00 PM 11.57 52.826 0.099 7.4 38.32 10.57
3/27/2021 8:15:00 PM 11.55 52.79 0.099 7.38 50.33 10.55
3/27/2021 8:30:00 PM 11.54 52.772 0.099 7.37 50.9 10.52
3/27/2021 8:45:00 PM 11.51 52.718 0.099 7.36 58.56 10.52
3/27/2021 9:00:00 PM 11.5 52.7 0.099 7.36 54.5 10.51
3/27/2021 9:15:00 PM 11.47 52.646 0.099 7.34 60.5 10.5
3/27/2021 9:30:00 PM 11.44 52.592 0.099 7.34 40.31 10.51
3/27/2021 9:45:00 PM 11.41 52.538 0.099 7.34 50.44 10.51
3/27/2021 10:00:00 PM 11.38 52.484 0.098 7.33 58.3 10.52
3/27/2021 10:15:00 PM 11.34 52.412 0.099 7.33 45.69 10.51
3/27/2021 10:30:00 PM 11.31 52.358 0.099 7.32 45.75 10.5
3/27/2021 10:45:00 PM 11.29 52.322 0.099 7.32 55.19 10.51
3/27/2021 11:00:00 PM 11.26 52.268 0.098 7.32 49.42 10.5
3/27/2021 11:15:00 PM 11.23 52.214 0.098 7.31 41.36 10.5
3/27/2021 11:30:00 PM 11.2 52.16 0.098 7.31 52.79 10.49
3/27/2021 11:45:00 PM 11.17 52.106 0.098 7.31 57.56 10.48
3/28/2021 12:00:00 AM 11.14 52.052 0.098 7.31 51.24 10.49
3/28/2021 12:15:00 AM 11.11 51.998 0.098 7.3 50.99 10.5
3/28/2021 12:30:00 AM 11.08 51.944 0.098 7.29 40.95 10.49
3/28/2021 12:45:00 AM 11.04 51.872 0.098 7.3 40.33 10.52
3/28/2021 1:00:00 AM 11 51.8 0.098 7.29 59.99 10.51
3/28/2021 1:15:00 AM 10.96 51.728 0.098 7.3 48.57 10.52
3/28/2021 1:30:00 AM 10.92 51.656 0.098 7.29 66.35 10.48
3/28/2021 1:45:00 AM 10.87 51.566 0.098 7.28 49.59 10.51
3/28/2021 2:00:00 AM 10.83 51.494 0.098 7.28 42.75 10.53
3/28/2021 2:15:00 AM 10.77 51.386 0.098 7.28 55.93 10.53
3/28/2021 2:30:00 AM 10.73 51.314 0.098 7.28 50.74 10.53
3/28/2021 2:45:00 AM 10.69 51.242 0.098 7.28 43.03 10.55
3/28/2021 3:00:00 AM 10.64 51.152 0.098 7.28 49.88 10.55
3/28/2021 3:15:00 AM 10.6 51.08 0.098 7.27 66.29 10.55
3/28/2021 3:30:00 AM 10.56 51.008 0.098 7.27 42.08 10.55
3/28/2021 3:45:00 AM 10.52 50.936 0.098 7.27 42.96 10.54
3/28/2021 4:00:00 AM 10.49 50.882 0.098 7.27 64.39 10.55
3/28/2021 4:15:00 AM 10.46 50.828 0.098 7.27 58.39 10.55
3/28/2021 4:30:00 AM 10.43 50.774 0.098 7.25 61.12 10.58
3/28/2021 4:45:00 AM 10.39 50.702 0.098 7.27 57.78 10.57
3/28/2021 5:00:00 AM 10.38 50.684 0.098 7.26 63.36 10.57
3/28/2021 5:15:00 AM 10.35 50.63 0.098 7.26 49.36 10.55
3/28/2021 5:30:00 AM 10.35 50.63 0.098 7.26 40.33 10.56
3/28/2021 5:45:00 AM 10.36 50.648 0.098 7.26 48.66 10.56
3/28/2021 6:00:00 AM 10.36 50.648 0.099 7.26 53.75 10.57
3/28/2021 6:15:00 AM 10.37 50.666 0.099 7.26 50.58 10.55
3/28/2021 6:30:00 AM 10.37 50.666 0.099 7.26 44.98 10.54
3/28/2021 6:45:00 AM 10.37 50.666 0.099 7.26 44.23 10.54
3/28/2021 7:00:00 AM 10.38 50.684 0.099 7.26 60.11 10.54
3/28/2021 7:15:00 AM 10.38 50.684 0.099 7.26 43.19 10.52
3/28/2021 7:30:00 AM 10.39 50.702 0.099 7.26 43.52 10.54
3/28/2021 7:45:00 AM 10.4 50.72 0.099 7.26 53.25 10.54
3/28/2021 8:00:00 AM 10.4 50.72 0.099 7.26 51.77 10.56
3/28/2021 8:15:00 AM 10.41 50.738 0.099 7.26 52.06 10.57
3/28/2021 8:30:00 AM 10.41 50.738 0.099 7.27 60.07 10.56
3/28/2021 8:45:00 AM 10.4 50.72 0.099 7.27 52.55 10.57
3/28/2021 9:00:00 AM 10.39 50.702 0.099 7.27 51.26 10.61
3/28/2021 9:15:00 AM 10.4 50.72 0.099 7.28 47.99 10.66
3/28/2021 9:30:00 AM 10.39 50.702 0.099 7.28 54.81 10.67
3/28/2021 9:45:00 AM 10.39 50.702 0.099 7.29 51 10.71
3/28/2021 10:00:00 AM 10.38 50.684 0.099 7.3 50.95 10.74
3/28/2021 10:15:00 AM 10.39 50.702 0.099 7.31 51.27 10.8
3/28/2021 10:30:00 AM 10.38 50.684 0.099 7.33 46.08 10.84
3/28/2021 10:45:00 AM 10.4 50.72 0.099 7.33 51.04 10.92
3/28/2021 11:00:00 AM 10.41 50.738 0.099 7.36 43.75 10.93
3/28/2021 11:15:00 AM 10.44 50.792 0.099 7.37 50.11 11.01
3/28/2021 11:30:00 AM 10.51 50.918 0.099 7.39 45.19 11.06
3/28/2021 11:45:00 AM 10.54 50.972 0.099 7.41 61.21 11.09
3/28/2021 12:00:00 PM 10.56 51.008 0.099 7.42 51.03 11.1
3/28/2021 12:15:00 PM 10.58 51.044 0.099 7.43 40.95 11.12
3/28/2021 12:30:00 PM 10.59 51.062 0.099 7.43 43.84 11.09
3/28/2021 12:45:00 PM 10.62 51.116 0.099 7.44 49.88 11.1
3/28/2021 1:00:00 PM 10.64 51.152 0.099 7.46 58.59 11.11
3/28/2021 1:15:00 PM 10.64 51.152 0.099 7.46 61.2 11.09
3/28/2021 1:30:00 PM 10.64 51.152 0.099 7.47 50.92 11.12
3/28/2021 1:45:00 PM 10.69 51.242 0.099 7.47 49.88 11.15
3/28/2021 2:00:00 PM 10.71 51.278 0.099 7.49 60.11 11.12
3/28/2021 2:15:00 PM 10.7 51.26 0.1 7.49 58.8 11.1
3/28/2021 2:30:00 PM 10.71 51.278 0.1 7.5 56.43 11.1
3/28/2021 2:45:00 PM 10.73 51.314 0.1 7.51 51.88 11.13
3/28/2021 3:00:00 PM 10.76 51.368 0.1 7.52 56.39 11.13
3/28/2021 3:15:00 PM 10.81 51.458 0.1 7.52 52.19 11.16
3/28/2021 3:30:00 PM 10.9 51.62 0.1 7.54 54.89 11.17
3/28/2021 3:45:00 PM 10.99 51.782 0.1 7.55 52.52 11.14
3/28/2021 4:00:00 PM 11.07 51.926 0.1 7.55 51.85 11.17
3/28/2021 4:15:00 PM 11.12 52.016 0.1 7.57 49.2 11.16
3/28/2021 4:30:00 PM 11.11 51.998 0.1 7.57 44.66 11.1
3/28/2021 4:45:00 PM 11.07 51.926 0.1 7.56 59.36 10.98
3/28/2021 5:00:00 PM 11 51.8 0.101 7.54 52.47 10.88
3/28/2021 5:15:00 PM 10.94 51.692 0.1 7.51 62.42 10.77
3/28/2021 5:30:00 PM 10.9 51.62 0.1 7.48 65.68 10.72
3/28/2021 5:45:00 PM 10.87 51.566 0.1 7.47 53.61 10.74
3/28/2021 6:00:00 PM 10.85 51.53 0.1 7.44 76 10.65
3/28/2021 6:15:00 PM 10.8 51.44 0.101 7.43 49.02 10.66
3/28/2021 6:30:00 PM 10.76 51.368 0.101 7.42 50.92 10.66
3/28/2021 6:45:00 PM 10.7 51.26 0.101 7.42 53.73 10.68
3/28/2021 7:00:00 PM 10.64 51.152 0.101 7.41 62.68 10.67
3/28/2021 7:15:00 PM 10.59 51.062 0.101 7.4 60.29 10.66
3/28/2021 7:30:00 PM 10.54 50.972 0.101 7.4 48.8 10.66
3/28/2021 7:45:00 PM 10.49 50.882 0.101 7.38 54.57 10.65
3/28/2021 8:00:00 PM 10.45 50.81 0.101 7.38 66.77 10.63
3/28/2021 8:15:00 PM 10.42 50.756 0.102 7.37 56.23 10.63
3/28/2021 8:30:00 PM 10.39 50.702 0.102 7.36 53.09 10.65
3/28/2021 8:45:00 PM 10.34 50.612 0.102 7.36 54.52 10.65
3/28/2021 9:00:00 PM 10.31 50.558 0.102 7.36 44.96 10.65
3/28/2021 9:15:00 PM 10.28 50.504 0.102 7.36 46.83 10.64
3/28/2021 9:30:00 PM 10.27 50.486 0.102 7.36 58.17 10.68
3/28/2021 9:45:00 PM 10.24 50.432 0.102 7.35 54.67 10.67
3/28/2021 10:00:00 PM 10.22 50.396 0.102 7.35 50.06 10.68
3/28/2021 10:15:00 PM 10.18 50.324 0.102 7.35 57.9 10.69
3/28/2021 10:30:00 PM 10.17 50.306 0.102 7.35 44.92 10.69
3/28/2021 10:45:00 PM 10.13 50.234 0.102 7.35 49.65 10.71
3/28/2021 11:00:00 PM 10.09 50.162 0.102 7.34 59.29 10.71
3/28/2021 11:15:00 PM 10.05 50.09 0.102 7.34 48.51 10.73
3/28/2021 11:30:00 PM 10.02 50.036 0.101 7.34 50.6 10.75
3/28/2021 11:45:00 PM 9.96 49.928 0.101 7.33 46.13 10.75
3/29/2021 12:00:00 AM 9.92 49.856 0.101 7.33 49.22 10.76
3/29/2021 12:15:00 AM 9.9 49.82 0.101 7.33 42.32 10.75
3/29/2021 12:30:00 AM 9.87 49.766 0.101 7.33 49.39 10.77
3/29/2021 12:45:00 AM 9.84 49.712 0.101 7.33 43.62 10.78
3/29/2021 1:00:00 AM 9.8 49.64 0.101 7.32 56.58 10.8
3/29/2021 1:15:00 AM 9.75 49.55 0.101 7.33 58.9 10.8
3/29/2021 1:30:00 AM 9.67 49.406 0.101 7.31 47.68 10.82
3/29/2021 1:45:00 AM 9.59 49.262 0.101 7.31 71.82 10.84
3/29/2021 2:00:00 AM 9.51 49.118 0.101 7.31 55.89 10.83
3/29/2021 2:15:00 AM 9.44 48.992 0.101 7.3 50.56 10.86
3/29/2021 2:30:00 AM 9.37 48.866 0.101 7.31 53.37 10.87
3/29/2021 2:45:00 AM 9.32 48.776 0.101 7.31 55.52 10.86
3/29/2021 3:00:00 AM 9.26 48.668 0.101 7.3 57.58 10.88
3/29/2021 3:15:00 AM 9.22 48.596 0.101 7.3 54.15 10.9
3/29/2021 3:30:00 AM 9.17 48.506 0.101 7.3 55.64 10.9
3/29/2021 3:45:00 AM 9.12 48.416 0.101 7.3 63.49 10.91
3/29/2021 4:00:00 AM 9.07 48.326 0.101 7.3 42.97 10.92
3/29/2021 4:15:00 AM 9.01 48.218 0.101 7.29 62.03 10.94
3/29/2021 4:30:00 AM 8.97 48.146 0.101 7.3 41.1 10.95
3/29/2021 4:45:00 AM 8.92 48.056 0.1 7.29 63.79 10.97
3/29/2021 5:00:00 AM 8.89 48.002 0.1 7.29 67.14 10.98
3/29/2021 5:15:00 AM 8.85 47.93 0.1 7.29 65.51 11.01
3/29/2021 5:30:00 AM 8.8 47.84 0.1 7.29 64.51 11.02
3/29/2021 5:45:00 AM 8.76 47.768 0.1 7.28 66.66 11.04
3/29/2021 6:00:00 AM 8.71 47.678 0.1 7.29 52.32 11.04
3/29/2021 6:15:00 AM 8.67 47.606 0.1 7.28 46.36 11.06
3/29/2021 6:30:00 AM 8.62 47.516 0.1 7.29 46.83 11.06
3/29/2021 6:45:00 AM 8.58 47.444 0.1 7.27 68.17 11.1
3/29/2021 7:00:00 AM 8.53 47.354 0.1 7.25 51.99 11.11
3/29/2021 7:15:00 AM 8.46 47.228 0.1 7.24 63.31 11.13
3/29/2021 7:30:00 AM 8.39 47.102 0.1 7.24 59.39 11.17
3/29/2021 7:45:00 AM 8.33 46.994 0.1 7.24 57.33 11.22
3/29/2021 8:00:00 AM 8.27 46.886 0.1 7.25 60.3 11.27
3/29/2021 8:15:00 AM 8.21 46.778 0.1 7.26 69.05 11.28
3/29/2021 8:30:00 AM 8.15 46.67 0.1 7.26 58.22 11.34
3/29/2021 8:45:00 AM 8.1 46.58 0.1 7.26 52.17 11.35
3/29/2021 9:00:00 AM 8.04 46.472 0.1 7.26 53.15 11.4
3/29/2021 9:15:00 AM 7.97 46.346 0.1 7.27 60.05 11.42
3/29/2021 9:30:00 AM 7.92 46.256 0.1 7.27 58.25 11.47
3/29/2021 9:45:00 AM 7.88 46.184 0.1 7.28 64.72 11.56
3/29/2021 10:00:00 AM 7.86 46.148 0.1 7.3 57.33 11.62
3/29/2021 10:15:00 AM 7.86 46.148 0.1 7.32 60.67 11.7
3/29/2021 10:30:00 AM 7.86 46.148 0.1 7.33 60.94 11.74
3/29/2021 10:45:00 AM 7.87 46.166 0.1 7.35 63.09 11.79
3/29/2021 11:00:00 AM 7.85 46.13 0.1 7.36 45.81 11.84
3/29/2021 11:15:00 AM 7.9 46.22 0.1 7.38 53.97 11.88
3/29/2021 11:30:00 AM 7.95 46.31 0.1 7.39 61.26 11.93
3/29/2021 11:45:00 AM 7.99 46.382 0.1 7.41 51.12 11.95
3/29/2021 12:00:00 PM 8.11 46.598 0.099 7.42 59.43 11.96
3/29/2021 12:15:00 PM 8.14 46.652 0.099 7.43 45.57 11.96
3/29/2021 12:30:00 PM 8.34 47.012 0.099 7.44 51.95 11.97
3/29/2021 12:45:00 PM 8.46 47.228 0.099 7.45 51.9 11.98
3/29/2021 1:00:00 PM 8.64 47.552 0.099 7.47 59.1 11.98
3/29/2021 1:15:00 PM 8.78 47.804 0.099 7.48 46.39 11.97
3/29/2021 1:30:00 PM 8.83 47.894 0.098 7.48 66.18 11.95
3/29/2021 1:45:00 PM 8.92 48.056 0.098 7.5 74.17 11.92
3/29/2021 2:00:00 PM 8.98 48.164 0.098 7.5 76.05 11.92
3/29/2021 2:15:00 PM 9.02 48.236 0.098 7.5 48.56 11.91
3/29/2021 2:30:00 PM 9.05 48.29 0.098 7.52 60.92 11.9
3/29/2021 2:45:00 PM 9.08 48.344 0.098 7.52 62.45 11.9
3/29/2021 3:00:00 PM 9.08 48.344 0.098 7.53 64.33 11.87
3/29/2021 3:15:00 PM 9.07 48.326 0.098 7.53 51.88 11.88
3/29/2021 3:30:00 PM 9.04 48.272 0.098 7.53 69.28 11.86
3/29/2021 3:45:00 PM 9.01 48.218 0.098 7.53 53.09 11.86
3/29/2021 4:00:00 PM 8.97 48.146 0.098 7.53 57.35 11.86
3/29/2021 4:15:00 PM 8.92 48.056 0.098 7.53 57.37 11.85
3/29/2021 4:30:00 PM 8.88 47.984 0.098 7.53 59.54 11.84
3/29/2021 4:45:00 PM 8.85 47.93 0.098 7.52 65.75 11.83
3/29/2021 5:00:00 PM 8.81 47.858 0.098 7.53 48.73 11.8
3/29/2021 5:15:00 PM 8.77 47.786 0.098 7.51 60.61 11.82
3/29/2021 5:30:00 PM 8.74 47.732 0.098 7.52 68.37 11.79
3/29/2021 5:45:00 PM 8.69 47.642 0.098 7.51 62.81 11.75
3/29/2021 6:00:00 PM 8.64 47.552 0.098 7.5 67.43 11.73
3/29/2021 6:15:00 PM 8.6 47.48 0.098 7.49 47.69 11.7
3/29/2021 6:30:00 PM 8.56 47.408 0.098 7.47 46.4 11.68
3/29/2021 6:45:00 PM 8.5 47.3 0.098 7.46 60.85 11.64
3/29/2021 7:00:00 PM 8.45 47.21 0.098 7.45 59.09 11.62
3/29/2021 7:15:00 PM 8.41 47.138 0.098 7.44 72.61 11.59
3/29/2021 7:30:00 PM 8.36 47.048 0.098 7.43 52.18 11.55
3/29/2021 7:45:00 PM 8.32 46.976 0.098 7.41 58.42 11.54
3/29/2021 8:00:00 PM 8.27 46.886 0.098 7.4 54.47 11.51
3/29/2021 8:15:00 PM 8.22 46.796 0.099 7.39 52.26 11.51
3/29/2021 8:30:00 PM 8.17 46.706 0.099 7.38 63.79 11.52
3/29/2021 8:45:00 PM 8.13 46.634 0.099 7.38 62.68 11.52
3/29/2021 9:00:00 PM 8.08 46.544 0.099 7.37 67.64 11.54
3/29/2021 9:15:00 PM 8.03 46.454 0.099 7.36 62.59 11.53
3/29/2021 9:30:00 PM 8 46.4 0.099 7.36 43.32 11.53
3/29/2021 9:45:00 PM 7.95 46.31 0.099 7.36 61.64 11.53
3/29/2021 10:00:00 PM 7.92 46.256 0.099 7.35 54.74 11.56
3/29/2021 10:15:00 PM 7.87 46.166 0.099 7.34 66.19 11.54
3/29/2021 10:30:00 PM 7.82 46.076 0.099 7.34 70.5 11.55
3/29/2021 10:45:00 PM 7.78 46.004 0.099 7.35 61.8 11.56
3/29/2021 11:00:00 PM 7.74 45.932 0.099 7.34 62.2 11.57
3/29/2021 11:15:00 PM 7.7 45.86 0.099 7.34 64.67 11.58
3/29/2021 11:30:00 PM 7.65 45.77 0.099 7.33 60.31 11.58
3/29/2021 11:45:00 PM 7.62 45.716 0.099 7.33 49.18 11.58
3/30/2021 12:00:00 AM 7.58 45.644 0.099 7.33 70.6 11.59
3/30/2021 12:15:00 AM 7.54 45.572 0.099 7.32 52.77 11.58
3/30/2021 12:30:00 AM 7.5 45.5 0.099 7.32 59.36 11.6
3/30/2021 12:45:00 AM 7.46 45.428 0.099 7.31 58.93 11.59
3/30/2021 1:00:00 AM 7.42 45.356 0.099 7.31 53.44 11.59
3/30/2021 1:15:00 AM 7.38 45.284 0.099 7.3 52.45 11.59
3/30/2021 1:30:00 AM 7.33 45.194 0.099 7.3 53.44 11.62
3/30/2021 1:45:00 AM 7.27 45.086 0.099 7.29 72.24 11.62
3/30/2021 2:00:00 AM 7.23 45.014 0.099 7.29 67.89 11.62
3/30/2021 2:15:00 AM 7.17 44.906 0.099 7.29 66.63 11.64
3/30/2021 2:30:00 AM 7.12 44.816 0.099 7.28 45.75 11.64
3/30/2021 2:45:00 AM 7.06 44.708 0.099 7.28 46.9 11.66
3/30/2021 3:00:00 AM 7.01 44.618 0.099 7.27 40.63 11.67
3/30/2021 3:15:00 AM 6.94 44.492 0.099 7.27 63.2 11.72
3/30/2021 3:30:00 AM 6.89 44.402 0.099 7.27 62.31 11.71
3/30/2021 3:45:00 AM 6.83 44.294 0.099 7.26 62.51 11.71
3/30/2021 4:00:00 AM 6.76 44.168 0.099 7.26 57.05 11.73
3/30/2021 4:15:00 AM 6.7 44.06 0.099 7.25 64.35 11.76
3/30/2021 4:30:00 AM 6.64 43.952 0.1 7.24 42.88 11.78
3/30/2021 4:45:00 AM 6.58 43.844 0.1 7.25 64.33 11.78
3/30/2021 5:00:00 AM 6.52 43.736 0.1 7.25 49.22 11.79
3/30/2021 5:15:00 AM 6.45 43.61 0.1 7.24 70.17 11.81
3/30/2021 5:30:00 AM 6.4 43.52 0.1 7.24 45.26 11.83
3/30/2021 5:45:00 AM 6.35 43.43 0.1 7.24 62.61 11.84
3/30/2021 6:00:00 AM 6.29 43.322 0.1 7.24 70.6 11.85
3/30/2021 6:15:00 AM 6.24 43.232 0.1 7.23 60.91 11.86
3/30/2021 6:30:00 AM 6.19 43.142 0.1 7.23 45.64 11.89
3/30/2021 6:45:00 AM 6.14 43.052 0.1 7.23 45.71 11.9
3/30/2021 7:00:00 AM 6.11 42.998 0.1 7.23 51.94 11.91
3/30/2021 7:15:00 AM 6.06 42.908 0.1 7.23 68.85 11.93
3/30/2021 7:30:00 AM 6.03 42.854 0.1 7.24 66.08 11.99
3/30/2021 7:45:00 AM 6 42.8 0.1 7.25 43.51 12.02
3/30/2021 8:00:00 AM 5.98 42.764 0.1 7.25 57.05 12.05
3/30/2021 8:15:00 AM 5.96 42.728 0.1 7.26 66.89 12.08
3/30/2021 8:30:00 AM 5.95 42.71 0.1 7.27 53.95 12.14
3/30/2021 8:45:00 AM 5.96 42.728 0.1 7.28 62.39 12.17
3/30/2021 9:00:00 AM 6.02 42.836 0.1 7.29 63.55 12.24
3/30/2021 9:15:00 AM 6.09 42.962 0.1 7.3 52.19 12.26
3/30/2021 9:30:00 AM 6.18 43.124 0.1 7.31 45.88 12.32
3/30/2021 9:45:00 AM 6.3 43.34 0.1 7.33 65.91 12.32
3/30/2021 10:00:00 AM 6.44 43.592 0.1 7.34 64.72 12.36
3/30/2021 10:15:00 AM 6.6 43.88 0.1 7.36 46.78 12.36
3/30/2021 10:30:00 AM 6.76 44.168 0.1 7.37 62.69 12.35
3/30/2021 10:45:00 AM 6.92 44.456 0.1 7.39 66.15 12.36
3/30/2021 11:00:00 AM 7.12 44.816 0.1 7.4 67.32 12.35
3/30/2021 11:15:00 AM 7.31 45.158 0.1 7.42 62.42 12.32
3/30/2021 11:30:00 AM 7.51 45.518 0.1 7.43 57.76 12.32
3/30/2021 11:45:00 AM 7.69 45.842 0.1 7.45 71.53 12.28
3/30/2021 12:00:00 PM 7.89 46.202 0.1 7.46 68.93 12.27
3/30/2021 12:15:00 PM 8.12 46.616 0.1 7.47 67.45 12.24
3/30/2021 12:30:00 PM 8.3 46.94 0.1 7.48 74.11 12.22
3/30/2021 12:45:00 PM 8.47 47.246 0.1 7.49 54.01 12.17
3/30/2021 1:00:00 PM 8.67 47.606 0.1 7.5 56.07 12.16
3/30/2021 1:15:00 PM 8.79 47.822 0.1 7.51 68.15 12.13
3/30/2021 1:30:00 PM 8.86 47.948 0.1 7.53 71.57 12.08
3/30/2021 1:45:00 PM 9.03 48.254 0.1 7.53 66.91 12.06
3/30/2021 2:00:00 PM 9.11 48.398 0.101 7.54 45.92 12.04
3/30/2021 2:15:00 PM 9.18 48.524 0.101 7.55 66.95 12.02
3/30/2021 2:30:00 PM 9.23 48.614 0.101 7.56 61.85 12.02
3/30/2021 2:45:00 PM 9.26 48.668 0.101 7.55 67.47 11.99
3/30/2021 3:00:00 PM 9.28 48.704 0.101 7.56 68.49 11.98
3/30/2021 3:15:00 PM 9.26 48.668 0.101 7.57 56.26 11.96
3/30/2021 3:30:00 PM 9.25 48.65 0.101 7.58 68.64 11.95
3/30/2021 3:45:00 PM 9.23 48.614 0.101 7.58 61.83 11.94
3/30/2021 4:00:00 PM 9.2 48.56 0.101 7.58 45.88 11.93
3/30/2021 4:15:00 PM 9.18 48.524 0.101 7.58 57.57 11.9
3/30/2021 4:30:00 PM 9.15 48.47 0.101 7.58 59.76 11.91
3/30/2021 4:45:00 PM 9.14 48.452 0.101 7.58 63.07 11.88
3/30/2021 5:00:00 PM 9.11 48.398 0.102 7.57 69 11.87
3/30/2021 5:15:00 PM 9.08 48.344 0.102 7.58 70.3 11.83
3/30/2021 5:30:00 PM 9.04 48.272 0.102 7.56 61.82 11.8
3/30/2021 5:45:00 PM 9.05 48.29 0.102 7.57 67.28 11.8
3/30/2021 6:00:00 PM 9.03 48.254 0.102 7.56 59.13 11.75
3/30/2021 6:15:00 PM 9.02 48.236 0.102 7.56 51.79 11.71
3/30/2021 6:30:00 PM 9.01 48.218 0.102 7.55 46 11.66
3/30/2021 6:45:00 PM 9 48.2 0.102 7.53 63.02 11.62
3/30/2021 7:00:00 PM 8.97 48.146 0.102 7.52 62.71 11.52
3/30/2021 7:15:00 PM 8.95 48.11 0.102 7.5 62.82 11.47
3/30/2021 7:30:00 PM 8.93 48.074 0.102 7.48 56.86 11.4
3/30/2021 7:45:00 PM 8.92 48.056 0.102 7.47 59.28 11.36
3/30/2021 8:00:00 PM 8.91 48.038 0.103 7.45 60.38 11.33
3/30/2021 8:15:00 PM 8.91 48.038 0.103 7.44 44.93 11.28
3/30/2021 8:30:00 PM 8.91 48.038 0.103 7.43 68.23 11.25
3/30/2021 8:45:00 PM 8.92 48.056 0.103 7.42 65.33 11.25
3/30/2021 9:00:00 PM 8.93 48.074 0.103 7.41 45.58 11.24
3/30/2021 9:15:00 PM 8.95 48.11 0.103 7.41 59.52 11.21
3/30/2021 9:30:00 PM 8.96 48.128 0.103 7.4 49.19 11.19
3/30/2021 9:45:00 PM 8.97 48.146 0.103 7.39 64.82 11.19
3/30/2021 10:00:00 PM 8.98 48.164 0.103 7.39 63.89 11.17
3/30/2021 10:15:00 PM 9.01 48.218 0.103 7.38 52.47 11.19
3/30/2021 10:30:00 PM 9.01 48.218 0.103 7.38 67.88 11.16
3/30/2021 10:45:00 PM 9.03 48.254 0.103 7.38 42.11 11.16
3/30/2021 11:00:00 PM 9.04 48.272 0.103 7.38 62.6 11.14
3/30/2021 11:15:00 PM 9.04 48.272 0.103 7.38 59.41 11.12
3/30/2021 11:30:00 PM 9.05 48.29 0.103 7.37 43.8 11.12
3/30/2021 11:45:00 PM 9.05 48.29 0.103 7.37 53.44 11.12
3/31/2021 12:00:00 AM 9.05 48.29 0.103 7.37 47.95 11.11
3/31/2021 12:15:00 AM 9.05 48.29 0.103 7.36 59.12 11.11
3/31/2021 12:30:00 AM 9.04 48.272 0.103 7.36 77.29 11.09
3/31/2021 12:45:00 AM 9.03 48.254 0.103 7.36 62.04 11.1
3/31/2021 1:00:00 AM 9.02 48.236 0.103 7.35 63.46 11.08
3/31/2021 1:15:00 AM 9.02 48.236 0.103 7.35 61.01 11.09
3/31/2021 1:30:00 AM 9 48.2 0.103 7.35 66.15 11.09
3/31/2021 1:45:00 AM 8.99 48.182 0.103 7.35 62.42 11.08
3/31/2021 2:00:00 AM 8.97 48.146 0.103 7.34 59 11.08
3/31/2021 2:15:00 AM 8.96 48.128 0.103 7.34 66.98 11.08
3/31/2021 2:30:00 AM 8.93 48.074 0.103 7.34 63.69 11.05
3/31/2021 2:45:00 AM 8.9 48.02 0.103 7.33 50.89 11.06
3/31/2021 3:00:00 AM 8.88 47.984 0.103 7.33 52.19 11.04
3/31/2021 3:15:00 AM 8.86 47.948 0.103 7.32 56.95 11.06
3/31/2021 3:30:00 AM 8.83 47.894 0.103 7.33 44.71 11.04
3/31/2021 3:45:00 AM 8.8 47.84 0.103 7.32 52.65 11.07
3/31/2021 4:00:00 AM 8.77 47.786 0.103 7.32 63.55 11.09
3/31/2021 4:15:00 AM 8.74 47.732 0.103 7.31 62.93 11.07
3/31/2021 4:30:00 AM 8.72 47.696 0.103 7.31 61.62 11.09
3/31/2021 4:45:00 AM 8.69 47.642 0.103 7.31 57.45 11.06
3/31/2021 5:00:00 AM 8.66 47.588 0.103 7.31 64.85 11.07
3/31/2021 5:15:00 AM 8.64 47.552 0.103 7.31 67.76 11.06
3/31/2021 5:30:00 AM 8.61 47.498 0.103 7.3 45.73 11.07
3/31/2021 5:45:00 AM 8.58 47.444 0.103 7.3 64.41 11.07
3/31/2021 6:00:00 AM 8.55 47.39 0.103 7.3 67.34 11.09
3/31/2021 6:15:00 AM 8.54 47.372 0.103 7.3 55.77 11.08
3/31/2021 6:30:00 AM 8.53 47.354 0.103 7.3 49.76 11.08
3/31/2021 6:45:00 AM 8.53 47.354 0.103 7.31 64.18 11.08
3/31/2021 7:00:00 AM 8.53 47.354 0.103 7.3 49.46 11.1
3/31/2021 7:15:00 AM 8.54 47.372 0.103 7.29 42.56 11.11
3/31/2021 7:30:00 AM 8.55 47.39 0.103 7.3 48.54 11.11
3/31/2021 7:45:00 AM 8.57 47.426 0.103 7.31 51.72 11.16
3/31/2021 8:00:00 AM 8.6 47.48 0.103 7.32 62.26 11.22
3/31/2021 8:15:00 AM 8.62 47.516 0.103 7.32 50.43 11.26
3/31/2021 8:30:00 AM 8.65 47.57 0.103 7.34 45.31 11.36
3/31/2021 8:45:00 AM 8.69 47.642 0.103 7.35 69.35 11.39
3/31/2021 9:00:00 AM 8.73 47.714 0.103 7.37 66.02 11.45
3/31/2021 9:15:00 AM 8.77 47.786 0.103 7.38 46.09 11.47
3/31/2021 9:30:00 AM 8.81 47.858 0.103 7.39 46.97 11.52
3/31/2021 9:45:00 AM 8.86 47.948 0.103 7.41 52.48 11.47
3/31/2021 10:00:00 AM 8.91 48.038 0.103 7.42 47.98 11.49
3/31/2021 10:15:00 AM 8.97 48.146 0.103 7.43 48.48 11.55
3/31/2021 10:30:00 AM 9.02 48.236 0.103 7.44 60.99 11.58
3/31/2021 10:45:00 AM 9.05 48.29 0.103 7.45 50.37 11.53
3/31/2021 11:00:00 AM 9.12 48.416 0.103 7.46 47.68 11.54
3/31/2021 11:15:00 AM 9.17 48.506 0.103 7.47 60.91 11.51
3/31/2021 11:30:00 AM 9.21 48.578 0.103 7.47 55.57 11.48
3/31/2021 11:45:00 AM 9.25 48.65 0.103 7.47 60.11 11.49
3/31/2021 12:00:00 PM 9.3 48.74 0.103 7.48 71.84 11.5
3/31/2021 12:15:00 PM 9.34 48.812 0.103 7.48 64.62 11.5
3/31/2021 12:30:00 PM 9.38 48.884 0.103 7.49 45.75 11.44
3/31/2021 12:45:00 PM 9.41 48.938 0.103 7.5 62.81 11.47
3/31/2021 1:00:00 PM 9.47 49.046 0.103 7.51 49.91 11.47
3/31/2021 1:15:00 PM 9.5 49.1 0.103 7.52 59.14 11.46
3/31/2021 1:30:00 PM 9.55 49.19 0.103 7.51 66.26 11.52
3/31/2021 1:45:00 PM 9.6 49.28 0.103 7.53 63.52 11.52
3/31/2021 2:00:00 PM 9.6 49.28 0.103 7.52 63.49 11.46
3/31/2021 2:15:00 PM 9.6 49.28 0.103 7.53 57.45 11.37
3/31/2021 2:30:00 PM 9.62 49.316 0.103 7.51 66.36 11.34
3/31/2021 2:45:00 PM 9.64 49.352 0.103 7.5 65.08 11.37
3/31/2021 3:00:00 PM 9.65 49.37 0.102 7.51 56.06 11.35
3/31/2021 3:15:00 PM 9.66 49.388 0.102 7.51 66.01 11.32
3/31/2021 3:30:00 PM 9.67 49.406 0.102 7.5 61.61 11.3
3/31/2021 3:45:00 PM 9.68 49.424 0.102 7.5 49.5 11.27
3/31/2021 4:00:00 PM 9.68 49.424 0.102 7.5 62.51 11.27
3/31/2021 4:15:00 PM 9.67 49.406 0.102 7.49 49.42 11.2
3/31/2021 4:30:00 PM 9.65 49.37 0.102 7.47 48.64 11.17
3/31/2021 4:45:00 PM 9.64 49.352 0.103 7.46 50.16 11.12
3/31/2021 5:00:00 PM 9.63 49.334 0.103 7.45 60.75 11.08
3/31/2021 5:15:00 PM 9.63 49.334 0.103 7.43 61.23 11.08
3/31/2021 5:30:00 PM 9.61 49.298 0.103 7.42 59.41 11.05
3/31/2021 5:45:00 PM 9.59 49.262 0.103 7.41 53.98 11.05
3/31/2021 6:00:00 PM 9.57 49.226 0.103 7.42 42.79 11.03
3/31/2021 6:15:00 PM 9.56 49.208 0.104 7.4 61 11.03
3/31/2021 6:30:00 PM 9.54 49.172 0.104 7.4 50.45 11.03
3/31/2021 6:45:00 PM 9.52 49.136 0.104 7.39 55.98 11.04
3/31/2021 7:00:00 PM 9.5 49.1 0.104 7.39 54.65 11.01
3/31/2021 7:15:00 PM 9.48 49.064 0.104 7.38 52.99 10.96
3/31/2021 7:30:00 PM 9.47 49.046 0.104 7.36 60.71 10.97
3/31/2021 7:45:00 PM 9.45 49.01 0.104 7.36 47.68 10.94
3/31/2021 8:00:00 PM 9.42 48.956 0.104 7.36 58.78 10.93
3/31/2021 8:15:00 PM 9.39 48.902 0.104 7.35 59.3 10.93
3/31/2021 8:30:00 PM 9.36 48.848 0.104 7.34 54.64 10.95
3/31/2021 8:45:00 PM 9.34 48.812 0.104 7.35 58.84 10.93
3/31/2021 9:00:00 PM 9.31 48.758 0.104 7.35 49.54 10.95
3/31/2021 9:15:00 PM 9.28 48.704 0.105 7.35 52.29 10.96
3/31/2021 9:30:00 PM 9.26 48.668 0.105 7.35 57.22 10.96
3/31/2021 9:45:00 PM 9.23 48.614 0.105 7.35 59.04 10.94
3/31/2021 10:00:00 PM 9.19 48.542 0.105 7.35 54.41 10.98
3/31/2021 10:15:00 PM 9.17 48.506 0.105 7.35 58.26 10.98
3/31/2021 10:30:00 PM 9.14 48.452 0.105 7.35 56.03 11
3/31/2021 10:45:00 PM 9.13 48.434 0.105 7.35 55.39 10.98
3/31/2021 11:00:00 PM 9.11 48.398 0.105 7.35 56.92 11
3/31/2021 11:15:00 PM 9.09 48.362 0.105 7.35 58.22 10.99
3/31/2021 11:30:00 PM 9.06 48.308 0.105 7.35 52.62 10.99
3/31/2021 11:45:00 PM 9.04 48.272 0.105 7.34 46.02 11.02
4/1/2021 12:00:00 AM 9.02 48.236 0.105 7.35 45.03 11.03
4/1/2021 12:15:00 AM 9 48.2 0.105 7.34 55.76 11
4/1/2021 12:30:00 AM 8.98 48.164 0.105 7.34 57.4 11.01
4/1/2021 12:45:00 AM 8.95 48.11 0.105 7.34 39.62 11.01
4/1/2021 1:00:00 AM 8.94 48.092 0.105 7.34 60.41 11
4/1/2021 1:15:00 AM 8.92 48.056 0.105 7.34 56.21 11.03
4/1/2021 1:30:00 AM 8.89 48.002 0.105 7.34 59.52 11.02
4/1/2021 1:45:00 AM 8.87 47.966 0.105 7.34 62.84 11.03
4/1/2021 2:00:00 AM 8.84 47.912 0.105 7.34 40.48 11.01
4/1/2021 2:15:00 AM 8.82 47.876 0.105 7.34 56.54 11.03
4/1/2021 2:30:00 AM 8.78 47.804 0.105 7.33 59.71 11.05
4/1/2021 2:45:00 AM 8.75 47.75 0.105 7.34 43.31 11.06
4/1/2021 3:00:00 AM 8.7 47.66 0.105 7.33 49.1 11.05
4/1/2021 3:15:00 AM 8.66 47.588 0.105 7.33 42.4 11.05
4/1/2021 3:30:00 AM 8.61 47.498 0.105 7.32 51.22 11.06
4/1/2021 3:45:00 AM 8.55 47.39 0.105 7.33 46.1 11.05
4/1/2021 4:00:00 AM 8.48 47.264 0.105 7.33 57.86 11.05
4/1/2021 4:15:00 AM 8.37 47.066 0.105 7.33 54.79 11.07
4/1/2021 4:30:00 AM 8.24 46.832 0.105 7.33 57.91 11.09
4/1/2021 4:45:00 AM 8.17 46.706 0.105 7.32 49.55 11.12
4/1/2021 5:00:00 AM 8.06 46.508 0.105 7.33 41.15 11.15
4/1/2021 5:15:00 AM 7.86 46.148 0.105 7.32 60.9 11.19
4/1/2021 5:30:00 AM 7.82 46.076 0.105 7.32 51.28 11.21
4/1/2021 5:45:00 AM 7.74 45.932 0.105 7.32 56.99 11.23
4/1/2021 6:00:00 AM 7.61 45.698 0.105 7.32 46.36 11.26
4/1/2021 6:15:00 AM 7.47 45.446 0.105 7.32 43.19 11.29
4/1/2021 6:30:00 AM 7.44 45.392 0.105 7.32 64.98 11.3
4/1/2021 6:45:00 AM 7.4 45.32 0.105 7.32 52.97 11.31
4/1/2021 7:00:00 AM 7.38 45.284 0.105 7.31 58.96 11.33
4/1/2021 7:15:00 AM 7.37 45.266 0.105 7.31 59.38 11.36
4/1/2021 7:30:00 AM 7.38 45.284 0.105 7.32 50.24 11.37
4/1/2021 7:45:00 AM 7.39 45.302 0.105 7.32 64.33 11.43
4/1/2021 8:00:00 AM 7.39 45.302 0.105 7.33 50.48 11.49
4/1/2021 8:15:00 AM 7.39 45.302 0.105 7.33 55.2 11.56
4/1/2021 8:30:00 AM 7.4 45.32 0.105 7.35 49.31 11.61
4/1/2021 8:45:00 AM 7.41 45.338 0.104 7.35 52.67 11.66
4/1/2021 9:00:00 AM 7.42 45.356 0.104 7.37 42.74 11.71
4/1/2021 9:15:00 AM 7.42 45.356 0.104 7.37 57.48 11.72
4/1/2021 9:30:00 AM 7.46 45.428 0.104 7.38 56.85 11.81
4/1/2021 9:45:00 AM 7.5 45.5 0.104 7.4 57.82 11.86
4/1/2021 10:00:00 AM 7.53 45.554 0.104 7.41 58.26 11.91
4/1/2021 10:15:00 AM 7.6 45.68 0.104 7.43 60.2 11.95
4/1/2021 10:30:00 AM 7.69 45.842 0.105 7.44 48.14 11.96
4/1/2021 10:45:00 AM 7.77 45.986 0.105 7.45 51.19 11.99
4/1/2021 11:00:00 AM 7.86 46.148 0.105 7.47 57.95 11.99
4/1/2021 11:15:00 AM 7.82 46.076 0.105 7.47 62.14 11.99
4/1/2021 11:30:00 AM 7.87 46.166 0.105 7.48 61.27 12.02
4/1/2021 11:45:00 AM 7.92 46.256 0.105 7.5 56.88 12.03
4/1/2021 12:00:00 PM 8.02 46.436 0.105 7.5 48.74 12.02
4/1/2021 12:15:00 PM 7.93 46.274 0.105 7.5 58.96 11.99
4/1/2021 12:30:00 PM 8.06 46.508 0.104 7.51 56.62 12.01
4/1/2021 12:45:00 PM 7.97 46.346 0.106 7.51 56.95 11.98
4/1/2021 1:00:00 PM 7.91 46.238 0.106 7.52 61.51 12
4/1/2021 1:15:00 PM 7.98 46.364 0.106 7.52 53.63 11.99
4/1/2021 1:30:00 PM 8.12 46.616 0.106 7.53 46.44 12.02
4/1/2021 1:45:00 PM 8.13 46.634 0.106 7.53 53.01 12.04
4/1/2021 2:00:00 PM 8.04 46.472 0.106 7.53 55.02 12
4/1/2021 2:15:00 PM 7.95 46.31 0.106 7.53 45.3 12
4/1/2021 2:30:00 PM 7.85 46.13 0.106 7.53 52.41 12.01
4/1/2021 2:45:00 PM 7.74 45.932 0.106 7.54 66.93 12.04
4/1/2021 3:00:00 PM 7.69 45.842 0.106 7.54 51.41 12.07
4/1/2021 3:15:00 PM 7.75 45.95 0.106 7.54 50.25 12.11
4/1/2021 3:30:00 PM 7.75 45.95 0.106 7.55 58.72 12.11
4/1/2021 3:45:00 PM 7.73 45.914 0.106 7.56 67.35 12.14
4/1/2021 4:00:00 PM 7.69 45.842 0.106 7.56 60.32 12.12
4/1/2021 4:15:00 PM 7.65 45.77 0.107 7.55 61.35 12.13
4/1/2021 4:30:00 PM 7.64 45.752 0.107 7.56 54.97 12.13
4/1/2021 4:45:00 PM 7.63 45.734 0.107 7.56 42.36 12.11
4/1/2021 5:00:00 PM 7.6 45.68 0.107 7.55 61.89 12.08
4/1/2021 5:15:00 PM 7.55 45.59 0.106 7.56 51.89 12.08
4/1/2021 5:30:00 PM 7.52 45.536 0.107 7.56 51.56 12.1
4/1/2021 5:45:00 PM 7.47 45.446 0.107 7.54 65.07 12.1
4/1/2021 6:00:00 PM 7.45 45.41 0.107 7.55 57.91 12.12
4/1/2021 6:15:00 PM 7.37 45.266 0.107 7.55 44.38 12.04
4/1/2021 6:30:00 PM 7.3 45.14 0.107 7.53 41.15 11.98
4/1/2021 6:45:00 PM 7.28 45.104 0.107 7.51 56.98 11.95
4/1/2021 7:00:00 PM 7.24 45.032 0.107 7.5 85.28 11.96
4/1/2021 7:15:00 PM 7.2 44.96 0.107 7.49 57.01 11.95
4/1/2021 7:30:00 PM 7.15 44.87 0.107 7.47 63.35 11.91
4/1/2021 7:45:00 PM 7.11 44.798 0.107 7.46 56.15 11.89
4/1/2021 8:00:00 PM 7.05 44.69 0.107 7.45 50.34 11.87
4/1/2021 8:15:00 PM 7.02 44.636 0.107 7.45 63.37 11.88
4/1/2021 8:30:00 PM 6.98 44.564 0.106 7.43 47.65 11.87
4/1/2021 8:45:00 PM 6.94 44.492 0.106 7.43 45.68 11.89
4/1/2021 9:00:00 PM 6.9 44.42 0.106 7.42 65.05 11.88
4/1/2021 9:15:00 PM 6.87 44.366 0.106 7.41 63.61 11.89
4/1/2021 9:30:00 PM 6.81 44.258 0.106 7.41 51.79 11.9
4/1/2021 9:45:00 PM 6.75 44.15 0.106 7.41 46.06 11.91
4/1/2021 10:00:00 PM 6.68 44.024 0.106 7.4 53.29 11.94
4/1/2021 10:15:00 PM 6.62 43.916 0.106 7.39 56.5 11.94
4/1/2021 10:30:00 PM 6.56 43.808 0.106 7.37 56.07 11.94
4/1/2021 10:45:00 PM 6.5 43.7 0.106 7.37 54.41 11.98
4/1/2021 11:00:00 PM 6.46 43.628 0.106 7.37 63.84 11.97
4/1/2021 11:15:00 PM 6.39 43.502 0.105 7.36 63.39 12
4/1/2021 11:30:00 PM 6.33 43.394 0.105 7.35 48.93 12
4/1/2021 11:45:00 PM 6.25 43.25 0.105 7.35 57.43 12
4/2/2021 12:00:00 AM 6.16 43.088 0.105 7.34 66.76 12.03
4/2/2021 12:15:00 AM 6.1 42.98 0.105 7.33 41.11 12.02
4/2/2021 12:30:00 AM 6.03 42.854 0.104 7.33 54.92 12.04
4/2/2021 12:45:00 AM 5.98 42.764 0.104 7.33 55.82 12.06
4/2/2021 1:00:00 AM 5.88 42.584 0.104 7.31 57.72 12.05
4/2/2021 1:15:00 AM 5.84 42.512 0.104 7.32 61.55 12.07
4/2/2021 1:30:00 AM 5.78 42.404 0.104 7.31 53.69 12.07
4/2/2021 1:45:00 AM 5.73 42.314 0.104 7.31 53.04 12.08
4/2/2021 2:00:00 AM 5.69 42.242 0.103 7.31 42.87 12.1
4/2/2021 2:15:00 AM 5.64 42.152 0.103 7.31 42.95 12.12
4/2/2021 2:30:00 AM 5.58 42.044 0.103 7.31 63.13 12.12
4/2/2021 2:45:00 AM 5.52 41.936 0.103 7.3 42.96 12.15
4/2/2021 3:00:00 AM 5.46 41.828 0.103 7.29 58.04 12.14
4/2/2021 3:15:00 AM 5.4 41.72 0.103 7.3 57.23 12.15
4/2/2021 3:30:00 AM 5.35 41.63 0.103 7.29 45.09 12.17
4/2/2021 3:45:00 AM 5.3 41.54 0.103 7.29 55.28 12.17
4/2/2021 4:00:00 AM 5.24 41.432 0.103 7.29 64.29 12.21
4/2/2021 4:15:00 AM 5.19 41.342 0.103 7.29 52.4 12.22
4/2/2021 4:30:00 AM 5.13 41.234 0.103 7.28 47.07 12.23
4/2/2021 4:45:00 AM 5.07 41.126 0.103 7.28 61.49 12.23
4/2/2021 5:00:00 AM 5.01 41.018 0.103 7.28 55.76 12.25
4/2/2021 5:15:00 AM 4.95 40.91 0.103 7.28 48.5 12.28
4/2/2021 5:30:00 AM 4.89 40.802 0.103 7.27 46.68 12.3
4/2/2021 5:45:00 AM 4.83 40.694 0.103 7.28 40.77 12.31
4/2/2021 6:00:00 AM 4.78 40.604 0.103 7.27 58.96 12.32
4/2/2021 6:15:00 AM 4.73 40.514 0.103 7.27 48.63 12.33
4/2/2021 6:30:00 AM 4.67 40.406 0.103 7.27 54.35 12.37
4/2/2021 6:45:00 AM 4.61 40.298 0.103 7.27 59.09 12.38
4/2/2021 7:00:00 AM 4.57 40.226 0.103 7.27 54.97 12.4
4/2/2021 7:15:00 AM 4.53 40.154 0.103 7.28 57.81 12.44
4/2/2021 7:30:00 AM 4.49 40.082 0.103 7.28 46.34 12.49
4/2/2021 7:45:00 AM 4.47 40.046 0.103 7.29 49.45 12.53
4/2/2021 8:00:00 AM 4.43 39.974 0.103 7.3 41.16 12.61
4/2/2021 8:15:00 AM 4.38 39.884 0.103 7.3 46.43 12.65
4/2/2021 8:30:00 AM 4.36 39.848 0.103 7.31 55.66 12.69
4/2/2021 8:45:00 AM 4.34 39.812 0.103 7.31 60.41 12.76
4/2/2021 9:00:00 AM 4.34 39.812 0.103 7.33 69.02 12.79
4/2/2021 9:15:00 AM 4.3 39.74 0.103 7.34 48.2 12.84
4/2/2021 9:30:00 AM 4.32 39.776 0.103 7.34 76.43 12.9
4/2/2021 9:45:00 AM 4.37 39.866 0.103 7.36 53.31 12.93
4/2/2021 10:00:00 AM 4.43 39.974 0.103 7.37 62.18 12.99
4/2/2021 10:15:00 AM 4.5 40.1 0.103 7.39 64.31 12.99
4/2/2021 10:30:00 AM 4.59 40.262 0.102 7.39 50.23 13.01
4/2/2021 10:45:00 AM 4.61 40.298 0.103 7.4 43.95 13
4/2/2021 11:00:00 AM 4.7 40.46 0.103 7.43 58.99 13.01
4/2/2021 11:15:00 AM 4.79 40.622 0.103 7.42 58.42 13.03
4/2/2021 11:30:00 AM 4.94 40.892 0.103 7.43 45.67 13.04
4/2/2021 11:45:00 AM 4.99 40.982 0.103 7.45 49.95 13.01
4/2/2021 12:00:00 PM 5.13 41.234 0.103 7.45 52.89 13
4/2/2021 12:15:00 PM 5.28 41.504 0.103 7.45 70.85 12.98
4/2/2021 12:30:00 PM 5.38 41.684 0.103 7.47 50.5 12.98
4/2/2021 12:45:00 PM 5.51 41.918 0.103 7.47 72.81 12.98
4/2/2021 1:00:00 PM 5.61 42.098 0.103 7.48 60.48 12.97
4/2/2021 1:15:00 PM 5.74 42.332 0.103 7.48 45.18 12.96
4/2/2021 1:30:00 PM 5.81 42.458 0.103 7.49 71.77 12.93
4/2/2021 1:45:00 PM 5.84 42.512 0.103 7.51 59.29 12.91
4/2/2021 2:00:00 PM 5.9 42.62 0.103 7.51 50.79 12.91
4/2/2021 2:15:00 PM 5.94 42.692 0.103 7.51 47.69 12.89
4/2/2021 2:30:00 PM 5.95 42.71 0.103 7.52 56.34 12.89
4/2/2021 2:45:00 PM 5.95 42.71 0.103 7.51 46.9 12.87
4/2/2021 3:00:00 PM 5.93 42.674 0.103 7.53 51.4 12.88
4/2/2021 3:15:00 PM 5.91 42.638 0.103 7.53 50.34 12.88
4/2/2021 3:30:00 PM 5.88 42.584 0.103 7.52 53.92 12.88
4/2/2021 3:45:00 PM 5.85 42.53 0.103 7.53 59.88 12.86
4/2/2021 4:00:00 PM 5.82 42.476 0.103 7.53 48.1 12.85
4/2/2021 4:15:00 PM 5.77 42.386 0.103 7.53 40.1 12.83
4/2/2021 4:30:00 PM 5.72 42.296 0.103 7.53 50.08 12.87
4/2/2021 4:45:00 PM 5.7 42.26 0.103 7.53 63.25 12.86
4/2/2021 5:00:00 PM 5.68 42.224 0.103 7.53 54.48 12.82
4/2/2021 5:15:00 PM 5.65 42.17 0.103 7.53 42.13 12.8
4/2/2021 5:30:00 PM 5.61 42.098 0.103 7.52 55.62 12.8
4/2/2021 5:45:00 PM 5.58 42.044 0.103 7.53 45.43 12.78
4/2/2021 6:00:00 PM 5.54 41.972 0.103 7.52 59.42 12.75
4/2/2021 6:15:00 PM 5.51 41.918 0.103 7.51 60.57 12.71
4/2/2021 6:30:00 PM 5.48 41.864 0.103 7.51 54.78 12.69
4/2/2021 6:45:00 PM 5.45 41.81 0.103 7.5 63.89 12.64
4/2/2021 7:00:00 PM 5.42 41.756 0.103 7.48 52.58 12.61
4/2/2021 7:15:00 PM 5.39 41.702 0.103 7.47 41.25 12.57
4/2/2021 7:30:00 PM 5.37 41.666 0.103 7.47 46.6 12.54
4/2/2021 7:45:00 PM 5.36 41.648 0.103 7.46 40.77 12.51
4/2/2021 8:00:00 PM 5.35 41.63 0.103 7.44 57.02 12.49
4/2/2021 8:15:00 PM 5.34 41.612 0.103 7.44 45.22 12.48
4/2/2021 8:30:00 PM 5.33 41.594 0.103 7.43 59.12 12.46
4/2/2021 8:45:00 PM 5.32 41.576 0.104 7.41 55.92 12.44
4/2/2021 9:00:00 PM 5.32 41.576 0.104 7.42 50.25 12.42
4/2/2021 9:15:00 PM 5.31 41.558 0.104 7.41 56.59 12.43
4/2/2021 9:30:00 PM 5.29 41.522 0.104 7.4 52.59 12.42
4/2/2021 9:45:00 PM 5.28 41.504 0.104 7.4 60.55 12.42
4/2/2021 10:00:00 PM 5.26 41.468 0.103 7.39 62.85 12.41
4/2/2021 10:15:00 PM 5.23 41.414 0.104 7.39 48.17 12.42
4/2/2021 10:30:00 PM 5.2 41.36 0.104 7.38 62.49 12.43
4/2/2021 10:45:00 PM 5.16 41.288 0.104 7.38 55.83 12.41
4/2/2021 11:00:00 PM 5.12 41.216 0.104 7.38 41.59 12.43
4/2/2021 11:15:00 PM 5.07 41.126 0.104 7.38 46.95 12.45
4/2/2021 11:30:00 PM 5.02 41.036 0.104 7.38 47.56 12.44
4/2/2021 11:45:00 PM 4.96 40.928 0.104 7.37 55.98 12.47
4/3/2021 12:00:00 AM 4.91 40.838 0.104 7.37 62.09 12.44
4/3/2021 12:15:00 AM 4.86 40.748 0.104 7.36 66.68 12.46
4/3/2021 12:30:00 AM 4.8 40.64 0.104 7.36 58.29 12.48
4/3/2021 12:45:00 AM 4.75 40.55 0.104 7.36 60.51 12.5
4/3/2021 1:00:00 AM 4.69 40.442 0.104 7.36 56.63 12.5
4/3/2021 1:15:00 AM 4.63 40.334 0.104 7.36 60.81 12.51
4/3/2021 1:30:00 AM 4.58 40.244 0.104 7.35 58.6 12.51
4/3/2021 1:45:00 AM 4.53 40.154 0.104 7.36 56.75 12.52
4/3/2021 2:00:00 AM 4.47 40.046 0.104 7.35 53.06 12.54
4/3/2021 2:15:00 AM 4.42 39.956 0.104 7.35 61.62 12.56
4/3/2021 2:30:00 AM 4.35 39.83 0.104 7.34 49.78 12.6
4/3/2021 2:45:00 AM 4.29 39.722 0.104 7.34 46.05 12.57
4/3/2021 3:00:00 AM 4.23 39.614 0.104 7.34 59.39 12.59
4/3/2021 3:15:00 AM 4.18 39.524 0.104 7.33 57.69 12.62
4/3/2021 3:30:00 AM 4.12 39.416 0.104 7.34 44.8 12.62
4/3/2021 3:45:00 AM 4.06 39.308 0.104 7.33 72.52 12.62
4/3/2021 4:00:00 AM 3.99 39.182 0.104 7.31 61.77 12.66
4/3/2021 4:15:00 AM 3.94 39.092 0.104 7.31 53.4 12.66
4/3/2021 4:30:00 AM 3.88 38.984 0.104 7.31 47.72 12.66
4/3/2021 4:45:00 AM 3.82 38.876 0.104 7.3 65.29 12.71
4/3/2021 5:00:00 AM 3.76 38.768 0.104 7.3 50.3 12.73
4/3/2021 5:15:00 AM 3.7 38.66 0.104 7.3 44.95 12.75
4/3/2021 5:30:00 AM 3.64 38.552 0.104 7.3 58.88 12.75
4/3/2021 5:45:00 AM 3.57 38.426 0.104 7.29 61.03 12.78
4/3/2021 6:00:00 AM 3.52 38.336 0.104 7.29 42.98 12.79
4/3/2021 6:15:00 AM 3.46 38.228 0.104 7.28 57.64 12.82
4/3/2021 6:30:00 AM 3.42 38.156 0.104 7.28 62.05 12.82
4/3/2021 6:45:00 AM 3.37 38.066 0.104 7.28 43.69 12.83
4/3/2021 7:00:00 AM 3.32 37.976 0.104 7.28 57.51 12.85
4/3/2021 7:15:00 AM 3.29 37.922 0.104 7.28 54.35 12.88
4/3/2021 7:30:00 AM 3.26 37.868 0.104 7.28 64.75 12.94
4/3/2021 7:45:00 AM 3.23 37.814 0.104 7.28 61.83 13.01
4/3/2021 8:00:00 AM 3.22 37.796 0.104 7.29 56.74 13.04
4/3/2021 8:15:00 AM 3.22 37.796 0.104 7.3 44.07 13.09
4/3/2021 8:30:00 AM 3.23 37.814 0.104 7.31 41.28 13.12
4/3/2021 8:45:00 AM 3.26 37.868 0.104 7.32 52.13 13.16
4/3/2021 9:00:00 AM 3.32 37.976 0.104 7.33 47.18 13.2
4/3/2021 9:15:00 AM 3.4 38.12 0.104 7.35 57.75 13.22
4/3/2021 9:30:00 AM 3.49 38.282 0.104 7.36 53.37 13.24
4/3/2021 9:45:00 AM 3.61 38.498 0.104 7.37 51.13 13.25
4/3/2021 10:00:00 AM 3.75 38.75 0.104 7.37 47.16 13.28
4/3/2021 10:15:00 AM 3.9 39.02 0.104 7.38 60.46 13.29
4/3/2021 10:30:00 AM 4.05 39.29 0.103 7.4 47.08 13.28
4/3/2021 10:45:00 AM 4.2 39.56 0.103 7.41 47.62 13.25
4/3/2021 11:00:00 AM 4.4 39.92 0.103 7.42 61.85 13.25
4/3/2021 11:15:00 AM 4.57 40.226 0.103 7.43 61.08 13.23
4/3/2021 11:30:00 AM 4.78 40.604 0.103 7.44 69.82 13.2
4/3/2021 11:45:00 AM 4.99 40.982 0.103 7.45 57.97 13.19
4/3/2021 12:00:00 PM 5.19 41.342 0.103 7.46 49.74 13.14
4/3/2021 12:15:00 PM 5.39 41.702 0.103 7.46 73.47 13.1
4/3/2021 12:30:00 PM 5.56 42.008 0.103 7.48 49.84 13.04
4/3/2021 12:45:00 PM 5.74 42.332 0.103 7.49 63.9 13
4/3/2021 1:00:00 PM 5.92 42.656 0.103 7.49 46.77 12.98
4/3/2021 1:15:00 PM 6.1 42.98 0.103 7.5 57.24 12.95
4/3/2021 1:30:00 PM 6.23 43.214 0.103 7.51 55.32 12.92
4/3/2021 1:45:00 PM 6.35 43.43 0.103 7.51 54.67 12.9
4/3/2021 2:00:00 PM 6.43 43.574 0.103 7.53 46.52 12.86
4/3/2021 2:15:00 PM 6.5 43.7 0.103 7.53 61.08 12.83
4/3/2021 2:30:00 PM 6.56 43.808 0.103 7.54 68.48 12.82
4/3/2021 2:45:00 PM 6.59 43.862 0.103 7.54 63.31 12.78
4/3/2021 3:00:00 PM 6.53 43.754 0.103 7.55 63.03 12.78
4/3/2021 3:15:00 PM 6.48 43.664 0.103 7.55 64.35 12.79
4/3/2021 3:30:00 PM 6.46 43.628 0.103 7.56 52.73 12.79
4/3/2021 3:45:00 PM 6.43 43.574 0.103 7.57 59.28 12.8
4/3/2021 4:00:00 PM 6.39 43.502 0.103 7.57 68.78 12.8
4/3/2021 4:15:00 PM 6.34 43.412 0.103 7.57 66.75 12.81
4/3/2021 4:30:00 PM 6.28 43.304 0.103 7.57 69.79 12.81
4/3/2021 4:45:00 PM 6.25 43.25 0.103 7.58 69.33 12.78
4/3/2021 5:00:00 PM 6.21 43.178 0.103 7.58 64.06 12.76
4/3/2021 5:15:00 PM 6.19 43.142 0.103 7.58 56.34 12.78
4/3/2021 5:30:00 PM 6.15 43.07 0.103 7.57 56.03 12.76
4/3/2021 5:45:00 PM 6.13 43.034 0.103 7.58 59.27 12.72
4/3/2021 6:00:00 PM 6.15 43.07 0.103 7.57 43.96 12.75
4/3/2021 6:15:00 PM 6.14 43.052 0.104 7.57 51.75 12.73
4/3/2021 6:30:00 PM 6.11 42.998 0.104 7.57 55.55 12.69
4/3/2021 6:45:00 PM 6.08 42.944 0.104 7.56 42.15 12.66
4/3/2021 7:00:00 PM 6.04 42.872 0.104 7.55 52.67 12.6
4/3/2021 7:15:00 PM 5.99 42.782 0.104 7.54 52.64 12.5
4/3/2021 7:30:00 PM 5.94 42.692 0.104 7.51 49.48 12.44
4/3/2021 7:45:00 PM 5.9 42.62 0.104 7.5 46.3 12.37
4/3/2021 8:00:00 PM 5.87 42.566 0.105 7.48 56.3 12.33
4/3/2021 8:15:00 PM 5.85 42.53 0.105 7.46 43.45 12.31
4/3/2021 8:30:00 PM 5.85 42.53 0.105 7.45 52.72 12.27
4/3/2021 8:45:00 PM 5.85 42.53 0.105 7.44 60.45 12.26
4/3/2021 9:00:00 PM 5.86 42.548 0.105 7.43 65.61 12.25
4/3/2021 9:15:00 PM 5.88 42.584 0.105 7.42 63.59 12.22
4/3/2021 9:30:00 PM 5.89 42.602 0.105 7.41 62.1 12.2
4/3/2021 9:45:00 PM 5.9 42.62 0.105 7.41 56.19 12.17
4/3/2021 10:00:00 PM 5.93 42.674 0.105 7.4 51.66 12.18
4/3/2021 10:15:00 PM 5.95 42.71 0.105 7.4 55.98 12.18
4/3/2021 10:30:00 PM 5.97 42.746 0.105 7.4 58.49 12.16
4/3/2021 10:45:00 PM 5.99 42.782 0.105 7.4 57.12 12.14
4/3/2021 11:00:00 PM 6.02 42.836 0.105 7.39 60.38 12.13
4/3/2021 11:15:00 PM 6.04 42.872 0.105 7.39 45.02 12.11
4/3/2021 11:30:00 PM 6.06 42.908 0.105 7.39 49.78 12.1
4/3/2021 11:45:00 PM 6.08 42.944 0.105 7.38 63.08 12.11
4/4/2021 12:00:00 AM 6.08 42.944 0.105 7.38 48.98 12.07
4/4/2021 12:15:00 AM 6.09 42.962 0.105 7.38 57.42 12.07
4/4/2021 12:30:00 AM 6.09 42.962 0.106 7.38 65.89 12.05
4/4/2021 12:45:00 AM 6.1 42.98 0.106 7.38 46.38 12.04
4/4/2021 1:00:00 AM 6.1 42.98 0.106 7.37 49.43 12.06
4/4/2021 1:15:00 AM 6.11 42.998 0.106 7.37 53.04 12.05
4/4/2021 1:30:00 AM 6.11 42.998 0.106 7.37 59.43 12.04
4/4/2021 1:45:00 AM 6.11 42.998 0.106 7.36 58.12 12.02
4/4/2021 2:00:00 AM 6.11 42.998 0.106 7.37 57.89 12.01
4/4/2021 2:15:00 AM 6.11 42.998 0.106 7.36 44.18 12.02
4/4/2021 2:30:00 AM 6.11 42.998 0.106 7.36 58.76 12.02
4/4/2021 2:45:00 AM 6.1 42.98 0.106 7.36 51.65 12.02
4/4/2021 3:00:00 AM 6.09 42.962 0.106 7.35 58.21 11.99
4/4/2021 3:15:00 AM 6.08 42.944 0.106 7.35 52.65 12
4/4/2021 3:30:00 AM 6.06 42.908 0.106 7.35 65.92 11.98
4/4/2021 3:45:00 AM 6.04 42.872 0.106 7.34 55.97 12.01
4/4/2021 4:00:00 AM 6.01 42.818 0.106 7.34 47.09 11.99
4/4/2021 4:15:00 AM 5.98 42.764 0.106 7.35 46.66 11.98
4/4/2021 4:30:00 AM 5.94 42.692 0.106 7.34 43.69 12
4/4/2021 4:45:00 AM 5.9 42.62 0.106 7.34 57.7 11.99
4/4/2021 5:00:00 AM 5.86 42.548 0.106 7.34 45.89 12
4/4/2021 5:15:00 AM 5.83 42.494 0.106 7.33 50.47 12.03
4/4/2021 5:30:00 AM 5.79 42.422 0.106 7.33 47.25 12.03
4/4/2021 5:45:00 AM 5.75 42.35 0.106 7.32 53.39 12.04
4/4/2021 6:00:00 AM 5.7 42.26 0.106 7.33 50.52 12.05
4/4/2021 6:15:00 AM 5.67 42.206 0.106 7.33 54.31 12.05
4/4/2021 6:30:00 AM 5.65 42.17 0.106 7.32 55.01 12.04
4/4/2021 6:45:00 AM 5.62 42.116 0.106 7.32 40.63 12.05
4/4/2021 7:00:00 AM 5.61 42.098 0.106 7.32 53.35 12.05
4/4/2021 7:15:00 AM 5.6 42.08 0.106 7.32 48.57 12.08
4/4/2021 7:30:00 AM 5.6 42.08 0.106 7.32 53.61 12.1
4/4/2021 7:45:00 AM 5.61 42.098 0.106 7.32 58.21 12.16
4/4/2021 8:00:00 AM 5.62 42.116 0.106 7.33 48.73 12.24
4/4/2021 8:15:00 AM 5.63 42.134 0.106 7.34 52.12 12.29
4/4/2021 8:30:00 AM 5.65 42.17 0.106 7.35 54.82 12.31
4/4/2021 8:45:00 AM 5.68 42.224 0.106 7.36 41.92 12.38
4/4/2021 9:00:00 AM 5.75 42.35 0.106 7.38 46.73 12.41
4/4/2021 9:15:00 AM 5.85 42.53 0.105 7.39 54.18 12.44
4/4/2021 9:30:00 AM 5.96 42.728 0.105 7.4 41.71 12.44
4/4/2021 9:45:00 AM 6.1 42.98 0.105 7.41 49.2 12.46
4/4/2021 10:00:00 AM 6.24 43.232 0.105 7.42 65.92 12.47
4/4/2021 10:15:00 AM 6.41 43.538 0.105 7.44 62.02 12.47
4/4/2021 10:30:00 AM 6.57 43.826 0.105 7.45 329.33 12.47
4/4/2021 10:45:00 AM 6.73 44.114 0.105 7.47 44.73 12.42
4/4/2021 11:00:00 AM 6.94 44.492 0.105 7.48 49.23 12.44
4/4/2021 11:15:00 AM 7.16 44.888 0.105 7.49 40.29 12.42
4/4/2021 11:30:00 AM 7.36 45.248 0.105 7.51 40.54 12.4
4/4/2021 11:45:00 AM 7.57 45.626 0.105 7.52 46.28 12.38
4/4/2021 12:00:00 PM 7.81 46.058 0.105 7.53 62.12 12.34
4/4/2021 12:15:00 PM 8.02 46.436 0.105 7.55 47.4 12.29
4/4/2021 12:30:00 PM 8.27 46.886 0.105 7.56 50.33 12.27
4/4/2021 12:45:00 PM 8.44 47.192 0.105 7.57 53.09 12.22
4/4/2021 1:00:00 PM 8.64 47.552 0.105 7.58 41.78 12.18
4/4/2021 1:15:00 PM 8.8 47.84 0.105 7.59 51.31 12.17
4/4/2021 1:30:00 PM 8.95 48.11 0.105 7.6 44.88 12.09
4/4/2021 1:45:00 PM 9.12 48.416 0.105 7.61 51.63 12.09
4/4/2021 2:00:00 PM 9.21 48.578 0.105 7.62 46.68 12.04
4/4/2021 2:15:00 PM 9.31 48.758 0.105 7.62 44.79 12.05
4/4/2021 2:30:00 PM 9.37 48.866 0.105 7.64 48.01 11.99
4/4/2021 2:45:00 PM 9.42 48.956 0.105 7.65 47.05 11.99
4/4/2021 3:00:00 PM 9.45 49.01 0.105 7.65 47.88 11.98
4/4/2021 3:15:00 PM 9.47 49.046 0.105 7.66 42.84 11.97
4/4/2021 3:30:00 PM 9.45 49.01 0.105 7.67 41.7 11.96
4/4/2021 3:45:00 PM 9.44 48.992 0.105 7.67 52.08 11.93
4/4/2021 4:00:00 PM 9.4 48.92 0.105 7.68 43.43 11.92
4/4/2021 4:15:00 PM 9.36 48.848 0.105 7.68 38.02 11.89
4/4/2021 4:30:00 PM 9.33 48.794 0.105 7.68 50.22 11.92
4/4/2021 4:45:00 PM 9.3 48.74 0.105 7.68 46.61 11.88
4/4/2021 5:00:00 PM 9.23 48.614 0.105 7.69 45.02 11.81
4/4/2021 5:15:00 PM 9.2 48.56 0.105 7.68 45.92 11.77
4/4/2021 5:30:00 PM 9.17 48.506 0.105 7.67 48.3 11.79
4/4/2021 5:45:00 PM 9.14 48.452 0.105 7.67 52.29 11.76
4/4/2021 6:00:00 PM 9.1 48.38 0.104 7.66 49.02 11.72
4/4/2021 6:15:00 PM 9.06 48.308 0.104 7.65 53.16 11.68
4/4/2021 6:30:00 PM 9.04 48.272 0.104 7.64 50.5 11.62
4/4/2021 6:45:00 PM 9.01 48.218 0.104 7.62 43.06 11.55
4/4/2021 7:00:00 PM 8.98 48.164 0.104 7.6 48.68 11.5
4/4/2021 7:15:00 PM 8.95 48.11 0.103 7.59 47.53 11.43
4/4/2021 7:30:00 PM 8.92 48.056 0.103 7.56 43.54 11.38
4/4/2021 7:45:00 PM 8.9 48.02 0.103 7.54 57.05 11.33
4/4/2021 8:00:00 PM 8.88 47.984 0.103 7.52 38.22 11.28
4/4/2021 8:15:00 PM 8.86 47.948 0.103 7.5 47.09 11.24
4/4/2021 8:30:00 PM 8.85 47.93 0.102 7.49 56.71 11.22
4/4/2021 8:45:00 PM 8.83 47.894 0.102 7.47 46.93 11.23
4/4/2021 9:00:00 PM 8.82 47.876 0.102 7.46 69.47 11.16
4/4/2021 9:15:00 PM 8.8 47.84 0.102 7.45 41.72 11.19
4/4/2021 9:30:00 PM 8.79 47.822 0.102 7.44 53.49 11.18
4/4/2021 9:45:00 PM 8.78 47.804 0.102 7.44 46.81 11.13
4/4/2021 10:00:00 PM 8.77 47.786 0.102 7.42 64.4 11.16
4/4/2021 10:15:00 PM 8.76 47.768 0.102 7.42 59.98 11.15
4/4/2021 10:30:00 PM 8.75 47.75 0.102 7.41 52.01 11.15
4/4/2021 10:45:00 PM 8.73 47.714 0.101 7.4 56.95 11.11
4/4/2021 11:00:00 PM 8.72 47.696 0.101 7.4 64.89 11.13
4/4/2021 11:15:00 PM 8.69 47.642 0.101 7.4 65 11.1
4/4/2021 11:30:00 PM 8.67 47.606 0.101 7.39 61.34 11.13
4/4/2021 11:45:00 PM 8.65 47.57 0.101 7.38 60.12 11.14
4/5/2021 12:00:00 AM 8.61 47.498 0.101 7.38 56.05 11.12
4/5/2021 12:15:00 AM 8.58 47.444 0.101 7.38 57.28 11.11
4/5/2021 12:30:00 AM 8.53 47.354 0.101 7.38 64.67 11.1
4/5/2021 12:45:00 AM 8.49 47.282 0.101 7.37 47.57 11.12
4/5/2021 1:00:00 AM 8.44 47.192 0.101 7.37 49.89 11.14
4/5/2021 1:15:00 AM 8.39 47.102 0.101 7.36 48.44 11.16
4/5/2021 1:30:00 AM 8.34 47.012 0.101 7.36 63.6 11.13
4/5/2021 1:45:00 AM 8.29 46.922 0.101 7.35 43.32 11.17
4/5/2021 2:00:00 AM 8.24 46.832 0.101 7.35 47.45 11.15
4/5/2021 2:15:00 AM 8.19 46.742 0.101 7.35 48.58 11.14
4/5/2021 2:30:00 AM 8.14 46.652 0.101 7.34 57.32 11.18
4/5/2021 2:45:00 AM 8.09 46.562 0.101 7.34 49.58 11.19
4/5/2021 3:00:00 AM 8.04 46.472 0.101 7.34 64.85 11.16
4/5/2021 3:15:00 AM 7.99 46.382 0.101 7.34 52.05 11.17
4/5/2021 3:30:00 AM 7.94 46.292 0.101 7.33 62.23 11.16
4/5/2021 3:45:00 AM 7.89 46.202 0.102 7.33 54.01 11.18
4/5/2021 4:00:00 AM 7.84 46.112 0.102 7.33 64.36 11.22
4/5/2021 4:15:00 AM 7.79 46.022 0.102 7.33 58.53 11.22
4/5/2021 4:30:00 AM 7.74 45.932 0.102 7.32 65.18 11.22
4/5/2021 4:45:00 AM 7.69 45.842 0.102 7.32 59.43 11.23
4/5/2021 5:00:00 AM 7.64 45.752 0.102 7.32 61.79 11.23
4/5/2021 5:15:00 AM 7.59 45.662 0.102 7.31 65.51 11.26
4/5/2021 5:30:00 AM 7.54 45.572 0.102 7.31 61.83 11.28
4/5/2021 5:45:00 AM 7.49 45.482 0.102 7.31 62.23 11.28
4/5/2021 6:00:00 AM 7.44 45.392 0.102 7.3 64.86 11.31
4/5/2021 6:15:00 AM 7.38 45.284 0.102 7.31 54.95 11.33
4/5/2021 6:30:00 AM 7.33 45.194 0.102 7.31 65.21 11.32
4/5/2021 6:45:00 AM 7.27 45.086 0.102 7.31 61.23 11.37
4/5/2021 7:00:00 AM 7.22 44.996 0.102 7.31 55.46 11.39
4/5/2021 7:15:00 AM 7.16 44.888 0.102 7.31 65.81 11.42
4/5/2021 7:30:00 AM 7.12 44.816 0.102 7.32 64.56 11.48
4/5/2021 7:45:00 AM 7.07 44.726 0.102 7.31 49.25 11.55
4/5/2021 8:00:00 AM 7.03 44.654 0.102 7.33 59.68 11.64
4/5/2021 8:15:00 AM 7.01 44.618 0.102 7.34 62.78 11.68
4/5/2021 8:30:00 AM 6.99 44.582 0.102 7.34 64.82 11.75
4/5/2021 8:45:00 AM 7 44.6 0.102 7.36 62.73 11.84
4/5/2021 9:00:00 AM 7.04 44.672 0.102 7.37 65.18 11.92
4/5/2021 9:15:00 AM 7.1 44.78 0.102 7.38 64.79 11.97
4/5/2021 9:30:00 AM 7.17 44.906 0.102 7.4 64.2 12.01
4/5/2021 9:45:00 AM 7.26 45.068 0.102 7.41 65.08 12.04
4/5/2021 10:00:00 AM 7.37 45.266 0.102 7.43 63.33 12.07
4/5/2021 10:15:00 AM 7.51 45.518 0.102 7.44 59.19 12.13
4/5/2021 10:30:00 AM 7.66 45.788 0.102 7.46 56.81 12.13
4/5/2021 10:45:00 AM 7.8 46.04 0.102 7.48 62.55 12.09
4/5/2021 11:00:00 AM 7.99 46.382 0.102 7.49 50.74 12.11
4/5/2021 11:15:00 AM 8.19 46.742 0.102 7.5 61.75 12.12
4/5/2021 11:30:00 AM 8.37 47.066 0.102 7.52 64.14 12.12
4/5/2021 11:45:00 AM 8.59 47.462 0.102 7.53 63.78 12.11
4/5/2021 12:00:00 PM 8.8 47.84 0.102 7.55 63.17 12.1
4/5/2021 12:15:00 PM 9.01 48.218 0.102 7.56 58.76 12.05
4/5/2021 12:30:00 PM 9.25 48.65 0.102 7.58 55.39 12.03
4/5/2021 12:45:00 PM 0 32 0 0 0 0
4/5/2021 1:00:00 PM 9.62 49.316 0.102 7.79 1.92 12.08
4/5/2021 1:15:00 PM 9.8 49.64 0.102 7.76 2.05 12.03
4/5/2021 1:30:00 PM 9.97 49.946 0.102 7.77 1.89 12
4/5/2021 1:45:00 PM 10.1 50.18 0.102 7.78 1.9 11.97
4/5/2021 2:00:00 PM 10.27 50.486 0.103 7.79 1.73 11.94
4/5/2021 2:15:00 PM 10.33 50.594 0.103 7.8 1.91 11.9
4/5/2021 2:30:00 PM 10.41 50.738 0.103 7.81 1.98 11.88
4/5/2021 2:45:00 PM 10.44 50.792 0.103 7.81 1.98 11.86
4/5/2021 3:00:00 PM 10.46 50.828 0.103 7.82 1.93 11.85
4/5/2021 3:15:00 PM 10.49 50.882 0.103 7.83 1.89 11.83
4/5/2021 3:30:00 PM 10.42 50.756 0.103 7.83 1.95 11.83
4/5/2021 3:45:00 PM 10.41 50.738 0.103 7.84 1.85 11.81
4/5/2021 4:00:00 PM 10.36 50.648 0.103 7.83 1.91 11.8
4/5/2021 4:15:00 PM 10.3 50.54 0.103 7.83 1.91 11.8
4/5/2021 4:30:00 PM 10.22 50.396 0.103 7.82 1.89 11.77
4/5/2021 4:45:00 PM 10.17 50.306 0.103 7.82 1.93 11.77
4/5/2021 5:00:00 PM 10.1 50.18 0.104 7.82 1.88 11.76
4/5/2021 5:15:00 PM 10.04 50.072 0.104 7.81 1.98 11.75
4/5/2021 5:30:00 PM 10.01 50.018 0.104 7.81 1.97 11.74
4/5/2021 5:45:00 PM 9.95 49.91 0.104 7.8 1.99 11.7
4/5/2021 6:00:00 PM 9.89 49.802 0.104 7.78 2 11.66
4/5/2021 6:15:00 PM 9.85 49.73 0.104 7.76 2.1 11.62
4/5/2021 6:30:00 PM 9.81 49.658 0.104 7.73 2.02 11.55
4/5/2021 6:45:00 PM 9.79 49.622 0.105 7.71 1.98 11.49
4/5/2021 7:00:00 PM 9.76 49.568 0.105 7.68 2.26 11.41
4/5/2021 7:15:00 PM 9.74 49.532 0.105 7.64 1.82 11.32
4/5/2021 7:30:00 PM 9.7 49.46 0.105 7.61 2.1 11.25
4/5/2021 7:45:00 PM 9.67 49.406 0.106 7.58 1.91 11.18
4/5/2021 8:00:00 PM 9.64 49.352 0.106 7.56 2.02 11.12
4/5/2021 8:15:00 PM 9.6 49.28 0.106 7.53 1.92 11.09
4/5/2021 8:30:00 PM 9.57 49.226 0.106 7.51 1.87 11.07
4/5/2021 8:45:00 PM 9.53 49.154 0.106 7.5 1.84 11.06
4/5/2021 9:00:00 PM 9.51 49.118 0.106 7.48 2.09 11.04
4/5/2021 9:15:00 PM 9.47 49.046 0.106 7.48 2.07 11.04
4/5/2021 9:30:00 PM 9.45 49.01 0.106 7.47 1.98 11.05
4/5/2021 9:45:00 PM 9.42 48.956 0.107 7.46 1.89 11.04
4/5/2021 10:00:00 PM 9.4 48.92 0.107 7.45 2.01 11.04
4/5/2021 10:15:00 PM 9.38 48.884 0.107 7.44 1.98 11.03
4/5/2021 10:30:00 PM 9.36 48.848 0.107 7.44 2.05 11.03
4/5/2021 10:45:00 PM 9.35 48.83 0.107 7.44 1.93 11.04
4/5/2021 11:00:00 PM 9.32 48.776 0.107 7.44 1.93 11.02
4/5/2021 11:15:00 PM 9.3 48.74 0.107 7.43 1.98 11.02
4/5/2021 11:30:00 PM 9.28 48.704 0.107 7.43 2.05 11.02
4/5/2021 11:45:00 PM 9.26 48.668 0.107 7.43 2.23 11.01
4/6/2021 12:00:00 AM 9.22 48.596 0.107 7.42 2 11.03
4/6/2021 12:15:00 AM 9.2 48.56 0.107 7.41 1.97 11.02
4/6/2021 12:30:00 AM 9.17 48.506 0.107 7.41 2.45 11.02
4/6/2021 12:45:00 AM 9.13 48.434 0.107 7.41 2.08 11.02
4/6/2021 1:00:00 AM 9.08 48.344 0.107 7.41 2.2 11.04
4/6/2021 1:15:00 AM 9.03 48.254 0.107 7.41 2.14 11.04
4/6/2021 1:30:00 AM 8.98 48.164 0.107 7.41 2.26 11.05
4/6/2021 1:45:00 AM 8.92 48.056 0.107 7.4 2.27 11.06
4/6/2021 2:00:00 AM 8.87 47.966 0.107 7.4 2.18 11.05
4/6/2021 2:15:00 AM 8.8 47.84 0.107 7.4 2.36 11.08
4/6/2021 2:30:00 AM 8.75 47.75 0.107 7.4 2.03 11.09
4/6/2021 2:45:00 AM 8.68 47.624 0.107 7.39 2.18 11.09
4/6/2021 3:00:00 AM 8.62 47.516 0.107 7.39 2.14 11.08
4/6/2021 3:15:00 AM 8.57 47.426 0.107 7.39 2.11 11.1
4/6/2021 3:30:00 AM 8.51 47.318 0.108 7.39 2.24 11.1
4/6/2021 3:45:00 AM 8.45 47.21 0.108 7.38 2 11.12
4/6/2021 4:00:00 AM 8.4 47.12 0.108 7.38 2.09 11.14
4/6/2021 4:15:00 AM 8.33 46.994 0.108 7.38 1.96 11.14
4/6/2021 4:30:00 AM 8.28 46.904 0.108 7.38 2.17 11.15
4/6/2021 4:45:00 AM 8.23 46.814 0.108 7.37 1.91 11.16
4/6/2021 5:00:00 AM 8.18 46.724 0.108 7.37 2.15 11.16
4/6/2021 5:15:00 AM 8.13 46.634 0.108 7.37 2.05 11.17
4/6/2021 5:30:00 AM 8.07 46.526 0.108 7.37 1.95 11.18
4/6/2021 5:45:00 AM 8.02 46.436 0.108 7.37 1.91 11.19
4/6/2021 6:00:00 AM 7.96 46.328 0.108 7.36 1.87 11.2
4/6/2021 6:15:00 AM 7.9 46.22 0.108 7.36 1.99 11.22
4/6/2021 6:30:00 AM 7.84 46.112 0.108 7.36 2.02 11.23
4/6/2021 6:45:00 AM 7.79 46.022 0.108 7.36 2.06 11.25
4/6/2021 7:00:00 AM 7.73 45.914 0.108 7.36 2.11 11.29
4/6/2021 7:15:00 AM 7.68 45.824 0.108 7.37 2.03 11.36
4/6/2021 7:30:00 AM 7.62 45.716 0.108 7.38 1.87 11.41
4/6/2021 7:45:00 AM 7.57 45.626 0.108 7.38 1.82 11.49
4/6/2021 8:00:00 AM 7.53 45.554 0.108 7.39 2 11.56
4/6/2021 8:15:00 AM 7.48 45.464 0.108 7.41 1.8 11.62
4/6/2021 8:30:00 AM 7.45 45.41 0.108 7.42 1.78 11.68
4/6/2021 8:45:00 AM 7.44 45.392 0.108 7.43 1.9 11.76
4/6/2021 9:00:00 AM 7.48 45.464 0.108 7.45 2.04 11.87
4/6/2021 9:15:00 AM 7.54 45.572 0.108 7.47 1.97 11.93
4/6/2021 9:30:00 AM 7.62 45.716 0.108 7.49 2.19 12
4/6/2021 9:45:00 AM 7.72 45.896 0.108 7.51 2.01 12.05
4/6/2021 10:00:00 AM 7.84 46.112 0.108 7.54 1.72 12.09
4/6/2021 10:15:00 AM 7.99 46.382 0.108 7.56 1.82 12.12
4/6/2021 10:30:00 AM 8.14 46.652 0.108 7.58 1.79 12.15
4/6/2021 10:45:00 AM 8.32 46.976 0.108 7.61 1.75 12.15
4/6/2021 11:00:00 AM 8.51 47.318 0.107 7.63 1.75 12.16
4/6/2021 11:15:00 AM 8.69 47.642 0.107 7.65 1.72 12.16
4/6/2021 11:30:00 AM 8.88 47.984 0.107 7.67 1.78 12.15
4/6/2021 11:45:00 AM 9.1 48.38 0.107 7.7 1.78 12.14
4/6/2021 12:00:00 PM 9.35 48.83 0.107 7.72 1.73 12.11
4/6/2021 12:15:00 PM 9.59 49.262 0.107 7.74 1.79 12.09
4/6/2021 12:30:00 PM 9.81 49.658 0.107 7.77 1.84 12.07
4/6/2021 12:45:00 PM 10.04 50.072 0.107 7.79 1.72 12.03
4/6/2021 1:00:00 PM 10.21 50.378 0.107 7.81 1.85 11.99
4/6/2021 1:15:00 PM 10.41 50.738 0.107 7.83 1.86 11.95
4/6/2021 1:30:00 PM 10.56 51.008 0.107 7.85 1.8 11.93
4/6/2021 1:45:00 PM 10.72 51.296 0.107 7.86 1.76 11.89
4/6/2021 2:00:00 PM 10.88 51.584 0.107 7.88 1.8 11.85
4/6/2021 2:15:00 PM 11.02 51.836 0.107 7.9 1.81 11.82
4/6/2021 2:30:00 PM 11.14 52.052 0.107 7.91 1.74 11.8
4/6/2021 2:45:00 PM 11.21 52.178 0.107 7.92 1.99 11.76
4/6/2021 3:00:00 PM 11.29 52.322 0.107 7.94 1.9 11.75
4/6/2021 3:15:00 PM 11.32 52.376 0.107 7.94 1.83 11.71
4/6/2021 3:30:00 PM 11.3 52.34 0.107 7.95 2.1 11.69
4/6/2021 3:45:00 PM 11.29 52.322 0.107 7.94 1.93 11.65
4/6/2021 4:00:00 PM 11.25 52.25 0.107 7.94 1.83 11.63
4/6/2021 4:15:00 PM 11.22 52.196 0.107 7.93 1.89 11.61
4/6/2021 4:30:00 PM 11.14 52.052 0.107 7.92 1.89 11.58
4/6/2021 4:45:00 PM 11.07 51.926 0.107 7.92 1.96 11.56
4/6/2021 5:00:00 PM 11.01 51.818 0.107 7.9 1.96 11.53
4/6/2021 5:15:00 PM 10.93 51.674 0.107 7.89 1.86 11.51
4/6/2021 5:30:00 PM 10.84 51.512 0.107 7.87 1.97 11.48
4/6/2021 5:45:00 PM 10.76 51.368 0.107 7.84 1.88 11.45
4/6/2021 6:00:00 PM 10.68 51.224 0.107 7.82 1.84 11.41
4/6/2021 6:15:00 PM 10.61 51.098 0.107 7.8 1.83 11.35
4/6/2021 6:30:00 PM 10.56 51.008 0.107 7.77 1.85 11.29
4/6/2021 6:45:00 PM 10.5 50.9 0.108 7.74 2.02 11.22
4/6/2021 7:00:00 PM 10.46 50.828 0.108 7.71 1.83 11.16
4/6/2021 7:15:00 PM 10.44 50.792 0.108 7.68 1.75 11.09
4/6/2021 7:30:00 PM 10.41 50.738 0.108 7.64 1.98 11.01
4/6/2021 7:45:00 PM 10.39 50.702 0.108 7.6 2 10.94
4/6/2021 8:00:00 PM 10.37 50.666 0.108 7.58 2 10.88
4/6/2021 8:15:00 PM 10.34 50.612 0.108 7.55 1.93 10.83
4/6/2021 8:30:00 PM 10.31 50.558 0.109 7.53 2.04 10.79
4/6/2021 8:45:00 PM 10.28 50.504 0.109 7.51 2.09 10.78
4/6/2021 9:00:00 PM 10.27 50.486 0.109 7.5 1.98 10.77
4/6/2021 9:15:00 PM 10.24 50.432 0.109 7.48 1.95 10.76
4/6/2021 9:30:00 PM 10.2 50.36 0.109 7.48 2.15 10.76
4/6/2021 9:45:00 PM 10.17 50.306 0.109 7.46 2.02 10.76
4/6/2021 10:00:00 PM 10.14 50.252 0.109 7.46 2.05 10.76
4/6/2021 10:15:00 PM 10.11 50.198 0.109 7.45 2.02 10.76
4/6/2021 10:30:00 PM 10.08 50.144 0.11 7.45 1.96 10.77
4/6/2021 10:45:00 PM 10.06 50.108 0.11 7.44 1.98 10.77
4/6/2021 11:00:00 PM 10.05 50.09 0.11 7.44 2.13 10.77
4/6/2021 11:15:00 PM 10.05 50.09 0.11 7.44 2.13 10.78
4/6/2021 11:30:00 PM 10.04 50.072 0.11 7.43 1.95 10.77
4/6/2021 11:45:00 PM 10.04 50.072 0.11 7.43 2.14 10.76
4/7/2021 12:00:00 AM 10.05 50.09 0.11 7.43 2.05 10.76
4/7/2021 12:15:00 AM 10.05 50.09 0.11 7.42 2 10.75
4/7/2021 12:30:00 AM 10.05 50.09 0.11 7.42 2.05 10.75
4/7/2021 12:45:00 AM 10.06 50.108 0.11 7.42 2.03 10.75
4/7/2021 1:00:00 AM 10.06 50.108 0.11 7.41 2.03 10.74
4/7/2021 1:15:00 AM 10.06 50.108 0.11 7.41 2 10.74
4/7/2021 1:30:00 AM 10.05 50.09 0.111 7.41 2.12 10.72
4/7/2021 1:45:00 AM 10.03 50.054 0.111 7.41 2.28 10.7
4/7/2021 2:00:00 AM 10.03 50.054 0.111 7.41 2.19 10.72
4/7/2021 2:15:00 AM 10.03 50.054 0.111 7.41 2.16 10.73
4/7/2021 2:30:00 AM 10.01 50.018 0.111 7.4 2.34 10.71
4/7/2021 2:45:00 AM 10 50 0.111 7.4 2.17 10.71
4/7/2021 3:00:00 AM 9.98 49.964 0.111 7.4 2.2 10.71
4/7/2021 3:15:00 AM 9.96 49.928 0.111 7.4 1.95 10.7
4/7/2021 3:30:00 AM 9.95 49.91 0.111 7.4 2.19 10.72
4/7/2021 3:45:00 AM 9.93 49.874 0.111 7.4 1.96 10.71
4/7/2021 4:00:00 AM 9.91 49.838 0.111 7.4 2.2 10.7
4/7/2021 4:15:00 AM 9.89 49.802 0.111 7.39 1.96 10.71
4/7/2021 4:30:00 AM 9.88 49.784 0.111 7.4 1.95 10.7
4/7/2021 4:45:00 AM 9.86 49.748 0.111 7.39 2.19 10.7
4/7/2021 5:00:00 AM 9.84 49.712 0.111 7.39 1.96 10.7
4/7/2021 5:15:00 AM 9.83 49.694 0.111 7.39 2.12 10.71
4/7/2021 5:30:00 AM 9.81 49.658 0.111 7.39 2.15 10.71
4/7/2021 5:45:00 AM 9.8 49.64 0.111 7.38 1.96 10.69
4/7/2021 6:00:00 AM 9.79 49.622 0.111 7.38 2.18 10.71
4/7/2021 6:15:00 AM 9.78 49.604 0.111 7.38 2.11 10.7
4/7/2021 6:30:00 AM 9.77 49.586 0.111 7.38 2.17 10.69
4/7/2021 6:45:00 AM 9.75 49.55 0.112 7.38 2.09 10.7
4/7/2021 7:00:00 AM 9.75 49.55 0.112 7.38 2.03 10.7
4/7/2021 7:15:00 AM 9.74 49.532 0.112 7.38 2.13 10.71
4/7/2021 7:30:00 AM 9.72 49.496 0.112 7.38 2.05 10.72
4/7/2021 7:45:00 AM 9.71 49.478 0.112 7.38 2.08 10.77
4/7/2021 8:00:00 AM 9.7 49.46 0.112 7.39 2.02 10.8
4/7/2021 8:15:00 AM 9.69 49.442 0.112 7.4 2.16 10.86
4/7/2021 8:30:00 AM 9.68 49.424 0.112 7.41 2.04 10.95
4/7/2021 8:45:00 AM 9.72 49.496 0.111 7.44 2.08 11.12
4/7/2021 9:00:00 AM 9.74 49.532 0.111 7.47 2.01 11.21
4/7/2021 9:15:00 AM 9.74 49.532 0.111 7.49 1.96 11.27
4/7/2021 9:30:00 AM 9.78 49.604 0.111 7.52 1.96 11.41
4/7/2021 9:45:00 AM 9.88 49.784 0.111 7.55 2.1 11.5
4/7/2021 10:00:00 AM 9.97 49.946 0.111 7.59 1.88 11.57
4/7/2021 10:15:00 AM 10.09 50.162 0.111 7.62 1.97 11.63
4/7/2021 10:30:00 AM 10.22 50.396 0.111 7.65 2.06 11.66
4/7/2021 10:45:00 AM 10.31 50.558 0.111 7.69 1.87 11.69
4/7/2021 11:00:00 AM 10.43 50.774 0.111 7.72 2.08 11.73
4/7/2021 11:15:00 AM 10.59 51.062 0.111 7.74 1.93 11.74
4/7/2021 11:30:00 AM 10.78 51.404 0.111 7.77 1.98 11.76
4/7/2021 11:45:00 AM 10.92 51.656 0.111 7.81 1.98 11.76
4/7/2021 12:00:00 PM 11.02 51.836 0.111 7.83 1.75 11.75
4/7/2021 12:15:00 PM 11.24 52.232 0.111 7.87 1.95 11.74
4/7/2021 12:30:00 PM 11.43 52.574 0.111 7.89 2.03 11.73
4/7/2021 12:45:00 PM 11.69 53.042 0.111 7.92 1.97 11.7
4/7/2021 1:00:00 PM 11.86 53.348 0.111 7.95 2.04 11.67
4/7/2021 1:15:00 PM 12.05 53.69 0.111 7.97 1.96 11.64
4/7/2021 1:30:00 PM 12.21 53.978 0.111 7.99 1.85 11.62
4/7/2021 1:45:00 PM 12.37 54.266 0.11 8 1.98 11.58
4/7/2021 2:00:00 PM 12.56 54.608 0.11 8.03 1.94 11.55
4/7/2021 2:15:00 PM 12.68 54.824 0.11 8.04 2.09 11.52
4/7/2021 2:30:00 PM 12.76 54.968 0.11 8.06 2.22 11.48
4/7/2021 2:45:00 PM 12.84 55.112 0.11 8.06 2.05 11.45
4/7/2021 3:00:00 PM 12.92 55.256 0.11 8.06 2.21 11.4
4/7/2021 3:15:00 PM 12.98 55.364 0.11 8.07 1.88 11.37
4/7/2021 3:30:00 PM 13.03 55.454 0.11 8.07 1.83 11.34
4/7/2021 3:45:00 PM 13.02 55.436 0.11 8.07 1.93 11.31
4/7/2021 4:00:00 PM 13.01 55.418 0.11 8.06 1.91 11.27
4/7/2021 4:15:00 PM 13.01 55.418 0.11 8.05 1.86 11.23
4/7/2021 4:30:00 PM 12.97 55.346 0.11 8.04 1.94 11.2
4/7/2021 4:45:00 PM 12.94 55.292 0.11 8.03 2.03 11.17
4/7/2021 5:00:00 PM 12.88 55.184 0.11 8 1.88 11.12
4/7/2021 5:15:00 PM 12.8 55.04 0.11 7.98 2 11.09
4/7/2021 5:30:00 PM 12.74 54.932 0.11 7.95 1.93 11.04
4/7/2021 5:45:00 PM 12.67 54.806 0.11 7.92 2.12 10.99
4/7/2021 6:00:00 PM 12.59 54.662 0.11 7.89 2.1 10.95
4/7/2021 6:15:00 PM 12.53 54.554 0.11 7.86 2.28 10.89
4/7/2021 6:30:00 PM 12.49 54.482 0.11 7.82 1.87 10.81
4/7/2021 6:45:00 PM 12.44 54.392 0.11 7.78 2.01 10.72
4/7/2021 7:00:00 PM 12.39 54.302 0.11 7.74 1.96 10.62
4/7/2021 7:15:00 PM 12.36 54.248 0.11 7.69 1.99 10.53
4/7/2021 7:30:00 PM 12.32 54.176 0.11 7.64 2.06 10.45
4/7/2021 7:45:00 PM 12.29 54.122 0.11 7.61 2.11 10.38
4/7/2021 8:00:00 PM 12.25 54.05 0.111 7.58 2.17 10.32
4/7/2021 8:15:00 PM 12.22 53.996 0.111 7.55 2.04 10.29
4/7/2021 8:30:00 PM 12.19 53.942 0.111 7.53 2.07 10.25
4/7/2021 8:45:00 PM 12.16 53.888 0.111 7.51 2.42 10.24
4/7/2021 9:00:00 PM 12.12 53.816 0.111 7.5 2.27 10.23
4/7/2021 9:15:00 PM 12.08 53.744 0.111 7.48 2.27 10.23
4/7/2021 9:30:00 PM 12.04 53.672 0.111 7.48 2.51 10.23
4/7/2021 9:45:00 PM 12.01 53.618 0.111 7.47 2.35 10.22
4/7/2021 10:00:00 PM 11.97 53.546 0.111 7.46 2.14 10.23
4/7/2021 10:15:00 PM 11.93 53.474 0.111 7.46 2.06 10.23
4/7/2021 10:30:00 PM 11.9 53.42 0.112 7.45 2.29 10.23
4/7/2021 10:45:00 PM 11.86 53.348 0.112 7.45 2.09 10.23
4/7/2021 11:00:00 PM 11.83 53.294 0.112 7.45 2.06 10.24
4/7/2021 11:15:00 PM 11.8 53.24 0.112 7.44 2.1 10.24
4/7/2021 11:30:00 PM 11.77 53.186 0.112 7.44 2.25 10.23
4/7/2021 11:45:00 PM 11.74 53.132 0.112 7.43 2.15 10.25
4/8/2021 12:00:00 AM 11.71 53.078 0.112 7.43 2.22 10.24
4/8/2021 12:15:00 AM 11.68 53.024 0.112 7.43 2.18 10.25
4/8/2021 12:30:00 AM 11.64 52.952 0.112 7.43 2.3 10.26
4/8/2021 12:45:00 AM 11.61 52.898 0.112 7.42 2.12 10.26
4/8/2021 1:00:00 AM 11.58 52.844 0.112 7.42 2.33 10.27
4/8/2021 1:15:00 AM 11.54 52.772 0.112 7.42 2.12 10.27
4/8/2021 1:30:00 AM 11.51 52.718 0.112 7.42 2.24 10.26
4/8/2021 1:45:00 AM 11.46 52.628 0.112 7.41 2.37 10.28
4/8/2021 2:00:00 AM 11.42 52.556 0.113 7.41 2.14 10.27
4/8/2021 2:15:00 AM 11.38 52.484 0.113 7.41 2.29 10.3
4/8/2021 2:30:00 AM 11.33 52.394 0.113 7.41 2.13 10.29
4/8/2021 2:45:00 AM 11.29 52.322 0.113 7.4 2.04 10.3
4/8/2021 3:00:00 AM 11.23 52.214 0.113 7.4 2.2 10.32
4/8/2021 3:15:00 AM 11.19 52.142 0.113 7.4 2.4 10.31
4/8/2021 3:30:00 AM 11.13 52.034 0.113 7.4 2.21 10.33
4/8/2021 3:45:00 AM 11.08 51.944 0.113 7.39 2.27 10.32
4/8/2021 4:00:00 AM 11.03 51.854 0.113 7.39 2.15 10.35
4/8/2021 4:15:00 AM 10.97 51.746 0.113 7.39 2.21 10.35
4/8/2021 4:30:00 AM 10.93 51.674 0.113 7.39 2.29 10.36
4/8/2021 4:45:00 AM 10.86 51.548 0.113 7.39 2.13 10.37
4/8/2021 5:00:00 AM 10.81 51.458 0.113 7.39 2.17 10.37
4/8/2021 5:15:00 AM 10.77 51.386 0.113 7.38 2.13 10.4
4/8/2021 5:30:00 AM 10.72 51.296 0.113 7.38 2.21 10.39
4/8/2021 5:45:00 AM 10.67 51.206 0.113 7.38 2.37 10.4
4/8/2021 6:00:00 AM 10.62 51.116 0.113 7.38 2.28 10.4
4/8/2021 6:15:00 AM 10.57 51.026 0.113 7.38 2.19 10.41
4/8/2021 6:30:00 AM 10.53 50.954 0.113 7.37 2.29 10.41
4/8/2021 6:45:00 AM 10.48 50.864 0.113 7.37 2.31 10.42
4/8/2021 7:00:00 AM 10.43 50.774 0.113 7.38 2.28 10.49
4/8/2021 7:15:00 AM 10.4 50.72 0.113 7.38 2.18 10.54
4/8/2021 7:30:00 AM 10.36 50.648 0.113 7.39 2.32 10.61
4/8/2021 7:45:00 AM 10.34 50.612 0.113 7.4 2.23 10.65
4/8/2021 8:00:00 AM 10.31 50.558 0.113 7.41 2.2 10.75
4/8/2021 8:15:00 AM 10.3 50.54 0.113 7.43 2.11 10.79
4/8/2021 8:30:00 AM 10.29 50.522 0.113 7.44 2.05 10.87
4/8/2021 8:45:00 AM 10.32 50.576 0.113 7.46 2.13 10.98
4/8/2021 9:00:00 AM 10.38 50.684 0.113 7.49 2.13 11.06
4/8/2021 9:15:00 AM 10.48 50.864 0.113 7.51 2.09 11.16
4/8/2021 9:30:00 AM 10.58 51.044 0.113 7.54 2.31 11.23
4/8/2021 9:45:00 AM 10.71 51.278 0.113 7.57 2.14 11.31
4/8/2021 10:00:00 AM 10.84 51.512 0.113 7.61 2.18 11.35
4/8/2021 10:15:00 AM 11 51.8 0.113 7.65 2.02 11.41
4/8/2021 10:30:00 AM 11.17 52.106 0.113 7.68 2.04 11.44
4/8/2021 10:45:00 AM 11.35 52.43 0.113 7.72 2.11 11.46
4/8/2021 11:00:00 AM 11.5 52.7 0.113 7.75 2.13 11.47
4/8/2021 11:15:00 AM 11.71 53.078 0.113 7.78 2.48 11.48
4/8/2021 11:30:00 AM 11.95 53.51 0.113 7.82 2.44 11.5
4/8/2021 11:45:00 AM 12.17 53.906 0.112 7.86 2.26 11.48
4/8/2021 12:00:00 PM 12.4 54.32 0.112 7.88 2.42 11.47
4/8/2021 12:15:00 PM 12.63 54.734 0.112 7.91 2.17 11.47
4/8/2021 12:30:00 PM 12.84 55.112 0.112 7.94 2.3 11.45
4/8/2021 12:45:00 PM 13.07 55.526 0.112 7.98 2.3 11.41
4/8/2021 1:00:00 PM 13.29 55.922 0.112 8 2.11 11.39
4/8/2021 1:15:00 PM 13.43 56.174 0.112 8.02 2.12 11.36
4/8/2021 1:30:00 PM 13.64 56.552 0.112 8.05 2.33 11.31
4/8/2021 1:45:00 PM 13.8 56.84 0.112 8.07 2.44 11.3
4/8/2021 2:00:00 PM 13.92 57.056 0.112 8.09 2.14 11.26
4/8/2021 2:15:00 PM 14.05 57.29 0.112 8.11 2.37 11.22
4/8/2021 2:30:00 PM 14.16 57.488 0.112 8.12 2.22 11.2
4/8/2021 2:45:00 PM 14.19 57.542 0.112 8.12 2.26 11.15
4/8/2021 3:00:00 PM 14.29 57.722 0.112 8.13 2.17 11.12
4/8/2021 3:15:00 PM 14.31 57.758 0.112 8.14 2.21 11.09
4/8/2021 3:30:00 PM 14.34 57.812 0.112 8.14 2.07 11.06
4/8/2021 3:45:00 PM 14.29 57.722 0.112 8.13 2.25 11.03
4/8/2021 4:00:00 PM 14.27 57.686 0.112 8.13 2.19 11.01
4/8/2021 4:15:00 PM 14.21 57.578 0.112 8.12 2.08 10.97
4/8/2021 4:30:00 PM 14.15 57.47 0.112 8.11 1.94 10.97
4/8/2021 4:45:00 PM 14.05 57.29 0.112 8.09 2.15 10.92
4/8/2021 5:00:00 PM 13.96 57.128 0.112 8.07 2.2 10.91
4/8/2021 5:15:00 PM 13.87 56.966 0.112 8.05 2.12 10.88
4/8/2021 5:30:00 PM 13.79 56.822 0.112 8.01 2.17 10.83
4/8/2021 5:45:00 PM 13.7 56.66 0.112 7.98 2.02 10.79
4/8/2021 6:00:00 PM 13.61 56.498 0.112 7.95 2.25 10.73
4/8/2021 6:15:00 PM 13.52 56.336 0.112 7.91 2.24 10.68
4/8/2021 6:30:00 PM 13.43 56.174 0.112 7.87 2.17 10.6
4/8/2021 6:45:00 PM 13.36 56.048 0.112 7.82 2.15 10.52
4/8/2021 7:00:00 PM 13.28 55.904 0.112 7.77 2.05 10.43
4/8/2021 7:15:00 PM 13.22 55.796 0.112 7.73 2.22 10.34
4/8/2021 7:30:00 PM 13.15 55.67 0.112 7.68 2.31 10.24
4/8/2021 7:45:00 PM 13.09 55.562 0.112 7.64 2.35 10.16
4/8/2021 8:00:00 PM 13.06 55.508 0.112 7.6 2.44 10.1
4/8/2021 8:15:00 PM 13.01 55.418 0.112 7.57 2.43 10.05
4/8/2021 8:30:00 PM 12.97 55.346 0.112 7.55 2.34 10.02
4/8/2021 8:45:00 PM 12.93 55.274 0.112 7.53 2.18 10
4/8/2021 9:00:00 PM 12.89 55.202 0.112 7.51 2.31 9.99
4/8/2021 9:15:00 PM 12.86 55.148 0.112 7.5 2.7 9.98
4/8/2021 9:30:00 PM 12.83 55.094 0.112 7.49 2.25 9.97
4/8/2021 9:45:00 PM 12.81 55.058 0.112 7.48 2.44 9.98
4/8/2021 10:00:00 PM 12.78 55.004 0.112 7.47 2.16 9.97
4/8/2021 10:15:00 PM 12.75 54.95 0.113 7.46 2.22 9.97
4/8/2021 10:30:00 PM 12.73 54.914 0.113 7.45 2.15 9.97
4/8/2021 10:45:00 PM 12.71 54.878 0.113 7.45 2.23 9.99
4/8/2021 11:00:00 PM 12.7 54.86 0.113 7.45 2.26 9.98
4/8/2021 11:15:00 PM 12.68 54.824 0.113 7.44 2.21 9.96
4/8/2021 11:30:00 PM 12.66 54.788 0.113 7.44 2.19 9.98
4/8/2021 11:45:00 PM 12.66 54.788 0.113 7.44 2.18 9.97
4/9/2021 12:00:00 AM 12.65 54.77 0.113 7.43 2.19 9.98
4/9/2021 12:15:00 AM 12.64 54.752 0.113 7.43 2.34 9.97
4/9/2021 12:30:00 AM 12.64 54.752 0.113 7.43 2.17 9.98
4/9/2021 12:45:00 AM 12.63 54.734 0.113 7.43 2.27 9.97
4/9/2021 1:00:00 AM 12.62 54.716 0.113 7.43 2.11 9.97
4/9/2021 1:15:00 AM 12.61 54.698 0.114 7.43 2.32 9.95
4/9/2021 1:30:00 AM 12.61 54.698 0.114 7.42 2.23 9.96
4/9/2021 1:45:00 AM 12.6 54.68 0.114 7.42 2.21 9.97
4/9/2021 2:00:00 AM 12.6 54.68 0.114 7.42 2.1 9.96
4/9/2021 2:15:00 AM 12.58 54.644 0.114 7.42 2.2 9.96
4/9/2021 2:30:00 AM 12.57 54.626 0.114 7.42 2.35 9.95
4/9/2021 2:45:00 AM 12.54 54.572 0.114 7.42 2.1 9.96
4/9/2021 3:00:00 AM 12.52 54.536 0.114 7.42 2.27 9.95
4/9/2021 3:15:00 AM 12.5 54.5 0.114 7.42 2.2 9.95
4/9/2021 3:30:00 AM 12.48 54.464 0.115 7.42 2.48 9.96
4/9/2021 3:45:00 AM 12.47 54.446 0.115 7.42 2.13 9.95
4/9/2021 4:00:00 AM 12.44 54.392 0.115 7.41 2.11 9.96
4/9/2021 4:15:00 AM 12.41 54.338 0.115 7.42 2.24 9.96
4/9/2021 4:30:00 AM 12.39 54.302 0.115 7.42 2.35 9.95
4/9/2021 4:45:00 AM 12.36 54.248 0.115 7.41 3.45 9.96
4/9/2021 5:00:00 AM 12.34 54.212 0.115 7.41 2.19 9.97
4/9/2021 5:15:00 AM 12.31 54.158 0.115 7.41 2.29 9.97
4/9/2021 5:30:00 AM 12.29 54.122 0.115 7.41 2.27 9.98
4/9/2021 5:45:00 AM 12.28 54.104 0.115 7.41 2.17 9.98
4/9/2021 6:00:00 AM 12.25 54.05 0.116 7.41 2.23 9.98
4/9/2021 6:15:00 AM 12.22 53.996 0.116 7.41 2.43 9.97
4/9/2021 6:30:00 AM 12.19 53.942 0.116 7.4 2.66 9.98
4/9/2021 6:45:00 AM 12.17 53.906 0.116 7.4 2.32 10
4/9/2021 7:00:00 AM 12.15 53.87 0.116 7.41 2.4 10.04
4/9/2021 7:15:00 AM 12.12 53.816 0.116 7.42 2.34 10.08
4/9/2021 7:30:00 AM 12.11 53.798 0.116 7.43 2.44 10.2
4/9/2021 7:45:00 AM 12.12 53.816 0.116 7.45 2.45 10.32
4/9/2021 8:00:00 AM 12.15 53.87 0.116 7.47 2.3 10.42
4/9/2021 8:15:00 AM 12.18 53.924 0.116 7.5 5.16 10.52
4/9/2021 8:30:00 AM 12.2 53.96 0.116 7.52 2.35 10.58
4/9/2021 8:45:00 AM 12.24 54.032 0.116 7.55 5.15 10.64
4/9/2021 9:00:00 AM 12.26 54.068 0.116 7.57 2.17 10.67
4/9/2021 9:15:00 AM 12.3 54.14 0.116 7.59 2.44 10.7
4/9/2021 9:30:00 AM 12.32 54.176 0.116 7.6 2.15 10.72
4/9/2021 9:45:00 AM 12.35 54.23 0.116 7.63 2.25 10.76
4/9/2021 10:00:00 AM 12.35 54.23 0.116 7.64 2.14 10.78
4/9/2021 10:15:00 AM 12.36 54.248 0.116 7.66 7.48 10.78
4/9/2021 10:30:00 AM 12.38 54.284 0.116 7.67 2.29 10.82
4/9/2021 10:45:00 AM 12.36 54.248 0.116 7.67 10.08 10.73
4/9/2021 11:00:00 AM 12.36 54.248 0.116 7.67 3.17 10.8
4/9/2021 11:15:00 AM 12.41 54.338 0.116 7.7 8.37 10.91
4/9/2021 11:30:00 AM 12.46 54.428 0.116 7.73 2.35 10.99
4/9/2021 11:45:00 AM 12.48 54.464 0.116 7.76 2.31 10.98
4/9/2021 12:00:00 PM 12.47 54.446 0.117 7.76 2.12 10.94
4/9/2021 12:15:00 PM 12.44 54.392 0.117 7.76 2.07 10.89
4/9/2021 12:30:00 PM 12.44 54.392 0.117 7.76 2.01 10.92
4/9/2021 12:45:00 PM 12.43 54.374 0.117 7.77 2.03 10.94
4/9/2021 1:00:00 PM 12.42 54.356 0.117 7.77 2.09 10.92
4/9/2021 1:15:00 PM 12.42 54.356 0.117 7.78 2.11 10.96
4/9/2021 1:30:00 PM 12.42 54.356 0.117 7.8 2.09 11.01
4/9/2021 1:45:00 PM 12.46 54.428 0.117 7.82 2.19 11.07
4/9/2021 2:00:00 PM 12.48 54.464 0.117 7.86 2.03 11.11
4/9/2021 2:15:00 PM 12.45 54.41 0.117 7.86 2.01 11.07
4/9/2021 2:30:00 PM 12.44 54.392 0.117 7.87 2.07 11.08
4/9/2021 2:45:00 PM 12.45 54.41 0.117 7.88 2.06 11.08
4/9/2021 3:00:00 PM 12.47 54.446 0.117 7.88 2.01 11.12
4/9/2021 3:15:00 PM 12.51 54.518 0.117 7.9 2.06 11.16
4/9/2021 3:30:00 PM 12.54 54.572 0.117 7.93 2.11 11.2
4/9/2021 3:45:00 PM 12.59 54.662 0.117 7.95 2.01 11.24
4/9/2021 4:00:00 PM 12.59 54.662 0.117 7.97 2.05 11.22
4/9/2021 4:15:00 PM 12.57 54.626 0.117 7.97 1.98 11.16
4/9/2021 4:30:00 PM 12.54 54.572 0.117 7.95 2.18 11.1
4/9/2021 4:45:00 PM 12.53 54.554 0.117 7.93 2.15 11.07
4/9/2021 5:00:00 PM 12.54 54.572 0.116 7.93 2.09 11.1
4/9/2021 5:15:00 PM 12.54 54.572 0.116 7.93 1.99 11.1
4/9/2021 5:30:00 PM 12.52 54.536 0.116 7.92 1.96 11.03
4/9/2021 5:45:00 PM 12.46 54.428 0.116 7.88 1.97 10.86
4/9/2021 6:00:00 PM 12.43 54.374 0.116 7.83 2.18 10.82
4/9/2021 6:15:00 PM 12.41 54.338 0.116 7.81 2.07 10.84
4/9/2021 6:30:00 PM 12.39 54.302 0.116 7.8 2.04 10.78
4/9/2021 6:45:00 PM 12.36 54.248 0.116 7.77 2.13 10.71
4/9/2021 7:00:00 PM 12.33 54.194 0.116 7.73 2.16 10.62
4/9/2021 7:15:00 PM 12.3 54.14 0.116 7.7 2.02 10.53
4/9/2021 7:30:00 PM 12.27 54.086 0.116 7.66 2.28 10.43
4/9/2021 7:45:00 PM 12.24 54.032 0.116 7.62 2.11 10.36
4/9/2021 8:00:00 PM 12.21 53.978 0.116 7.59 2.1 10.29
4/9/2021 8:15:00 PM 12.19 53.942 0.116 7.56 2.14 10.24
4/9/2021 8:30:00 PM 12.16 53.888 0.116 7.54 2.08 10.2
4/9/2021 8:45:00 PM 12.14 53.852 0.116 7.52 2.18 10.17
4/9/2021 9:00:00 PM 12.12 53.816 0.116 7.51 2.14 10.16
4/9/2021 9:15:00 PM 12.1 53.78 0.116 7.5 2.13 10.16
4/9/2021 9:30:00 PM 12.07 53.726 0.116 7.48 2.35 10.15
4/9/2021 9:45:00 PM 12.06 53.708 0.116 7.48 2.4 10.15
4/9/2021 10:00:00 PM 12.04 53.672 0.116 7.47 2.42 10.15
4/9/2021 10:15:00 PM 12.02 53.636 0.116 7.46 2.37 10.14
4/9/2021 10:30:00 PM 12 53.6 0.116 7.46 2.27 10.14
4/9/2021 10:45:00 PM 11.98 53.564 0.116 7.45 2.17 10.14
4/9/2021 11:00:00 PM 11.97 53.546 0.116 7.45 2.08 10.14
4/9/2021 11:15:00 PM 11.95 53.51 0.116 7.44 2.36 10.14
4/9/2021 11:30:00 PM 11.93 53.474 0.116 7.44 2.02 10.15
4/9/2021 11:45:00 PM 11.92 53.456 0.116 7.44 2.25 10.15
4/10/2021 12:00:00 AM 11.91 53.438 0.116 7.43 2.31 10.16
4/10/2021 12:15:00 AM 11.9 53.42 0.116 7.43 2.24 10.14
4/10/2021 12:30:00 AM 11.89 53.402 0.116 7.43 2.19 10.15
4/10/2021 12:45:00 AM 11.89 53.402 0.116 7.42 2.17 10.14
4/10/2021 1:00:00 AM 11.88 53.384 0.116 7.42 2.14 10.14
4/10/2021 1:15:00 AM 11.88 53.384 0.116 7.42 2.19 10.13
4/10/2021 1:30:00 AM 11.87 53.366 0.116 7.42 2.06 10.14
4/10/2021 1:45:00 AM 11.86 53.348 0.116 7.41 2.26 10.15
4/10/2021 2:00:00 AM 11.86 53.348 0.116 7.41 2.23 10.15
4/10/2021 2:15:00 AM 11.85 53.33 0.116 7.41 2.2 10.12
4/10/2021 2:30:00 AM 11.86 53.348 0.116 7.41 2.58 10.14
4/10/2021 2:45:00 AM 11.85 53.33 0.116 7.41 2.06 10.14
4/10/2021 3:00:00 AM 11.85 53.33 0.116 7.41 2.22 10.13
4/10/2021 3:15:00 AM 11.84 53.312 0.116 7.42 2.18 10.14
4/10/2021 3:30:00 AM 11.85 53.33 0.117 7.41 2.26 10.14
4/10/2021 3:45:00 AM 11.84 53.312 0.117 7.41 2.53 10.14
4/10/2021 4:00:00 AM 11.83 53.294 0.117 7.41 2.2 10.12
4/10/2021 4:15:00 AM 11.84 53.312 0.117 7.41 2.25 10.13
4/10/2021 4:30:00 AM 11.83 53.294 0.117 7.41 2.26 10.12
4/10/2021 4:45:00 AM 11.82 53.276 0.117 7.41 2.29 10.12
4/10/2021 5:00:00 AM 11.82 53.276 0.117 7.41 2.37 10.12
4/10/2021 5:15:00 AM 11.8 53.24 0.117 7.41 2.29 10.11
4/10/2021 5:30:00 AM 11.79 53.222 0.118 7.41 2.33 10.12
4/10/2021 5:45:00 AM 11.78 53.204 0.118 7.41 2.32 10.11
4/10/2021 6:00:00 AM 11.77 53.186 0.118 7.41 2.26 10.12
4/10/2021 6:15:00 AM 11.76 53.168 0.118 7.41 2.33 10.1
4/10/2021 6:30:00 AM 11.75 53.15 0.118 7.41 2.32 10.1
4/10/2021 6:45:00 AM 11.73 53.114 0.118 7.41 2.31 10.13
4/10/2021 7:00:00 AM 11.72 53.096 0.118 7.41 2.24 10.15
4/10/2021 7:15:00 AM 11.72 53.096 0.119 7.42 2.24 10.2
4/10/2021 7:30:00 AM 11.71 53.078 0.119 7.43 2.51 10.26
4/10/2021 7:45:00 AM 11.72 53.096 0.119 7.45 2.3 10.35
4/10/2021 8:00:00 AM 11.73 53.114 0.119 7.46 2.13 10.43
4/10/2021 8:15:00 AM 11.73 53.114 0.119 7.48 2.18 10.47
4/10/2021 8:30:00 AM 11.74 53.132 0.119 7.5 2.31 10.54
4/10/2021 8:45:00 AM 11.77 53.186 0.119 7.51 2.21 10.66
4/10/2021 9:00:00 AM 11.81 53.258 0.119 7.55 2.43 10.78
4/10/2021 9:15:00 AM 11.83 53.294 0.118 7.57 2.05 10.81
4/10/2021 9:30:00 AM 11.86 53.348 0.118 7.59 2.05 10.87
4/10/2021 9:45:00 AM 11.89 53.402 0.118 7.62 2.05 10.95
4/10/2021 10:00:00 AM 11.97 53.546 0.118 7.66 2.21 11.04
4/10/2021 10:15:00 AM 12.07 53.726 0.118 7.69 2.09 11.11
4/10/2021 10:30:00 AM 12.27 54.086 0.118 7.73 1.96 11.19
4/10/2021 10:45:00 AM 12.45 54.41 0.118 7.78 1.97 11.22
4/10/2021 11:00:00 AM 12.6 54.68 0.118 7.82 2.02 11.24
4/10/2021 11:15:00 AM 12.84 55.112 0.118 7.86 2.08 11.26
4/10/2021 11:30:00 AM 13.03 55.454 0.118 7.89 2.32 11.26
4/10/2021 11:45:00 AM 13.26 55.868 0.118 7.93 2.14 11.27
4/10/2021 12:00:00 PM 13.5 56.3 0.118 7.97 2.19 11.25
4/10/2021 12:15:00 PM 13.76 56.768 0.118 8.01 2.2 11.24
4/10/2021 12:30:00 PM 13.95 57.11 0.118 8.04 2.02 11.23
4/10/2021 12:45:00 PM 14.2 57.56 0.118 8.08 2.07 11.2
4/10/2021 1:00:00 PM 14.29 57.722 0.118 8.11 2.15 11.17
4/10/2021 1:15:00 PM 14.46 58.028 0.117 8.15 2.13 11.17
4/10/2021 1:30:00 PM 14.6 58.28 0.117 8.18 2.65 11.14
4/10/2021 1:45:00 PM 14.67 58.406 0.117 8.2 2.45 11.11
4/10/2021 2:00:00 PM 14.78 58.604 0.117 8.22 2.56 11.1
4/10/2021 2:15:00 PM 14.82 58.676 0.117 8.25 2.37 11.06
4/10/2021 2:30:00 PM 14.95 58.91 0.117 8.26 2.29 11.06
4/10/2021 2:45:00 PM 14.94 58.892 0.117 8.28 2.2 11.03
4/10/2021 3:00:00 PM 15.02 59.036 0.117 8.29 2.38 11.01
4/10/2021 3:15:00 PM 15.08 59.144 0.117 8.3 2.17 10.98
4/10/2021 3:30:00 PM 15.12 59.216 0.117 8.32 2.15 10.98
4/10/2021 3:45:00 PM 15.13 59.234 0.117 8.32 2.24 10.95
4/10/2021 4:00:00 PM 15.16 59.288 0.118 8.33 2.34 10.91
4/10/2021 4:15:00 PM 15.15 59.27 0.118 8.32 2.07 10.88
4/10/2021 4:30:00 PM 15.12 59.216 0.118 8.31 2.26 10.85
4/10/2021 4:45:00 PM 15.09 59.162 0.118 8.31 2.39 10.83
4/10/2021 5:00:00 PM 15.02 59.036 0.118 8.3 2.34 10.76
4/10/2021 5:15:00 PM 14.98 58.964 0.118 8.28 1.97 10.73
4/10/2021 5:30:00 PM 14.9 58.82 0.118 8.25 2.23 10.68
4/10/2021 5:45:00 PM 14.85 58.73 0.118 8.22 2.18 10.64
4/10/2021 6:00:00 PM 14.76 58.568 0.118 8.18 2.24 10.58
4/10/2021 6:15:00 PM 14.69 58.442 0.118 8.13 2.05 10.49
4/10/2021 6:30:00 PM 14.61 58.298 0.118 8.08 2.14 10.41
4/10/2021 6:45:00 PM 14.55 58.19 0.118 8.02 2.22 10.32
4/10/2021 7:00:00 PM 14.47 58.046 0.118 7.96 1.98 10.22
4/10/2021 7:15:00 PM 14.39 57.902 0.118 7.9 2.16 10.11
4/10/2021 7:30:00 PM 14.32 57.776 0.118 7.84 2.34 9.99
4/10/2021 7:45:00 PM 14.24 57.632 0.118 7.78 2.35 9.88
4/10/2021 8:00:00 PM 14.16 57.488 0.118 7.72 2.25 9.8
4/10/2021 8:15:00 PM 14.1 57.38 0.118 7.68 2.13 9.74
4/10/2021 8:30:00 PM 14.01 57.218 0.118 7.64 2.44 9.7
4/10/2021 8:45:00 PM 13.95 57.11 0.118 7.6 2.38 9.66
4/10/2021 9:00:00 PM 13.88 56.984 0.118 7.58 2.25 9.65
4/10/2021 9:15:00 PM 13.83 56.894 0.118 7.56 2.14 9.63
4/10/2021 9:30:00 PM 13.77 56.786 0.118 7.54 2.2 9.63
4/10/2021 9:45:00 PM 13.73 56.714 0.118 7.52 2.24 9.62
4/10/2021 10:00:00 PM 13.68 56.624 0.118 7.51 2.24 9.63
4/10/2021 10:15:00 PM 13.64 56.552 0.118 7.49 2.12 9.62
4/10/2021 10:30:00 PM 13.61 56.498 0.118 7.49 2.28 9.61
4/10/2021 10:45:00 PM 13.58 56.444 0.118 7.48 2.26 9.61
4/10/2021 11:00:00 PM 13.55 56.39 0.118 7.47 2.12 9.62
4/10/2021 11:15:00 PM 13.53 56.354 0.118 7.47 2.15 9.61
4/10/2021 11:30:00 PM 13.51 56.318 0.118 7.46 2.35 9.62
4/10/2021 11:45:00 PM 13.5 56.3 0.118 7.45 2.41 9.61
4/11/2021 12:00:00 AM 13.47 56.246 0.118 7.45 2.23 9.6
4/11/2021 12:15:00 AM 13.47 56.246 0.118 7.44 2.32 9.61
4/11/2021 12:30:00 AM 13.47 56.246 0.118 7.44 2.19 9.61
4/11/2021 12:45:00 AM 13.46 56.228 0.118 7.43 2.31 9.6
4/11/2021 1:00:00 AM 13.45 56.21 0.118 7.43 2.13 9.59
4/11/2021 1:15:00 AM 13.44 56.192 0.118 7.43 2.17 9.59
4/11/2021 1:30:00 AM 13.44 56.192 0.118 7.42 2.26 9.59
4/11/2021 1:45:00 AM 13.45 56.21 0.118 7.42 2.36 9.6
4/11/2021 2:00:00 AM 13.43 56.174 0.118 7.42 2.31 9.59
4/11/2021 2:15:00 AM 13.43 56.174 0.118 7.42 2.25 9.59
4/11/2021 2:30:00 AM 13.42 56.156 0.118 7.41 2.29 9.59
4/11/2021 2:45:00 AM 13.4 56.12 0.118 7.41 2.31 9.59
4/11/2021 3:00:00 AM 13.41 56.138 0.118 7.41 2.2 9.58
4/11/2021 3:15:00 AM 13.39 56.102 0.118 7.41 2.24 9.56
4/11/2021 3:30:00 AM 13.38 56.084 0.118 7.41 2.5 9.57
4/11/2021 3:45:00 AM 13.37 56.066 0.118 7.4 2.54 9.56
4/11/2021 4:00:00 AM 13.38 56.084 0.118 7.4 2.21 9.56
4/11/2021 4:15:00 AM 13.37 56.066 0.118 7.4 2.38 9.55
4/11/2021 4:30:00 AM 13.36 56.048 0.118 7.4 2.28 9.55
4/11/2021 4:45:00 AM 13.35 56.03 0.118 7.4 2.26 9.54
4/11/2021 5:00:00 AM 13.35 56.03 0.118 7.4 2.3 9.55
4/11/2021 5:15:00 AM 13.34 56.012 0.118 7.4 2.43 9.55
4/11/2021 5:30:00 AM 13.33 55.994 0.119 7.39 2.29 9.53
4/11/2021 5:45:00 AM 13.33 55.994 0.119 7.39 2.23 9.54
4/11/2021 6:00:00 AM 13.32 55.976 0.119 7.39 2.32 9.54
4/11/2021 6:15:00 AM 13.31 55.958 0.119 7.39 2.5 9.53
4/11/2021 6:30:00 AM 13.3 55.94 0.119 7.39 2.6 9.53
4/11/2021 6:45:00 AM 13.3 55.94 0.119 7.39 2.58 9.52
4/11/2021 7:00:00 AM 13.29 55.922 0.119 7.39 2.45 9.52
4/11/2021 7:15:00 AM 13.29 55.922 0.119 7.39 2.33 9.56
4/11/2021 7:30:00 AM 13.29 55.922 0.12 7.39 2.39 9.57
4/11/2021 7:45:00 AM 13.3 55.94 0.12 7.39 2.3 9.61
4/11/2021 8:00:00 AM 13.31 55.958 0.12 7.41 2.36 9.65
4/11/2021 8:15:00 AM 13.31 55.958 0.119 7.41 2.2 9.69
4/11/2021 8:30:00 AM 13.33 55.994 0.119 7.42 2.21 9.73
4/11/2021 8:45:00 AM 13.34 56.012 0.119 7.43 2.32 9.76
4/11/2021 9:00:00 AM 13.36 56.048 0.119 7.44 2.32 9.81
4/11/2021 9:15:00 AM 13.37 56.066 0.119 7.45 2.32 9.83
4/11/2021 9:30:00 AM 13.38 56.084 0.119 7.46 2.78 9.81
4/11/2021 9:45:00 AM 13.39 56.102 0.119 7.47 2.72 9.83
4/11/2021 10:00:00 AM 13.41 56.138 0.118 7.48 3.17 9.87
4/11/2021 10:15:00 AM 13.42 56.156 0.118 7.49 5.07 9.92
4/11/2021 10:30:00 AM 13.45 56.21 0.118 7.51 7.28 10
4/11/2021 10:45:00 AM 13.46 56.228 0.118 7.53 10.05 10
4/11/2021 11:00:00 AM 13.49 56.282 0.117 7.54 21.93 10.03
4/11/2021 11:15:00 AM 13.51 56.318 0.117 7.56 20.17 10.12
4/11/2021 11:30:00 AM 13.56 56.408 0.117 7.58 13.12 10.19
4/11/2021 11:45:00 AM 13.57 56.426 0.117 7.6 13.84 10.23
4/11/2021 12:00:00 PM 13.61 56.498 0.116 7.62 15.42 10.25
4/11/2021 12:15:00 PM 13.63 56.534 0.116 7.63 19.55 10.24
4/11/2021 12:30:00 PM 13.62 56.516 0.116 7.63 20.67 10.23
4/11/2021 12:45:00 PM 13.6 56.48 0.116 7.64 13.26 10.25
4/11/2021 1:00:00 PM 13.65 56.57 0.116 7.66 10.54 10.32
4/11/2021 1:15:00 PM 13.66 56.588 0.116 7.67 10.5 10.34
4/11/2021 1:30:00 PM 13.68 56.624 0.116 7.7 8.76 10.38
4/11/2021 1:45:00 PM 13.68 56.624 0.117 7.71 8.31 10.41
4/11/2021 2:00:00 PM 13.7 56.66 0.117 7.72 7.38 10.41
4/11/2021 2:15:00 PM 13.71 56.678 0.117 7.73 6.33 10.44
4/11/2021 2:30:00 PM 13.71 56.678 0.117 7.74 5.98 10.42
4/11/2021 2:45:00 PM 13.71 56.678 0.118 7.74 6.12 10.41
4/11/2021 3:00:00 PM 13.67 56.606 0.119 7.72 6.42 10.32
4/11/2021 3:15:00 PM 13.65 56.57 0.119 7.72 5.68 10.31
4/11/2021 3:30:00 PM 13.64 56.552 0.12 7.71 5.78 10.31
4/11/2021 3:45:00 PM 13.62 56.516 0.121 7.71 5.66 10.33
4/11/2021 4:00:00 PM 13.61 56.498 0.121 7.7 5.22 10.32
4/11/2021 4:15:00 PM 13.58 56.444 0.121 7.69 5.18 10.27
4/11/2021 4:30:00 PM 13.55 56.39 0.121 7.67 5.37 10.23
4/11/2021 4:45:00 PM 13.52 56.336 0.121 7.65 5.28 10.19
4/11/2021 5:00:00 PM 13.5 56.3 0.121 7.63 5.94 10.2
4/11/2021 5:15:00 PM 13.46 56.228 0.121 7.61 6.19 10.18
4/11/2021 5:30:00 PM 13.43 56.174 0.12 7.59 6.55 10.16
4/11/2021 5:45:00 PM 13.4 56.12 0.12 7.58 7.18 10.14
4/11/2021 6:00:00 PM 13.37 56.066 0.119 7.56 7.09 10.13
4/11/2021 6:15:00 PM 13.34 56.012 0.119 7.54 6.73 10.11
4/11/2021 6:30:00 PM 13.34 56.012 0.118 7.53 7.57 10.11
4/11/2021 6:45:00 PM 13.33 55.994 0.118 7.52 7.22 10.11
4/11/2021 7:00:00 PM 13.32 55.976 0.117 7.52 6.94 10.09
4/11/2021 7:15:00 PM 13.31 55.958 0.117 7.51 6.69 10.08
4/11/2021 7:30:00 PM 13.29 55.922 0.117 7.51 7.15 10.08
4/11/2021 7:45:00 PM 13.26 55.868 0.118 7.5 6.98 10.06
4/11/2021 8:00:00 PM 13.24 55.832 0.119 7.5 7.14 10.05
4/11/2021 8:15:00 PM 13.22 55.796 0.119 7.5 7.57 10.06
4/11/2021 8:30:00 PM 13.2 55.76 0.12 7.49 7.48 10.04
4/11/2021 8:45:00 PM 13.16 55.688 0.12 7.49 7.42 10.03
4/11/2021 9:00:00 PM 13.14 55.652 0.12 7.48 7.85 10.02
4/11/2021 9:15:00 PM 13.09 55.562 0.12 7.48 9.45 10.01
4/11/2021 9:30:00 PM 13.04 55.472 0.119 7.47 9 10.01
4/11/2021 9:45:00 PM 12.98 55.364 0.119 7.46 8.61 10.02
4/11/2021 10:00:00 PM 12.91 55.238 0.119 7.46 9.1 10.02
4/11/2021 10:15:00 PM 12.84 55.112 0.119 7.45 9.66 10.02
4/11/2021 10:30:00 PM 12.77 54.986 0.119 7.44 10.1 10.04
4/11/2021 10:45:00 PM 12.72 54.896 0.119 7.43 10.64 10.04
4/11/2021 11:00:00 PM 12.67 54.806 0.119 7.43 11.44 10.06
4/11/2021 11:15:00 PM 12.63 54.734 0.119 7.43 11.28 10.06
4/11/2021 11:30:00 PM 12.6 54.68 0.118 7.41 11.9 10.06
4/11/2021 11:45:00 PM 12.58 54.644 0.118 7.41 12.25 10.05
4/12/2021 12:00:00 AM 12.56 54.608 0.117 7.4 12.76 10.05
4/12/2021 12:15:00 AM 12.54 54.572 0.116 7.39 34.38 10.06
4/12/2021 12:30:00 AM 12.53 54.554 0.115 7.39 13.86 10.06
4/12/2021 12:45:00 AM 12.51 54.518 0.115 7.38 13.94 10.05
4/12/2021 1:00:00 AM 12.5 54.5 0.114 7.38 10.6 10.05
4/12/2021 1:15:00 AM 12.49 54.482 0.113 7.37 15.39 10.06
4/12/2021 1:30:00 AM 12.47 54.446 0.112 7.37 15.78 10.07
4/12/2021 1:45:00 AM 12.45 54.41 0.111 7.38 15.79 10.07
4/12/2021 2:00:00 AM 12.44 54.392 0.111 7.37 17.98 10.07
4/12/2021 2:15:00 AM 12.41 54.338 0.11 7.36 17.98 10.07
4/12/2021 2:30:00 AM 12.4 54.32 0.109 7.35 18.73 10.08
4/12/2021 2:45:00 AM 12.37 54.266 0.109 7.35 18.55 10.08
4/12/2021 3:00:00 AM 12.36 54.248 0.108 7.35 18.1 10.08
4/12/2021 3:15:00 AM 12.33 54.194 0.108 7.35 19.11 10.09
4/12/2021 3:30:00 AM 12.3 54.14 0.108 7.35 18.73 10.09
4/12/2021 3:45:00 AM 12.26 54.068 0.107 7.34 18.92 10.1
4/12/2021 4:00:00 AM 12.22 53.996 0.107 7.33 19.64 10.12
4/12/2021 4:15:00 AM 12.18 53.924 0.107 7.33 17.69 10.13
4/12/2021 4:30:00 AM 12.13 53.834 0.107 7.33 16.52 10.14
4/12/2021 4:45:00 AM 12.1 53.78 0.106 7.34 19.26 10.15
4/12/2021 5:00:00 AM 12.06 53.708 0.106 7.34 19.26 10.16
4/12/2021 5:15:00 AM 12.02 53.636 0.106 7.33 19.32 10.18
4/12/2021 5:30:00 AM 11.98 53.564 0.105 7.33 19.01 10.17
4/12/2021 5:45:00 AM 11.94 53.492 0.105 7.33 19.69 10.18
4/12/2021 6:00:00 AM 11.91 53.438 0.105 7.33 19.82 10.19
4/12/2021 6:15:00 AM 11.88 53.384 0.105 7.32 19.54 10.2
4/12/2021 6:30:00 AM 11.86 53.348 0.105 7.33 19.21 10.2
4/12/2021 6:45:00 AM 11.83 53.294 0.105 7.33 21.54 10.21
4/12/2021 7:00:00 AM 11.8 53.24 0.105 7.32 19.14 10.22
4/12/2021 7:15:00 AM 11.77 53.186 0.104 7.32 18.59 10.23
4/12/2021 7:30:00 AM 11.75 53.15 0.104 7.32 18.19 10.24
4/12/2021 7:45:00 AM 11.72 53.096 0.104 7.31 18.05 10.26
4/12/2021 8:00:00 AM 11.69 53.042 0.104 7.31 18.14 10.27
4/12/2021 8:15:00 AM 11.66 52.988 0.103 7.32 17.42 10.28
4/12/2021 8:30:00 AM 11.63 52.934 0.103 7.31 18.14 10.3
4/12/2021 8:45:00 AM 11.59 52.862 0.103 7.32 16.98 10.31
4/12/2021 9:00:00 AM 11.56 52.808 0.103 7.32 19.5 10.33
4/12/2021 9:15:00 AM 11.53 52.754 0.102 7.32 16.44 10.36
4/12/2021 9:30:00 AM 11.51 52.718 0.102 7.32 15.75 10.39
4/12/2021 9:45:00 AM 11.48 52.664 0.102 7.33 15.32 10.41
4/12/2021 10:00:00 AM 11.44 52.592 0.102 7.33 12.38 10.43
4/12/2021 10:15:00 AM 11.41 52.538 0.101 7.33 14.98 10.45
4/12/2021 10:30:00 AM 11.38 52.484 0.101 7.35 14.66 10.47
4/12/2021 10:45:00 AM 11.36 52.448 0.101 7.34 14.54 10.51
4/12/2021 11:00:00 AM 11.34 52.412 0.101 7.35 14.1 10.55
4/12/2021 11:15:00 AM 11.33 52.394 0.101 7.36 13.18 10.59
4/12/2021 11:30:00 AM 11.32 52.376 0.101 7.37 12.65 10.61
4/12/2021 11:45:00 AM 11.3 52.34 0.101 7.38 12.59 10.63
4/12/2021 12:00:00 PM 11.29 52.322 0.101 7.39 12.45 10.64
4/12/2021 12:15:00 PM 11.28 52.304 0.101 7.4 11.94 10.67
4/12/2021 12:30:00 PM 11.28 52.304 0.101 7.39 11.97 10.68
4/12/2021 12:45:00 PM 11.27 52.286 0.101 7.41 11.32 10.68
4/12/2021 1:00:00 PM 11.26 52.268 0.101 7.42 10.96 10.72
4/12/2021 1:15:00 PM 11.25 52.25 0.101 7.43 10.68 10.73
4/12/2021 1:30:00 PM 11.24 52.232 0.101 7.43 11.12 10.72
4/12/2021 1:45:00 PM 11.2 52.16 0.101 7.42 10.47 10.7
4/12/2021 2:00:00 PM 11.18 52.124 0.101 7.44 10.48 10.69
4/12/2021 2:15:00 PM 11.16 52.088 0.101 7.42 9.99 10.7
4/12/2021 2:30:00 PM 11.15 52.07 0.101 7.44 9.76 10.72
4/12/2021 2:45:00 PM 11.13 52.034 0.101 7.43 9.88 10.72
4/12/2021 3:00:00 PM 11.11 51.998 0.101 7.44 10.21 10.72
4/12/2021 3:15:00 PM 11.12 52.016 0.101 7.43 9.39 10.76
4/12/2021 3:30:00 PM 11.17 52.106 0.101 7.46 9.5 10.81
4/12/2021 3:45:00 PM 11.15 52.07 0.101 7.46 9.37 10.81
4/12/2021 4:00:00 PM 11.15 52.07 0.101 7.46 9.29 10.81
4/12/2021 4:15:00 PM 11.12 52.016 0.101 7.46 9.1 10.8
4/12/2021 4:30:00 PM 11.1 51.98 0.101 7.47 9.07 10.78
4/12/2021 4:45:00 PM 11.09 51.962 0.101 7.47 9.04 10.76
4/12/2021 5:00:00 PM 11.07 51.926 0.101 7.46 8.97 10.75
4/12/2021 5:15:00 PM 11.04 51.872 0.101 7.45 8.76 10.74
4/12/2021 5:30:00 PM 11.01 51.818 0.101 7.45 8.8 10.72
4/12/2021 5:45:00 PM 10.98 51.764 0.101 7.43 8.88 10.69
4/12/2021 6:00:00 PM 10.95 51.71 0.101 7.42 8.4 10.68
4/12/2021 6:15:00 PM 10.92 51.656 0.101 7.42 8.45 10.68
4/12/2021 6:30:00 PM 10.9 51.62 0.101 7.42 8.39 10.67
4/12/2021 6:45:00 PM 10.88 51.584 0.101 7.42 8.3 10.67
4/12/2021 7:00:00 PM 10.85 51.53 0.101 7.41 8.4 10.66
4/12/2021 7:15:00 PM 10.83 51.494 0.101 7.41 8.26 10.66
4/12/2021 7:30:00 PM 10.81 51.458 0.101 7.41 8.22 10.66
4/12/2021 7:45:00 PM 10.8 51.44 0.101 7.4 8.04 10.65
4/12/2021 8:00:00 PM 10.78 51.404 0.101 7.4 8.05 10.66
4/12/2021 8:15:00 PM 10.76 51.368 0.101 7.39 7.97 10.65
4/12/2021 8:30:00 PM 10.73 51.314 0.101 7.39 8.07 10.65
4/12/2021 8:45:00 PM 10.71 51.278 0.101 7.38 8.03 10.66
4/12/2021 9:00:00 PM 10.68 51.224 0.101 7.39 8.22 10.66
4/12/2021 9:15:00 PM 10.66 51.188 0.101 7.39 7.81 10.66
4/12/2021 9:30:00 PM 10.64 51.152 0.101 7.37 7.65 10.67
4/12/2021 9:45:00 PM 10.62 51.116 0.101 7.37 7.82 10.67
4/12/2021 10:00:00 PM 10.6 51.08 0.101 7.37 7.57 10.66
4/12/2021 10:15:00 PM 10.59 51.062 0.101 7.37 7.54 10.66
4/12/2021 10:30:00 PM 10.57 51.026 0.101 7.37 7.59 10.67
4/12/2021 10:45:00 PM 10.55 50.99 0.101 7.37 7.5 10.67
4/12/2021 11:00:00 PM 10.53 50.954 0.101 7.37 7.57 10.65
4/12/2021 11:15:00 PM 10.52 50.936 0.101 7.37 7.2 10.66
4/12/2021 11:30:00 PM 10.49 50.882 0.101 7.38 7.22 10.66
4/12/2021 11:45:00 PM 10.48 50.864 0.102 7.37 7.4 10.67
4/13/2021 12:00:00 AM 10.45 50.81 0.102 7.36 7.13 10.67
4/13/2021 12:15:00 AM 10.44 50.792 0.102 7.36 7.35 10.67
4/13/2021 12:30:00 AM 10.42 50.756 0.102 7.35 7.11 10.68
4/13/2021 12:45:00 AM 10.4 50.72 0.102 7.36 7.19 10.68
4/13/2021 1:00:00 AM 10.38 50.684 0.102 7.36 7.43 10.68
4/13/2021 1:15:00 AM 10.36 50.648 0.102 7.36 6.89 10.68
4/13/2021 1:30:00 AM 10.34 50.612 0.102 7.35 7.17 10.69
4/13/2021 1:45:00 AM 10.33 50.594 0.102 7.35 6.67 10.68
4/13/2021 2:00:00 AM 10.31 50.558 0.102 7.35 6.99 10.69
4/13/2021 2:15:00 AM 10.29 50.522 0.103 7.35 6.85 10.69
4/13/2021 2:30:00 AM 10.27 50.486 0.103 7.35 6.88 10.7
4/13/2021 2:45:00 AM 10.25 50.45 0.103 7.35 6.68 10.7
4/13/2021 3:00:00 AM 10.23 50.414 0.103 7.34 6.72 10.7
4/13/2021 3:15:00 AM 10.21 50.378 0.103 7.34 6.47 10.72
4/13/2021 3:30:00 AM 10.19 50.342 0.103 7.34 6.72 10.72
4/13/2021 3:45:00 AM 10.16 50.288 0.103 7.34 6.57 10.72
4/13/2021 4:00:00 AM 10.13 50.234 0.103 7.33 6.51 10.72
4/13/2021 4:15:00 AM 10.11 50.198 0.103 7.34 6.31 10.73
4/13/2021 4:30:00 AM 10.09 50.162 0.104 7.35 6.25 10.74
4/13/2021 4:45:00 AM 10.07 50.126 0.104 7.35 6.27 10.75
4/13/2021 5:00:00 AM 10.05 50.09 0.104 7.34 6.37 10.75
4/13/2021 5:15:00 AM 10.03 50.054 0.104 7.35 6.33 10.76
4/13/2021 5:30:00 AM 10.01 50.018 0.104 7.35 6.39 10.76
4/13/2021 5:45:00 AM 9.98 49.964 0.104 7.34 6.33 10.76
4/13/2021 6:00:00 AM 9.95 49.91 0.104 7.35 6.21 10.77
4/13/2021 6:15:00 AM 9.91 49.838 0.104 7.35 6.33 10.77
4/13/2021 6:30:00 AM 9.88 49.784 0.104 7.35 6.2 10.78
4/13/2021 6:45:00 AM 9.84 49.712 0.104 7.34 6.57 10.8
4/13/2021 7:00:00 AM 9.82 49.676 0.104 7.35 6.07 10.83
4/13/2021 7:15:00 AM 9.81 49.658 0.104 7.36 5.98 10.87
4/13/2021 7:30:00 AM 9.77 49.586 0.105 7.36 6.01 10.9
4/13/2021 7:45:00 AM 9.74 49.532 0.105 7.37 6.24 10.93
4/13/2021 8:00:00 AM 9.7 49.46 0.105 7.37 6.17 10.95
4/13/2021 8:15:00 AM 9.67 49.406 0.105 7.37 5.68 10.97
4/13/2021 8:30:00 AM 9.66 49.388 0.105 7.36 5.68 11
4/13/2021 8:45:00 AM 9.67 49.406 0.105 7.38 5.54 11.06
4/13/2021 9:00:00 AM 9.71 49.478 0.105 7.39 5.48 11.09
4/13/2021 9:15:00 AM 9.76 49.568 0.105 7.42 5.57 11.15
4/13/2021 9:30:00 AM 9.83 49.694 0.105 7.42 5.5 11.18
4/13/2021 9:45:00 AM 9.92 49.856 0.105 7.43 5.34 11.23
4/13/2021 10:00:00 AM 10.01 50.018 0.105 7.45 5.3 11.25
4/13/2021 10:15:00 AM 10.12 50.216 0.105 7.47 5.97 11.28
4/13/2021 10:30:00 AM 10.23 50.414 0.105 7.48 5.34 11.29
4/13/2021 10:45:00 AM 10.37 50.666 0.105 7.5 5.25 11.32
4/13/2021 11:00:00 AM 10.49 50.882 0.105 7.52 5.45 11.3
4/13/2021 11:15:00 AM 10.66 51.188 0.105 7.54 5.15 11.32
4/13/2021 11:30:00 AM 10.84 51.512 0.105 7.54 5.18 11.31
4/13/2021 11:45:00 AM 11.05 51.89 0.105 7.57 5.19 11.32
4/13/2021 12:00:00 PM 11.2 52.16 0.105 7.58 5.14 11.31
4/13/2021 12:15:00 PM 11.36 52.448 0.105 7.59 5.13 11.3
4/13/2021 12:30:00 PM 11.5 52.7 0.105 7.61 5.09 11.27
4/13/2021 12:45:00 PM 11.64 52.952 0.105 7.63 5.06 11.26
4/13/2021 1:00:00 PM 11.78 53.204 0.105 7.64 5.1 11.23
4/13/2021 1:15:00 PM 11.93 53.474 0.105 7.65 5.1 11.24
4/13/2021 1:30:00 PM 12.04 53.672 0.105 7.66 4.97 11.22
4/13/2021 1:45:00 PM 12.12 53.816 0.105 7.68 4.96 11.2
4/13/2021 2:00:00 PM 12.21 53.978 0.105 7.69 4.95 11.18
4/13/2021 2:15:00 PM 12.29 54.122 0.105 7.7 4.76 11.17
4/13/2021 2:30:00 PM 12.34 54.212 0.105 7.7 4.67 11.15
4/13/2021 2:45:00 PM 12.39 54.302 0.105 7.72 4.87 11.14
4/13/2021 3:00:00 PM 12.43 54.374 0.105 7.73 4.74 11.11
4/13/2021 3:15:00 PM 12.46 54.428 0.105 7.74 4.74 11.1
4/13/2021 3:30:00 PM 12.52 54.536 0.105 7.74 4.89 11.09
4/13/2021 3:45:00 PM 12.52 54.536 0.105 7.73 4.8 11.05
4/13/2021 4:00:00 PM 12.5 54.5 0.105 7.73 4.75 11.03
4/13/2021 4:15:00 PM 12.53 54.554 0.105 7.73 4.76 11
4/13/2021 4:30:00 PM 12.46 54.428 0.105 7.72 4.78 10.92
4/13/2021 4:45:00 PM 12.42 54.356 0.105 7.7 4.71 10.88
4/13/2021 5:00:00 PM 12.44 54.392 0.105 7.7 4.91 10.84
4/13/2021 5:15:00 PM 12.45 54.41 0.105 7.68 4.81 10.81
4/13/2021 5:30:00 PM 12.48 54.464 0.105 7.68 4.7 10.8
4/13/2021 5:45:00 PM 12.49 54.482 0.105 7.67 4.97 10.77
4/13/2021 6:00:00 PM 12.53 54.554 0.105 7.68 4.81 10.76
4/13/2021 6:15:00 PM 12.57 54.626 0.105 7.67 4.84 10.73
4/13/2021 6:30:00 PM 12.59 54.662 0.105 7.66 4.85 10.69
4/13/2021 6:45:00 PM 12.63 54.734 0.105 7.65 4.7 10.66
4/13/2021 7:00:00 PM 12.66 54.788 0.105 7.63 4.76 10.59
4/13/2021 7:15:00 PM 12.7 54.86 0.105 7.62 4.7 10.53
4/13/2021 7:30:00 PM 12.75 54.95 0.105 7.6 4.69 10.48
4/13/2021 7:45:00 PM 12.78 55.004 0.105 7.58 4.8 10.41
4/13/2021 8:00:00 PM 12.82 55.076 0.105 7.56 4.75 10.37
4/13/2021 8:15:00 PM 12.85 55.13 0.105 7.55 4.88 10.32
4/13/2021 8:30:00 PM 12.88 55.184 0.105 7.53 4.82 10.29
4/13/2021 8:45:00 PM 12.89 55.202 0.105 7.51 4.91 10.27
4/13/2021 9:00:00 PM 12.89 55.202 0.105 7.51 4.96 10.23
4/13/2021 9:15:00 PM 12.89 55.202 0.105 7.51 5.01 10.22
4/13/2021 9:30:00 PM 12.88 55.184 0.105 7.49 4.87 10.2
4/13/2021 9:45:00 PM 12.86 55.148 0.105 7.48 4.85 10.2
4/13/2021 10:00:00 PM 12.85 55.13 0.105 7.48 4.77 10.19
4/13/2021 10:15:00 PM 12.82 55.076 0.105 7.47 4.88 10.18
4/13/2021 10:30:00 PM 12.8 55.04 0.105 7.46 4.89 10.17
4/13/2021 10:45:00 PM 12.76 54.968 0.105 7.45 4.94 10.17
4/13/2021 11:00:00 PM 12.73 54.914 0.105 7.45 5 10.17
4/13/2021 11:15:00 PM 12.7 54.86 0.105 7.44 4.77 10.17
4/13/2021 11:30:00 PM 12.66 54.788 0.105 7.44 4.94 10.15
4/13/2021 11:45:00 PM 12.61 54.698 0.105 7.44 4.86 10.16
4/14/2021 12:00:00 AM 12.56 54.608 0.105 7.43 4.85 10.16
4/14/2021 12:15:00 AM 12.52 54.536 0.105 7.42 5.04 10.16
4/14/2021 12:30:00 AM 12.47 54.446 0.105 7.41 4.86 10.16
4/14/2021 12:45:00 AM 12.43 54.374 0.105 7.41 4.94 10.16
4/14/2021 1:00:00 AM 12.39 54.302 0.105 7.4 4.78 10.16
4/14/2021 1:15:00 AM 12.35 54.23 0.105 7.4 5.03 10.16
4/14/2021 1:30:00 AM 12.3 54.14 0.105 7.4 4.92 10.14
4/14/2021 1:45:00 AM 12.26 54.068 0.105 7.39 4.84 10.16
4/14/2021 2:00:00 AM 12.22 53.996 0.105 7.38 4.94 10.16
4/14/2021 2:15:00 AM 12.18 53.924 0.105 7.37 5.08 10.16
4/14/2021 2:30:00 AM 12.14 53.852 0.105 7.38 4.94 10.17
4/14/2021 2:45:00 AM 12.1 53.78 0.105 7.38 5.01 10.17
4/14/2021 3:00:00 AM 12.08 53.744 0.105 7.37 4.91 10.16
4/14/2021 3:15:00 AM 12.05 53.69 0.105 7.37 4.88 10.17
4/14/2021 3:30:00 AM 12.01 53.618 0.105 7.37 4.88 10.18
4/14/2021 3:45:00 AM 11.98 53.564 0.105 7.36 4.93 10.19
4/14/2021 4:00:00 AM 11.93 53.474 0.105 7.36 5 10.18
4/14/2021 4:15:00 AM 11.89 53.402 0.105 7.36 5.03 10.18
4/14/2021 4:30:00 AM 11.83 53.294 0.105 7.36 4.89 10.19
4/14/2021 4:45:00 AM 11.79 53.222 0.105 7.35 4.95 10.19
4/14/2021 5:00:00 AM 11.74 53.132 0.105 7.35 4.9 10.2
4/14/2021 5:15:00 AM 11.7 53.06 0.105 7.34 4.85 10.21
4/14/2021 5:30:00 AM 11.65 52.97 0.105 7.34 4.88 10.2
4/14/2021 5:45:00 AM 11.61 52.898 0.105 7.34 5.18 10.22
4/14/2021 6:00:00 AM 11.56 52.808 0.105 7.34 4.99 10.23
4/14/2021 6:15:00 AM 11.51 52.718 0.105 7.33 4.97 10.24
4/14/2021 6:30:00 AM 11.49 52.682 0.106 7.33 5.14 10.25
4/14/2021 6:45:00 AM 11.47 52.646 0.106 7.33 5.05 10.27
4/14/2021 7:00:00 AM 11.45 52.61 0.106 7.34 5.04 10.29
4/14/2021 7:15:00 AM 11.43 52.574 0.106 7.34 5.3 10.34
4/14/2021 7:30:00 AM 11.4 52.52 0.106 7.35 4.78 10.39
4/14/2021 7:45:00 AM 11.39 52.502 0.106 7.36 4.86 10.44
4/14/2021 8:00:00 AM 11.37 52.466 0.106 7.36 4.77 10.48
4/14/2021 8:15:00 AM 11.37 52.466 0.106 7.37 4.63 10.52
4/14/2021 8:30:00 AM 11.38 52.484 0.106 7.39 4.53 10.59
4/14/2021 8:45:00 AM 11.43 52.574 0.106 7.41 4.74 10.68
4/14/2021 9:00:00 AM 11.49 52.682 0.106 7.42 4.6 10.74
4/14/2021 9:15:00 AM 11.54 52.772 0.106 7.45 4.65 10.8
4/14/2021 9:30:00 AM 11.63 52.934 0.106 7.48 4.64 10.85
4/14/2021 9:45:00 AM 11.75 53.15 0.106 7.5 4.59 10.92
4/14/2021 10:00:00 AM 11.86 53.348 0.106 7.53 4.69 10.96
4/14/2021 10:15:00 AM 11.96 53.528 0.106 7.56 4.57 11
4/14/2021 10:30:00 AM 12.03 53.654 0.106 7.58 4.77 11.03
4/14/2021 10:45:00 AM 12.15 53.87 0.106 7.6 4.76 11.05
4/14/2021 11:00:00 AM 12.3 54.14 0.106 7.63 4.74 11.06
4/14/2021 11:15:00 AM 12.43 54.374 0.106 7.65 4.68 11.07
4/14/2021 11:30:00 AM 12.5 54.5 0.106 7.68 4.73 11.07
4/14/2021 11:45:00 AM 12.6 54.68 0.106 7.71 4.61 11.11
4/14/2021 12:00:00 PM 12.65 54.77 0.106 7.73 4.77 11.09
4/14/2021 12:15:00 PM 12.61 54.698 0.106 7.74 4.61 11.05
4/14/2021 12:30:00 PM 12.71 54.878 0.107 7.75 4.72 11.09
4/14/2021 12:45:00 PM 12.75 54.95 0.107 7.76 4.56 11.07
4/14/2021 1:00:00 PM 12.74 54.932 0.107 7.77 4.59 11.04
4/14/2021 1:15:00 PM 12.93 55.274 0.107 7.76 6.08 11.03
4/14/2021 1:30:00 PM 13.04 55.472 0.107 7.79 7.15 11
4/14/2021 1:45:00 PM 13.06 55.508 0.106 7.8 7.09 11.01
4/14/2021 2:00:00 PM 12.88 55.184 0.107 7.79 6.26 10.9
4/14/2021 2:15:00 PM 12.73 54.914 0.107 7.76 5.62 10.84
4/14/2021 2:30:00 PM 12.59 54.662 0.107 7.73 5.3 10.8
4/14/2021 2:45:00 PM 12.49 54.482 0.107 7.72 5.11 10.78
4/14/2021 3:00:00 PM 12.4 54.32 0.107 7.7 4.97 10.76
4/14/2021 3:15:00 PM 12.32 54.176 0.107 7.68 4.84 10.69
4/14/2021 3:30:00 PM 12.24 54.032 0.107 7.65 4.85 10.63
4/14/2021 3:45:00 PM 12.19 53.942 0.108 7.62 4.84 10.6
4/14/2021 4:00:00 PM 12.13 53.834 0.108 7.59 4.71 10.6
4/14/2021 4:15:00 PM 12.13 53.834 0.108 7.6 4.72 10.71
4/14/2021 4:30:00 PM 12.11 53.798 0.108 7.61 4.64 10.74
4/14/2021 4:45:00 PM 12.09 53.762 0.108 7.61 4.81 10.73
4/14/2021 5:00:00 PM 12.09 53.762 0.108 7.62 4.44 10.81
4/14/2021 5:15:00 PM 12.07 53.726 0.108 7.63 4.6 10.75
4/14/2021 5:30:00 PM 12.06 53.708 0.108 7.62 4.44 10.74
4/14/2021 5:45:00 PM 12.06 53.708 0.108 7.62 4.52 10.76
4/14/2021 6:00:00 PM 12.06 53.708 0.108 7.62 4.5 10.76
4/14/2021 6:15:00 PM 12.09 53.762 0.108 7.63 4.41 10.81
4/14/2021 6:30:00 PM 12.1 53.78 0.108 7.64 4.62 10.79
4/14/2021 6:45:00 PM 12.1 53.78 0.108 7.64 4.6 10.76
4/14/2021 7:00:00 PM 12.09 53.762 0.108 7.63 4.52 10.69
4/14/2021 7:15:00 PM 12.08 53.744 0.108 7.61 4.82 10.61
4/14/2021 7:30:00 PM 12.06 53.708 0.108 7.59 4.43 10.55
4/14/2021 7:45:00 PM 12.05 53.69 0.108 7.57 4.67 10.48
4/14/2021 8:00:00 PM 12.04 53.672 0.108 7.55 4.5 10.43
4/14/2021 8:15:00 PM 12.03 53.654 0.108 7.53 4.55 10.4
4/14/2021 8:30:00 PM 12.01 53.618 0.108 7.51 4.78 10.37
4/14/2021 8:45:00 PM 11.98 53.564 0.108 7.5 4.76 10.35
4/14/2021 9:00:00 PM 11.95 53.51 0.108 7.48 4.71 10.33
4/14/2021 9:15:00 PM 11.92 53.456 0.108 7.48 4.74 10.32
4/14/2021 9:30:00 PM 11.87 53.366 0.108 7.46 4.85 10.31
4/14/2021 9:45:00 PM 11.84 53.312 0.108 7.46 4.68 10.29
4/14/2021 10:00:00 PM 11.81 53.258 0.108 7.45 4.96 10.29
4/14/2021 10:15:00 PM 11.78 53.204 0.108 7.44 4.72 10.27
4/14/2021 10:30:00 PM 11.77 53.186 0.108 7.45 4.61 10.27
4/14/2021 10:45:00 PM 11.77 53.186 0.108 7.44 4.7 10.26
4/14/2021 11:00:00 PM 11.76 53.168 0.108 7.43 4.75 10.25
4/14/2021 11:15:00 PM 11.76 53.168 0.108 7.44 4.73 10.27
4/14/2021 11:30:00 PM 11.76 53.168 0.108 7.43 4.72 10.26
4/14/2021 11:45:00 PM 11.76 53.168 0.108 7.43 4.67 10.24
4/15/2021 12:00:00 AM 11.75 53.15 0.108 7.43 4.81 10.25
4/15/2021 12:15:00 AM 11.75 53.15 0.108 7.43 4.64 10.24
4/15/2021 12:30:00 AM 11.73 53.114 0.108 7.43 4.73 10.24
4/15/2021 12:45:00 AM 11.71 53.078 0.108 7.42 4.64 10.24
4/15/2021 1:00:00 AM 11.69 53.042 0.108 7.43 4.73 10.23
4/15/2021 1:15:00 AM 11.66 52.988 0.108 7.42 4.68 10.23
4/15/2021 1:30:00 AM 11.61 52.898 0.108 7.42 4.65 10.24
4/15/2021 1:45:00 AM 11.56 52.808 0.108 7.42 4.8 10.23
4/15/2021 2:00:00 AM 11.49 52.682 0.108 7.41 4.78 10.24
4/15/2021 2:15:00 AM 11.42 52.556 0.108 7.41 4.66 10.26
4/15/2021 2:30:00 AM 11.35 52.43 0.108 7.41 4.86 10.25
4/15/2021 2:45:00 AM 11.28 52.304 0.108 7.4 4.67 10.27
4/15/2021 3:00:00 AM 11.21 52.178 0.108 7.4 4.67 10.28
4/15/2021 3:15:00 AM 11.14 52.052 0.108 7.4 4.89 10.29
4/15/2021 3:30:00 AM 11.07 51.926 0.108 7.39 4.79 10.31
4/15/2021 3:45:00 AM 11.02 51.836 0.108 7.39 4.75 10.31
4/15/2021 4:00:00 AM 10.98 51.764 0.108 7.39 4.85 10.33
4/15/2021 4:15:00 AM 10.95 51.71 0.108 7.38 4.8 10.32
4/15/2021 4:30:00 AM 10.92 51.656 0.108 7.38 4.83 10.31
4/15/2021 4:45:00 AM 10.88 51.584 0.108 7.38 4.81 10.33
4/15/2021 5:00:00 AM 10.86 51.548 0.108 7.37 4.82 10.34
4/15/2021 5:15:00 AM 10.83 51.494 0.108 7.37 4.87 10.33
4/15/2021 5:30:00 AM 10.82 51.476 0.108 7.37 4.83 10.32
4/15/2021 5:45:00 AM 10.8 51.44 0.108 7.37 4.79 10.33
4/15/2021 6:00:00 AM 10.8 51.44 0.108 7.37 4.96 10.33
4/15/2021 6:15:00 AM 10.79 51.422 0.108 7.37 4.82 10.33
4/15/2021 6:30:00 AM 10.78 51.404 0.108 7.37 5.08 10.33
4/15/2021 6:45:00 AM 10.78 51.404 0.108 7.37 5.04 10.34
4/15/2021 7:00:00 AM 10.77 51.386 0.108 7.37 4.89 10.37
4/15/2021 7:15:00 AM 10.77 51.386 0.108 7.38 4.78 10.43
4/15/2021 7:30:00 AM 10.77 51.386 0.108 7.38 4.6 10.47
4/15/2021 7:45:00 AM 10.78 51.404 0.108 7.4 4.72 10.52
4/15/2021 8:00:00 AM 10.79 51.422 0.108 7.41 4.64 10.58
4/15/2021 8:15:00 AM 10.8 51.44 0.108 7.41 4.79 10.58
4/15/2021 8:30:00 AM 10.81 51.458 0.108 7.42 4.86 10.64
4/15/2021 8:45:00 AM 10.83 51.494 0.108 7.44 4.59 10.69
4/15/2021 9:00:00 AM 10.84 51.512 0.108 7.45 4.57 10.74
4/15/2021 9:15:00 AM 10.84 51.512 0.108 7.45 4.73 10.73
4/15/2021 9:30:00 AM 10.84 51.512 0.108 7.46 4.82 10.76
4/15/2021 9:45:00 AM 10.85 51.53 0.108 7.48 4.58 10.8
4/15/2021 10:00:00 AM 10.86 51.548 0.108 7.49 4.59 10.85
4/15/2021 10:15:00 AM 10.86 51.548 0.108 7.51 4.65 10.86
4/15/2021 10:30:00 AM 10.91 51.638 0.108 7.53 4.59 10.98
4/15/2021 10:45:00 AM 10.92 51.656 0.108 7.55 4.72 11.01
4/15/2021 11:00:00 AM 10.95 51.71 0.108 7.57 4.71 11.08
4/15/2021 11:15:00 AM 10.95 51.71 0.108 7.6 4.78 11.08
4/15/2021 11:30:00 AM 10.93 51.674 0.108 7.6 4.85 11.05
4/15/2021 11:45:00 AM 10.91 51.638 0.108 7.61 4.75 11.06
4/15/2021 12:00:00 PM 10.91 51.638 0.108 7.62 4.9 11.09
4/15/2021 12:15:00 PM 10.89 51.602 0.108 7.63 4.96 11.07
4/15/2021 12:30:00 PM 10.88 51.584 0.108 7.64 4.7 11.12
4/15/2021 12:45:00 PM 10.86 51.548 0.108 7.65 4.76 11.12
4/15/2021 1:00:00 PM 10.83 51.494 0.108 7.65 4.85 11.11
4/15/2021 1:15:00 PM 10.81 51.458 0.108 7.66 4.85 11.11
4/15/2021 1:30:00 PM 10.8 51.44 0.108 7.66 4.72 11.17
4/15/2021 1:45:00 PM 10.76 51.368 0.108 7.67 4.77 11.15
4/15/2021 2:00:00 PM 10.77 51.386 0.108 7.68 4.67 11.26
4/15/2021 2:15:00 PM 10.86 51.548 0.108 7.71 4.73 11.3
4/15/2021 2:30:00 PM 11.05 51.89 0.108 7.73 4.67 11.36
4/15/2021 2:45:00 PM 11.18 52.124 0.108 7.76 4.79 11.35
4/15/2021 3:00:00 PM 11.29 52.322 0.108 7.79 4.77 11.4
4/15/2021 3:15:00 PM 11.27 52.286 0.108 7.82 4.59 11.39
4/15/2021 3:30:00 PM 11.17 52.106 0.108 7.82 4.68 11.31
4/15/2021 3:45:00 PM 11.1 51.98 0.108 7.82 4.73 11.27
4/15/2021 4:00:00 PM 11.04 51.872 0.108 7.82 4.7 11.27
4/15/2021 4:15:00 PM 10.94 51.692 0.108 7.81 4.66 11.2
4/15/2021 4:30:00 PM 10.84 51.512 0.108 7.79 4.64 11.12
4/15/2021 4:45:00 PM 10.8 51.44 0.109 7.76 4.71 11.03
4/15/2021 5:00:00 PM 10.77 51.386 0.109 7.73 4.64 10.98
4/15/2021 5:15:00 PM 10.74 51.332 0.109 7.7 4.71 10.94
4/15/2021 5:30:00 PM 10.69 51.242 0.109 7.68 4.72 10.89
4/15/2021 5:45:00 PM 10.64 51.152 0.109 7.65 4.83 10.87
4/15/2021 6:00:00 PM 10.57 51.026 0.109 7.64 4.74 10.84
4/15/2021 6:15:00 PM 10.51 50.918 0.109 7.61 4.67 10.81
4/15/2021 6:30:00 PM 10.44 50.792 0.109 7.6 4.8 10.8
4/15/2021 6:45:00 PM 10.39 50.702 0.109 7.59 4.75 10.82
4/15/2021 7:00:00 PM 10.34 50.612 0.109 7.57 4.87 10.82
4/15/2021 7:15:00 PM 10.29 50.522 0.11 7.56 4.82 10.81
4/15/2021 7:30:00 PM 10.23 50.414 0.109 7.55 4.96 10.79
4/15/2021 7:45:00 PM 10.2 50.36 0.11 7.54 5.11 10.77
4/15/2021 8:00:00 PM 10.15 50.27 0.109 7.53 4.95 10.76
4/15/2021 8:15:00 PM 10.13 50.234 0.109 7.52 4.88 10.75
4/15/2021 8:30:00 PM 10.1 50.18 0.109 7.51 5.04 10.73
4/15/2021 8:45:00 PM 10.07 50.126 0.109 7.5 4.98 10.74
4/15/2021 9:00:00 PM 10.03 50.054 0.109 7.49 4.9 10.74
4/15/2021 9:15:00 PM 9.98 49.964 0.109 7.49 4.88 10.75
4/15/2021 9:30:00 PM 9.93 49.874 0.109 7.49 4.85 10.76
4/15/2021 9:45:00 PM 9.89 49.802 0.109 7.48 5.11 10.75
4/15/2021 10:00:00 PM 9.84 49.712 0.109 7.48 5.04 10.75
4/15/2021 10:15:00 PM 9.79 49.622 0.109 7.47 5.1 10.74
4/15/2021 10:30:00 PM 9.73 49.514 0.109 7.47 5.08 10.76
4/15/2021 10:45:00 PM 9.67 49.406 0.109 7.47 4.93 10.78
4/15/2021 11:00:00 PM 9.6 49.28 0.109 7.46 4.97 10.78
4/15/2021 11:15:00 PM 9.55 49.19 0.109 7.46 4.99 10.79
4/15/2021 11:30:00 PM 9.47 49.046 0.109 7.45 5.1 10.8
4/15/2021 11:45:00 PM 9.42 48.956 0.109 7.45 5.29 10.8
4/16/2021 12:00:00 AM 9.32 48.776 0.109 7.44 4.81 10.83
4/16/2021 12:15:00 AM 9.27 48.686 0.109 7.4 4.91 10.82
4/16/2021 12:30:00 AM 9.19 48.542 0.109 7.39 4.94 10.83
4/16/2021 12:45:00 AM 9.12 48.416 0.109 7.38 4.94 10.85
4/16/2021 1:00:00 AM 9.05 48.29 0.109 7.37 4.92 10.85
4/16/2021 1:15:00 AM 8.98 48.164 0.109 7.36 5.02 10.87
4/16/2021 1:30:00 AM 8.93 48.074 0.109 7.36 4.85 10.89
4/16/2021 1:45:00 AM 8.88 47.984 0.109 7.35 4.83 10.89
4/16/2021 2:00:00 AM 8.84 47.912 0.109 7.36 4.85 10.9
4/16/2021 2:15:00 AM 8.79 47.822 0.109 7.36 4.93 10.91
4/16/2021 2:30:00 AM 8.75 47.75 0.109 7.36 4.88 10.92
4/16/2021 2:45:00 AM 8.71 47.678 0.109 7.37 4.69 10.91
4/16/2021 3:00:00 AM 8.69 47.642 0.109 7.37 4.81 10.92
4/16/2021 3:15:00 AM 8.65 47.57 0.109 7.37 4.95 10.94
4/16/2021 3:30:00 AM 8.62 47.516 0.109 7.38 4.95 10.93
4/16/2021 3:45:00 AM 8.59 47.462 0.109 7.38 4.86 10.94
4/16/2021 4:00:00 AM 8.56 47.408 0.109 7.38 4.76 10.94
4/16/2021 4:15:00 AM 8.54 47.372 0.109 7.38 5 10.93
4/16/2021 4:30:00 AM 8.51 47.318 0.109 7.38 4.96 10.94
4/16/2021 4:45:00 AM 8.48 47.264 0.109 7.38 4.94 10.94
4/16/2021 5:00:00 AM 8.44 47.192 0.109 7.39 4.96 10.96
4/16/2021 5:15:00 AM 8.42 47.156 0.109 7.39 4.81 10.96
4/16/2021 5:30:00 AM 8.39 47.102 0.109 7.38 4.94 10.97
4/16/2021 5:45:00 AM 8.36 47.048 0.109 7.39 4.96 10.96
4/16/2021 6:00:00 AM 8.32 46.976 0.109 7.39 4.95 10.99
4/16/2021 6:15:00 AM 8.28 46.904 0.108 7.39 4.87 10.99
4/16/2021 6:30:00 AM 8.25 46.85 0.108 7.39 4.94 11.01
4/16/2021 6:45:00 AM 8.23 46.814 0.108 7.38 5.1 11.03
4/16/2021 7:00:00 AM 8.2 46.76 0.108 7.39 4.99 11.07
4/16/2021 7:15:00 AM 8.18 46.724 0.108 7.39 5.05 11.08
4/16/2021 7:30:00 AM 8.15 46.67 0.108 7.4 5.6 11.13
4/16/2021 7:45:00 AM 8.12 46.616 0.108 7.4 4.98 11.16
4/16/2021 8:00:00 AM 8.1 46.58 0.108 7.41 5.31 11.23
4/16/2021 8:15:00 AM 8.08 46.544 0.108 7.43 5.06 11.34
4/16/2021 8:30:00 AM 8.08 46.544 0.108 7.44 5.05 11.38
4/16/2021 8:45:00 AM 8.07 46.526 0.108 7.45 5.2 11.4
4/16/2021 9:00:00 AM 8.06 46.508 0.108 7.47 5.3 11.48
4/16/2021 9:15:00 AM 8.06 46.508 0.108 7.48 5.12 11.54
4/16/2021 9:30:00 AM 8.06 46.508 0.108 7.5